ftp/pub/palmer/observations_modified/2019/June/original_files/AR190621_BASE.txt
Download
Sample DateTime Unit Id WS Avg 2min WD Avg 2min WGS 10min WGD 10min Air Temp Rel Humidity Dew Point Pyranometer Quantum Air Pressure Snow Level Rainfall PW Current Visibility CBase 1 CBase 2 CBase 3 Vert Vis
2019/06/21 00:00:00 BASE 4.08 18 6.53 32 -5.5 77 -8.9 0 0 982.4 NA 0.0000 9999 7020 0 0 0
2019/06/21 00:01:00 BASE 5.11 21 6.53 32 -5.5 76 -9.0 0 0 982.4 NA 0.0000 9999 3250 7050 0 0
2019/06/21 00:02:00 BASE 5.72 26 6.28 52 -5.4 76 -9.0 0 0 982.4 NA 0.0000 9999 3250 7020 0 0
2019/06/21 00:03:00 BASE 5.94 22 7.36 20 -5.4 75 -9.1 0 0 982.4 NA 0.0000 9999 3640 0 0 0
2019/06/21 00:04:00 BASE 6.33 23 7.41 29 -5.4 75 -9.1 0 0 982.5 NA 0.0000 9999 3610 0 0 0
2019/06/21 00:05:00 BASE 6.40 27 7.41 29 -5.5 75 -9.1 0 0 982.5 NA 0.0000 9999 3280 0 0 0
2019/06/21 00:06:00 BASE 5.86 28 7.41 29 -5.5 76 -9.1 0 0 982.6 NA 0.0000 9999 3350 0 0 0
2019/06/21 00:07:00 BASE 5.45 28 7.41 29 -5.5 76 -9.0 0 0 982.6 NA 0.0000 9999 3350 0 0 0
2019/06/21 00:08:00 BASE 5.26 29 7.41 29 -5.5 76 -9.0 0 0 982.6 NA 0.0000 9999 3450 0 0 0
2019/06/21 00:09:00 BASE 5.28 37 7.41 29 -5.5 76 -9.0 0 0 982.6 NA 0.0000 9999 7020 0 0 0
2019/06/21 00:10:00 BASE 5.65 49 7.41 29 -5.6 76 -9.1 0 0 982.6 NA 0.0000 9999 6990 0 0 0
2019/06/21 00:11:00 BASE 5.28 52 7.41 29 -5.7 76 -9.2 0 0 982.6 NA 0.0000 9999 6920 0 0 0
2019/06/21 00:12:00 BASE 4.53 45 7.41 29 -5.7 76 -9.3 0 0 982.6 NA 0.0000 9999 6630 0 0 0
2019/06/21 00:13:00 BASE 4.13 42 7.41 29 -5.8 76 -9.3 0 0 982.6 NA 0.0000 9999 6960 0 0 0
2019/06/21 00:14:00 BASE 4.76 36 7.31 48 -5.8 76 -9.3 0 0 982.6 NA 0.0000 9999 6960 0 0 0
2019/06/21 00:15:00 BASE 6.36 36 7.87 50 -5.8 77 -9.3 0 0 982.5 NA 0.0000 9999 6990 0 0 0
2019/06/21 00:16:00 BASE 6.57 44 7.87 50 -5.8 77 -9.2 0 0 982.6 NA 0.0000 9999 6920 0 0 0
2019/06/21 00:17:00 BASE 5.87 42 7.87 50 -5.8 77 -9.1 0 0 982.6 NA 0.0000 9999 6760 0 0 0
2019/06/21 00:18:00 BASE 5.27 37 7.87 50 -5.7 77 -9.1 0 0 982.6 NA 0.0000 9999 6920 0 0 0
2019/06/21 00:19:00 BASE 5.57 41 7.87 50 -5.7 77 -9.1 0 0 982.6 NA 0.0000 9999 6760 0 0 0
2019/06/21 00:20:00 BASE 5.65 40 7.87 50 -5.8 77 -9.2 0 0 982.6 NA 0.0000 9999 6860 0 0 0
2019/06/21 00:21:00 BASE 5.44 30 7.87 50 -5.8 77 -9.2 0 0 982.5 NA 0.0000 9999 5150 6760 0 0
2019/06/21 00:22:00 BASE 6.11 27 7.87 50 -5.8 77 -9.2 0 0 982.6 NA 0.0000 9999 5150 6730 0 0
2019/06/21 00:23:00 BASE 6.00 31 7.87 50 -5.8 77 -9.2 0 0 982.6 NA 0.0000 9999 5050 6760 0 0
2019/06/21 00:24:00 BASE 4.84 24 7.87 50 -5.8 77 -9.2 0 0 982.6 NA 0.0000 9999 5020 6730 0 0
2019/06/21 00:25:00 BASE 4.45 25 7.31 51 -5.8 77 -9.2 0 0 982.6 NA 0.0000 9999 5020 6790 0 0
2019/06/21 00:26:00 BASE 5.32 35 7.25 60 -5.7 77 -9.1 0 0 982.6 NA 0.0000 9999 5090 6920 0 0
2019/06/21 00:27:00 BASE 5.60 30 7.25 60 -5.7 77 -9.1 0 0 982.6 NA 0.0000 9999 5120 6760 0 0
2019/06/21 00:28:00 BASE 5.44 36 7.25 60 -5.6 77 -9.1 0 0 982.6 NA 0.0000 9999 5120 6730 0 0
2019/06/21 00:29:00 BASE 6.16 51 7.82 56 -5.6 76 -9.1 0 0 982.6 NA 0.0000 9999 5090 6790 0 0
2019/06/21 00:30:00 BASE 6.96 58 8.54 65 -5.6 76 -9.1 0 0 982.6 NA 0.0000 9999 3540 6760 0 0
2019/06/21 00:31:00 BASE 7.05 65 8.54 65 -5.6 76 -9.2 0 0 982.6 NA 0.0000 9999 3900 6820 0 0
2019/06/21 00:32:00 BASE 6.68 73 8.54 65 -5.7 76 -9.2 0 0 982.6 NA 0.0000 9999 3580 5220 0 0
2019/06/21 00:33:00 BASE 6.11 77 8.54 65 -5.7 76 -9.3 0 0 982.6 NA 0.0000 9999 3580 5180 0 0
2019/06/21 00:34:00 BASE 5.31 76 8.54 65 -5.8 76 -9.3 0 0 982.6 NA 0.0000 9999 3480 5180 0 0
2019/06/21 00:35:00 BASE 5.22 79 8.54 65 -5.8 76 -9.4 0 0 982.6 NA 0.0000 9999 3450 5480 6730 0
2019/06/21 00:36:00 BASE 6.14 86 8.54 65 -5.9 76 -9.4 0 0 982.6 NA 0.0000 9999 6760 0 0 0
2019/06/21 00:37:00 BASE 6.36 98 8.54 65 -5.9 76 -9.5 0 0 982.6 NA 0.0000 9999 6790 0 0 0
2019/06/21 00:38:00 BASE 5.39 106 8.54 65 -5.9 76 -9.4 0 0 982.6 NA 0.0000 -SN 9999 6820 0 0 0
2019/06/21 00:39:00 BASE 4.25 103 8.54 65 -5.9 77 -9.3 0 0 982.6 NA 0.0000 -SN 9999 6890 0 0 0
2019/06/21 00:40:00 BASE 3.85 98 7.51 89 -5.8 77 -9.2 0 0 982.6 NA 0.0000 -SN 9999 3380 6860 0 0
2019/06/21 00:41:00 BASE 3.83 101 7.51 89 -5.7 77 -9.0 0 0 982.6 NA 0.0000 -SN 9999 3350 6690 0 0
2019/06/21 00:42:00 BASE 4.06 107 7.51 89 -5.6 78 -8.9 0 0 982.6 NA 0.0000 -SN 9999 6760 0 0 0
2019/06/21 00:43:00 BASE 4.99 107 7.51 89 -5.6 78 -8.8 0 0 982.6 NA 0.0000 -SN 9999 6760 0 0 0
2019/06/21 00:44:00 BASE 5.61 107 7.51 89 -5.5 78 -8.7 0 0 982.6 NA 0.0000 -SN 9999 6690 0 0 0
2019/06/21 00:45:00 BASE 5.05 116 7.51 89 -5.5 78 -8.7 0 0 982.6 NA 0.0000 -SN 9999 2530 6790 0 0
2019/06/21 00:46:00 BASE 5.11 131 6.84 141 -5.5 79 -8.6 0 0 982.6 NA 0.0000 -SN 9999 2590 6760 0 0
2019/06/21 00:47:00 BASE 4.44 150 6.84 141 -5.4 79 -8.5 0 0 982.6 NA 0.0000 -SN 9999 6690 0 0 0
2019/06/21 00:48:00 BASE 2.42 163 6.84 141 -5.4 79 -8.5 0 0 982.5 NA 0.0000 -SN 9999 6660 0 0 0
2019/06/21 00:49:00 BASE 0.87 170 6.84 141 -5.4 79 -8.4 0 0 982.5 NA 0.0000 -SN 9999 1150 6690 0 0
2019/06/21 00:50:00 BASE 0.18 178 6.84 141 -5.3 79 -8.4 0 0 982.5 NA 0.0000 -SN 9999 1670 6590 0 0
2019/06/21 00:51:00 BASE 0.39 182 6.84 141 -5.3 79 -8.3 0 0 982.5 NA 0.0000 -SN 9999 1940 6630 0 0
2019/06/21 00:52:00 BASE 0.95 174 6.84 141 -5.2 79 -8.3 0 0 982.5 NA 0.0000 -SN 9999 1870 6630 0 0
2019/06/21 00:53:00 BASE 0.76 165 6.84 141 -5.2 79 -8.3 0 0 982.6 NA 0.0000 -SN 9999 2000 6590 0 0
2019/06/21 00:54:00 BASE 0.10 167 6.84 141 -5.1 78 -8.3 0 0 982.6 NA 0.0000 -SN 9999 2000 6560 0 0
2019/06/21 00:55:00 BASE 0.00 175 6.84 141 -5.2 78 -8.4 0 0 982.6 NA 0.0000 -SN 9999 1870 6560 0 0
2019/06/21 00:56:00 BASE 0.00 232 4.78 142 -5.2 78 -8.4 0 0 982.6 NA 0.0000 -SN 9999 1900 6590 7970 0
2019/06/21 00:57:00 BASE 0.00 269 1.95 164 -5.2 78 -8.5 0 0 982.6 NA 0.0000 -SN 9999 1900 3050 6630 0
2019/06/21 00:58:00 BASE 0.00 262 1.44 160 -5.3 78 -8.5 0 0 982.7 NA 0.0000 -SN 9999 2030 3050 6660 0
2019/06/21 00:59:00 BASE 0.00 262 1.44 160 -5.3 78 -8.5 0 0 982.7 NA 0.0000 -SN 9999 2170 2990 8040 0
2019/06/21 01:00:00 BASE 0.00 263 1.44 160 -5.3 78 -8.5 0 0 982.7 NA 0.0000 9999 2130 3080 8100 0
2019/06/21 01:01:00 BASE 0.00 260 1.44 160 -5.3 79 -8.4 0 0 982.7 NA 0.0000 9999 1970 3120 0 0
2019/06/21 01:02:00 BASE 0.35 157 1.70 103 -5.3 79 -8.4 0 0 982.7 NA 0.0000 9999 2000 2850 0 0
2019/06/21 01:03:00 BASE 0.66 119 1.70 103 -5.3 79 -8.4 0 0 982.7 NA 0.0000 9999 2200 0 0 0
2019/06/21 01:04:00 BASE 1.23 123 2.93 121 -5.4 79 -8.4 0 0 982.7 NA 0.0000 9999 1870 7910 0 0
2019/06/21 01:05:00 BASE 2.29 101 3.24 84 -5.4 79 -8.5 0 0 982.6 NA 0.0000 9999 1310 8040 0 0
2019/06/21 01:06:00 BASE 3.10 106 4.12 132 -5.5 79 -8.6 0 0 982.6 NA 0.0000 9999 1610 5220 8070 0
2019/06/21 01:07:00 BASE 3.28 114 4.12 132 -5.6 79 -8.7 0 0 982.6 NA 0.0000 9999 1900 8100 0 0
2019/06/21 01:08:00 BASE 2.88 111 4.37 138 -5.7 78 -8.8 0 0 982.7 NA 0.0000 9999 1940 8040 0 0
2019/06/21 01:09:00 BASE 2.86 108 4.37 138 -5.8 78 -9.0 0 0 982.7 NA 0.0000 9999 1940 0 0 0
2019/06/21 01:10:00 BASE 3.46 98 4.89 87 -5.9 78 -9.1 0 0 982.7 NA 0.0000 9999 1740 0 0 0
2019/06/21 01:11:00 BASE 5.08 92 7.51 93 -6.0 78 -9.2 0 0 982.7 NA 0.0000 9999 1870 7970 0 0
2019/06/21 01:12:00 BASE 6.89 89 8.03 92 -6.1 78 -9.3 0 0 982.7 NA 0.0000 9999 1510 0 0 0
2019/06/21 01:13:00 BASE 7.74 87 9.21 101 -6.2 78 -9.4 0 0 982.6 NA 0.0000 9999 1480 0 0 0
2019/06/21 01:14:00 BASE 7.42 88 9.21 101 -6.2 78 -9.4 0 0 982.7 NA 0.0000 9999 3150 0 0 0
2019/06/21 01:15:00 BASE 6.82 90 9.21 101 -6.1 78 -9.3 0 0 982.7 NA 0.0000 9999 2260 0 0 0
2019/06/21 01:16:00 BASE 6.59 92 9.21 101 -6.0 78 -9.3 0 0 982.7 NA 0.0000 9999 2030 0 0 0
2019/06/21 01:17:00 BASE 6.49 92 9.21 101 -6.0 77 -9.3 0 0 982.7 NA 0.0000 9999 2130 0 0 0
2019/06/21 01:18:00 BASE 6.78 87 9.21 101 -5.9 77 -9.3 0 0 982.7 NA 0.0000 9999 2130 7940 0 0
2019/06/21 01:19:00 BASE 6.60 85 9.21 101 -5.9 76 -9.4 0 0 982.7 NA 0.0000 9999 2070 0 0 0
2019/06/21 01:20:00 BASE 7.17 85 9.21 101 -5.9 76 -9.5 0 0 982.6 NA 0.0000 9999 2100 0 0 0
2019/06/21 01:21:00 BASE 8.15 85 9.21 101 -5.9 75 -9.6 0 0 982.6 NA 0.0000 9999 2030 0 0 0
2019/06/21 01:22:00 BASE 8.96 87 10.65 90 -6.0 75 -9.7 0 0 982.6 NA 0.0000 9999 1970 0 0 0
2019/06/21 01:23:01 BASE 9.33 88 10.65 90 -6.0 74 -9.8 0 0 982.6 NA 0.0000 9999 1870 0 0 0
2019/06/21 01:24:00 BASE 8.56 80 10.65 90 -6.0 74 -9.8 0 0 982.6 NA 0.0000 9999 1770 2430 0 0
2019/06/21 01:25:00 BASE 7.56 75 10.65 90 -5.9 74 -9.8 0 0 982.6 NA 0.0000 9999 1840 2430 0 0
2019/06/21 01:26:00 BASE 7.87 76 10.85 71 -5.8 74 -9.7 0 0 982.6 NA 0.0000 9999 1840 0 0 0
2019/06/21 01:27:00 BASE 8.64 72 10.85 71 -5.7 73 -9.7 0 0 982.7 NA 0.0000 9999 1870 2560 0 0
2019/06/21 01:28:00 BASE 8.32 73 10.85 71 -5.7 73 -9.8 0 0 982.6 NA 0.0000 9999 1870 0 0 0
2019/06/21 01:29:00 BASE 7.91 79 10.85 71 -5.7 72 -9.9 0 0 982.6 NA 0.0000 9999 1800 0 0 0
2019/06/21 01:30:00 BASE 7.68 81 10.85 71 -5.7 72 -10.0 0 0 982.6 NA 0.0000 9999 1640 0 0 0
2019/06/21 01:31:00 BASE 8.03 85 10.85 71 -5.7 71 -10.1 0 0 982.6 NA 0.0000 9999 1640 0 0 0
2019/06/21 01:32:00 BASE 8.58 87 10.85 71 -5.7 71 -10.1 0 0 982.6 NA 0.0000 9999 1540 0 0 0
2019/06/21 01:33:04 BASE 8.26 86 10.85 71 -5.7 71 -10.1 0 0 982.6 NA 0.0000 9999 1540 0 0 0
2019/06/21 01:34:00 BASE 7.93 87 10.85 71 -5.8 72 -10.1 0 0 982.6 NA 0.0000 9999 1350 0 0 0
2019/06/21 01:35:00 BASE 7.90 86 10.85 71 -5.9 72 -10.1 0 0 982.6 NA 0.0000 9999 1440 0 0 0
2019/06/21 01:36:00 BASE 7.82 86 10.60 95 -5.9 72 -10.2 0 0 982.6 NA 0.0000 9999 1380 2200 0 0
2019/06/21 01:37:00 BASE 8.19 87 10.60 95 -6.0 72 -10.2 0 0 982.6 NA 0.0000 9999 2030 0 0 0
2019/06/21 01:38:00 BASE 8.01 84 10.60 95 -6.0 72 -10.2 0 0 982.7 NA 0.0000 9999 0 0 0 0
2019/06/21 01:39:00 BASE 7.76 81 10.60 95 -6.0 72 -10.2 0 0 982.7 NA 0.0000 9999 0 0 0 1800
2019/06/21 01:40:00 BASE 7.96 80 10.60 95 -6.0 72 -10.3 0 0 982.7 NA 0.0000 9999 0 0 0 1870
2019/06/21 01:41:00 BASE 7.99 79 10.60 95 -6.0 72 -10.2 0 0 982.7 NA 0.0000 9999 0 0 0 2100
2019/06/21 01:42:00 BASE 7.99 80 9.26 81 -6.0 72 -10.2 0 0 982.7 NA 0.0000 9999 0 0 0 2260
2019/06/21 01:43:00 BASE 7.70 80 9.26 81 -6.0 72 -10.2 0 0 982.7 NA 0.0000 9999 2300 0 0 0
2019/06/21 01:44:00 BASE 7.41 81 9.26 81 -6.0 72 -10.2 0 0 982.7 NA 0.0000 9999 2300 0 0 0
2019/06/21 01:45:00 BASE 7.32 84 9.26 81 -6.0 72 -10.2 0 0 982.7 NA 0.0000 9999 2300 0 0 0
2019/06/21 01:46:00 BASE 7.03 87 9.26 81 -6.0 72 -10.3 0 0 982.7 NA 0.0000 9999 2230 0 0 0
2019/06/21 01:47:00 BASE 7.32 85 8.64 82 -6.1 72 -10.3 0 0 982.7 NA 0.0000 9999 2200 0 0 0
2019/06/21 01:48:00 BASE 7.20 85 8.64 82 -6.1 72 -10.3 0 0 982.7 NA 0.0000 9999 2200 0 0 0
2019/06/21 01:49:00 BASE 6.38 86 8.59 83 -6.1 73 -10.3 0 0 982.7 NA 0.0000 9999 2200 0 0 0
2019/06/21 01:50:00 BASE 5.89 88 8.49 83 -6.1 73 -10.2 0 0 982.7 NA 0.0000 9999 7970 0 0 0
2019/06/21 01:51:00 BASE 4.86 84 8.49 83 -6.1 73 -10.2 0 0 982.7 NA 0.0000 9999 7940 0 0 0
2019/06/21 01:52:00 BASE 4.69 86 8.39 82 -6.1 73 -10.1 0 0 982.7 NA 0.0000 9999 7970 0 0 0
2019/06/21 01:53:00 BASE 5.38 95 8.39 82 -6.1 73 -10.2 0 0 982.7 NA 0.0000 9999 7940 0 0 0
2019/06/21 01:54:00 BASE 6.55 94 8.39 82 -6.2 72 -10.4 0 0 982.7 NA 0.0000 9999 7970 0 0 0
2019/06/21 01:55:00 BASE 7.44 91 8.44 90 -6.3 72 -10.5 0 0 982.7 NA 0.0000 9999 2400 7970 0 0
2019/06/21 01:56:00 BASE 7.14 96 8.44 90 -6.4 72 -10.6 0 0 982.8 NA 0.0000 9999 2490 0 0 0
2019/06/21 01:57:00 BASE 6.88 100 8.44 90 -6.5 72 -10.6 0 0 982.8 NA 0.0000 9999 2430 0 0 0
2019/06/21 01:58:00 BASE 6.91 95 8.44 90 -6.5 73 -10.6 0 0 982.8 NA 0.0000 9999 2400 0 0 0
2019/06/21 01:59:00 BASE 7.04 93 8.44 90 -6.5 73 -10.6 0 0 982.8 NA 0.0000 9999 0 0 0 0
2019/06/21 02:00:00 BASE 7.05 96 8.44 90 -6.6 73 -10.7 0 0 982.8 NA 0.0000 9999 2430 0 0 0
2019/06/21 02:01:00 BASE 7.14 97 8.44 90 -6.7 72 -10.8 0 0 982.8 NA 0.0000 9999 2400 0 0 0
2019/06/21 02:02:00 BASE 7.15 98 8.44 90 -6.8 72 -10.9 0 0 982.8 NA 0.0000 9999 2400 0 0 0
2019/06/21 02:03:00 BASE 7.06 96 8.44 90 -6.8 72 -11.0 0 0 982.8 NA 0.0000 9999 2260 0 0 0
2019/06/21 02:04:00 BASE 7.17 96 8.44 90 -6.9 73 -11.0 0 0 982.8 NA 0.0000 9999 2430 7840 0 0
2019/06/21 02:05:00 BASE 7.41 100 8.39 102 -6.9 73 -11.0 0 0 982.8 NA 0.0000 9999 2430 0 0 0
2019/06/21 02:06:00 BASE 7.30 102 8.39 102 -6.8 73 -10.9 0 0 982.8 NA 0.0000 9999 2330 0 0 0
2019/06/21 02:07:00 BASE 7.21 100 7.82 101 -6.7 73 -10.8 0 0 982.8 NA 0.0000 9999 2360 0 0 0
2019/06/21 02:08:00 BASE 6.99 98 7.82 101 -6.7 73 -10.7 0 0 982.8 NA 0.0000 9999 2260 0 0 0
2019/06/21 02:09:00 BASE 6.32 98 7.82 101 -6.7 73 -10.7 0 0 982.8 NA 0.0000 9999 2300 0 0 0
2019/06/21 02:10:00 BASE 6.22 97 7.82 101 -6.6 73 -10.6 0 0 982.8 NA 0.0000 9999 2300 0 0 0
2019/06/21 02:11:00 BASE 6.46 94 7.82 101 -6.5 73 -10.5 0 0 982.8 NA 0.0000 9999 2300 0 0 0
2019/06/21 02:12:00 BASE 5.99 90 7.82 101 -6.4 73 -10.5 0 0 982.8 NA 0.0000 9999 2300 0 0 0
2019/06/21 02:13:00 BASE 5.67 90 7.82 101 -6.4 73 -10.5 0 0 982.8 NA 0.0000 9999 2360 0 0 0
2019/06/21 02:14:00 BASE 5.54 96 7.82 101 -6.3 73 -10.4 0 0 982.8 NA 0.0000 9999 2360 0 0 0
2019/06/21 02:15:00 BASE 5.67 105 7.72 98 -6.3 73 -10.4 0 0 982.8 NA 0.0000 9999 2460 0 0 0
2019/06/21 02:16:00 BASE 5.03 104 7.72 98 -6.2 73 -10.3 0 0 982.8 NA 0.0000 9999 2300 0 0 0
2019/06/21 02:17:00 BASE 5.30 100 7.51 98 -6.1 72 -10.3 0 0 982.8 NA 0.0000 9999 2260 0 0 0
2019/06/21 02:18:00 BASE 6.61 100 7.51 98 -6.0 72 -10.2 0 0 982.8 NA 0.0000 9999 2200 0 0 0
2019/06/21 02:19:00 BASE 5.93 100 7.51 98 -6.0 72 -10.2 0 0 982.8 NA 0.0000 9999 2200 0 0 0
2019/06/21 02:20:00 BASE 4.84 101 7.51 98 -5.9 72 -10.2 0 0 982.8 NA 0.0000 9999 2260 0 0 0
2019/06/21 02:21:00 BASE 5.30 104 7.41 102 -6.0 71 -10.4 0 0 982.7 NA 0.0000 9999 2230 0 0 0
2019/06/21 02:22:00 BASE 5.92 103 7.41 102 -6.1 71 -10.5 0 0 982.8 NA 0.0000 9999 2100 0 0 0
2019/06/21 02:23:00 BASE 4.94 110 7.41 102 -6.1 71 -10.5 0 0 982.8 NA 0.0000 9999 2200 0 0 0
2019/06/21 02:24:00 BASE 4.34 125 7.41 102 -6.2 71 -10.5 0 0 982.8 NA 0.0000 9999 2170 0 0 0
2019/06/21 02:25:00 BASE 4.79 121 7.41 102 -6.2 72 -10.5 0 0 982.8 NA 0.0000 9999 2100 0 0 0
2019/06/21 02:26:00 BASE 4.87 110 7.41 102 -6.1 72 -10.3 0 0 982.8 NA 0.0000 9999 2230 0 0 0
2019/06/21 02:27:00 BASE 5.09 94 7.41 102 -6.0 73 -10.1 0 0 982.8 NA 0.0000 9999 2230 0 0 0
2019/06/21 02:28:00 BASE 4.68 84 7.41 102 -5.9 73 -10.0 0 0 982.8 NA 0.0000 9999 2300 0 0 0
2019/06/21 02:29:00 BASE 4.32 85 7.41 102 -5.9 72 -10.0 0 0 982.8 NA 0.0000 9999 2330 0 0 0
2019/06/21 02:30:00 BASE 5.24 88 7.41 102 -5.9 72 -10.2 0 0 982.8 NA 0.0000 9999 2300 0 0 0
2019/06/21 02:31:00 BASE 5.16 95 6.22 84 -6.0 71 -10.4 0 0 982.8 NA 0.0000 9999 2300 0 0 0
2019/06/21 02:32:00 BASE 4.66 96 6.22 84 -6.0 71 -10.5 0 0 982.9 NA 0.0000 9999 2330 0 0 0
2019/06/21 02:33:00 BASE 5.12 96 6.22 84 -6.1 70 -10.6 0 0 982.9 NA 0.0000 9999 2430 0 0 0
2019/06/21 02:34:00 BASE 5.57 96 6.22 84 -6.2 70 -10.8 0 0 982.9 NA 0.0000 9999 0 0 0 0
2019/06/21 02:35:00 BASE 5.65 90 6.69 85 -6.2 70 -10.7 0 0 982.9 NA 0.0000 9999 0 0 0 0
2019/06/21 02:36:00 BASE 5.58 83 6.69 85 -6.2 70 -10.8 0 0 982.9 NA 0.0000 9999 0 0 0 0
2019/06/21 02:37:00 BASE 4.89 82 6.69 85 -6.3 70 -10.9 0 0 982.9 NA 0.0000 9999 0 0 0 0
2019/06/21 02:38:00 BASE 4.63 87 6.69 85 -6.3 70 -10.8 0 0 982.9 NA 0.0000 9999 0 0 0 0
2019/06/21 02:39:00 BASE 5.22 89 6.69 85 -6.2 70 -10.8 0 0 982.9 NA 0.0000 9999 0 0 0 0
2019/06/21 02:40:00 BASE 5.53 90 6.69 85 -6.3 70 -10.8 0 0 982.9 NA 0.0000 9999 0 0 0 0
2019/06/21 02:41:00 BASE 5.51 89 6.69 85 -6.3 70 -11.0 0 0 982.9 NA 0.0000 9999 0 0 0 0
2019/06/21 02:42:00 BASE 5.42 89 6.69 85 -6.5 70 -11.1 0 0 982.9 NA 0.0000 9999 0 0 0 0
2019/06/21 02:43:00 BASE 5.21 90 6.69 85 -6.6 70 -11.2 0 0 982.9 NA 0.0000 9999 0 0 0 0
2019/06/21 02:44:00 BASE 5.24 89 6.69 85 -6.8 70 -11.4 0 0 982.9 NA 0.0000 9999 0 0 0 0
2019/06/21 02:45:00 BASE 5.29 90 6.12 91 -6.9 70 -11.5 0 0 982.9 NA 0.0000 9999 2490 0 0 0
2019/06/21 02:46:00 BASE 5.04 91 6.12 91 -7.0 70 -11.5 0 0 982.9 NA 0.0000 9999 2560 0 0 0
2019/06/21 02:47:00 BASE 5.03 92 6.12 91 -7.1 70 -11.6 0 0 982.9 NA 0.0000 9999 2490 0 0 0
2019/06/21 02:48:00 BASE 5.23 91 6.12 91 -7.2 71 -11.6 0 0 982.9 NA 0.0000 9999 2400 0 0 0
2019/06/21 02:49:00 BASE 5.26 95 6.07 100 -7.1 71 -11.4 0 0 982.9 NA 0.0000 9999 2560 0 0 0
2019/06/21 02:50:00 BASE 4.94 100 6.07 100 -7.1 72 -11.3 0 0 982.9 NA 0.0000 9999 2620 0 0 0
2019/06/21 02:51:00 BASE 4.68 99 6.07 100 -7.0 72 -11.2 0 0 982.9 NA 0.0000 9999 0 0 0 0
2019/06/21 02:52:00 BASE 4.21 102 6.07 100 -6.9 72 -11.0 0 0 982.9 NA 0.0000 9999 0 0 0 0
2019/06/21 02:53:00 BASE 3.76 108 6.07 100 -6.8 72 -10.9 0 0 983.0 NA 0.0000 9999 0 0 0 0
2019/06/21 02:54:00 BASE 3.98 105 6.07 100 -6.6 72 -10.8 0 0 982.9 NA 0.0000 9999 2590 0 0 0
2019/06/21 02:55:00 BASE 4.10 102 6.07 100 -6.5 72 -10.7 0 0 983.0 NA 0.0000 9999 2620 0 0 0
2019/06/21 02:56:00 BASE 3.64 108 6.07 100 -6.5 72 -10.6 0 0 983.0 NA 0.0000 9999 2530 0 0 0
2019/06/21 02:57:00 BASE 2.69 111 6.07 100 -6.4 72 -10.6 0 0 982.9 NA 0.0000 9999 2460 0 0 0
2019/06/21 02:58:00 BASE 2.59 101 6.07 100 -6.3 72 -10.5 0 0 983.0 NA 0.0000 9999 2200 0 0 0
2019/06/21 02:59:00 BASE 3.04 92 5.50 110 -6.2 72 -10.5 0 0 983.0 NA 0.0000 9999 2230 0 0 0
2019/06/21 03:00:00 BASE 2.71 93 5.35 91 -6.1 72 -10.4 0 0 983.0 NA 0.0000 9999 2300 0 0 0
2019/06/21 03:01:00 BASE 2.36 99 5.04 105 -6.0 71 -10.3 0 0 983.1 NA 0.0000 9999 2430 0 0 0
2019/06/21 03:02:00 BASE 3.08 98 5.04 105 -6.0 71 -10.4 0 0 983.1 NA 0.0000 9999 2330 0 0 0
2019/06/21 03:03:00 BASE 3.85 90 5.04 105 -6.0 71 -10.5 0 0 983.1 NA 0.0000 9999 2330 0 0 0
2019/06/21 03:04:00 BASE 3.97 84 5.04 105 -6.0 70 -10.5 0 0 983.1 NA 0.0000 9999 2300 0 0 0
2019/06/21 03:05:00 BASE 4.10 81 4.48 82 -5.9 70 -10.6 0 0 983.1 NA 0.0000 9999 2260 0 0 0
2019/06/21 03:06:00 BASE 3.80 75 4.48 82 -5.9 69 -10.7 0 0 983.1 NA 0.0000 9999 2260 0 0 0
2019/06/21 03:07:00 BASE 3.02 73 4.48 82 -5.9 69 -10.7 0 0 983.1 NA 0.0000 9999 2230 0 0 0
2019/06/21 03:08:00 BASE 2.91 74 4.48 82 -5.8 68 -10.7 0 0 983.1 NA 0.0000 9999 2260 0 0 0
2019/06/21 03:09:00 BASE 3.36 73 4.48 82 -5.8 68 -10.8 0 0 983.0 NA 0.0000 9999 2230 0 0 0
2019/06/21 03:10:00 BASE 3.42 70 4.48 82 -5.8 67 -10.9 0 0 983.0 NA 0.0000 9999 2130 0 0 0
2019/06/21 03:11:00 BASE 3.43 65 4.48 82 -5.8 67 -11.0 0 0 982.9 NA 0.0000 9999 2100 0 0 0
2019/06/21 03:12:00 BASE 3.36 60 4.48 82 -5.9 67 -11.1 0 0 982.9 NA 0.0000 9999 2100 0 0 0
2019/06/21 03:13:00 BASE 3.17 53 4.48 82 -5.9 67 -11.1 0 0 982.9 NA 0.0000 9999 2100 0 0 0
2019/06/21 03:14:00 BASE 2.95 47 4.37 79 -5.9 67 -11.0 0 0 982.9 NA 0.0000 9999 0 0 0 0
2019/06/21 03:15:00 BASE 2.89 45 3.86 75 -5.8 68 -10.9 0 0 982.9 NA 0.0000 9999 0 0 0 0
2019/06/21 03:16:00 BASE 2.74 39 3.81 63 -5.8 68 -10.8 0 0 982.9 NA 0.0000 9999 0 0 0 0
2019/06/21 03:17:00 BASE 2.27 34 3.81 63 -5.8 68 -10.8 0 0 982.9 NA 0.0000 9999 0 0 0 0
2019/06/21 03:18:00 BASE 1.83 25 3.81 63 -5.9 69 -10.7 0 0 982.9 NA 0.0000 9999 0 0 0 0
2019/06/21 03:19:00 BASE 1.63 15 3.81 63 -5.9 69 -10.7 0 0 982.9 NA 0.0000 9999 0 0 0 0
2019/06/21 03:20:00 BASE 1.24 20 3.81 63 -5.9 70 -10.5 0 0 982.9 NA 0.0000 9999 0 0 0 0
2019/06/21 03:21:00 BASE 0.54 29 3.45 59 -6.0 71 -10.4 0 0 982.9 NA 0.0000 9999 0 0 0 0
2019/06/21 03:22:00 BASE 0.38 29 3.24 45 -5.9 71 -10.3 0 0 983.0 NA 0.0000 9999 0 0 0 0
2019/06/21 03:23:00 BASE 1.01 35 3.24 45 -5.9 72 -10.2 0 0 983.0 NA 0.0000 9999 0 0 0 0
2019/06/21 03:24:00 BASE 1.57 30 3.24 45 -5.9 72 -10.1 0 0 983.1 NA 0.0000 9999 0 0 0 0
2019/06/21 03:25:00 BASE 1.25 2 2.68 41 -5.8 72 -10.1 0 0 983.1 NA 0.0000 9999 0 0 0 0
2019/06/21 03:26:00 BASE 1.38 348 2.31 43 -5.8 72 -10.0 0 0 983.1 NA 0.0000 9999 0 0 0 0
2019/06/21 03:27:00 BASE 2.18 344 3.04 340 -5.8 73 -9.9 0 0 983.1 NA 0.0000 9999 0 0 0 0
2019/06/21 03:28:00 BASE 3.10 349 4.32 353 -5.8 73 -9.9 0 0 983.1 NA 0.0000 9999 0 0 0 0
2019/06/21 03:29:00 BASE 3.76 357 4.32 353 -5.8 73 -9.9 0 0 983.1 NA 0.0000 9999 0 0 0 0
2019/06/21 03:30:00 BASE 3.69 1 4.32 353 -5.9 73 -9.9 0 0 983.1 NA 0.0000 9999 0 0 0 0
2019/06/21 03:31:00 BASE 4.34 19 5.81 36 -6.0 74 -10.0 0 0 983.1 NA 0.0000 9999 0 0 0 0
2019/06/21 03:32:00 BASE 4.92 34 5.81 36 -6.2 74 -10.1 0 0 983.1 NA 0.0000 9999 0 0 0 0
2019/06/21 03:33:00 BASE 4.80 35 5.81 36 -6.3 74 -10.1 0 0 983.2 NA 0.0000 9999 0 0 0 0
2019/06/21 03:34:00 BASE 4.87 36 5.81 36 -6.5 75 -10.2 0 0 983.2 NA 0.0000 9999 0 0 0 0
2019/06/21 03:35:00 BASE 4.65 31 5.81 36 -6.6 75 -10.3 0 0 983.2 NA 0.0000 9999 0 0 0 0
2019/06/21 03:36:00 BASE 4.28 33 5.81 36 -6.6 76 -10.2 0 0 983.2 NA 0.0000 9999 0 0 0 0
2019/06/21 03:37:00 BASE 3.99 39 5.81 36 -6.6 76 -10.2 0 0 983.2 NA 0.0000 9999 0 0 0 0
2019/06/21 03:38:00 BASE 3.41 41 5.81 36 -6.6 76 -10.1 0 0 983.2 NA 0.0000 9999 0 0 0 0
2019/06/21 03:39:00 BASE 3.40 38 5.81 36 -6.6 76 -10.0 0 0 983.2 NA 0.0000 9999 0 0 0 0
2019/06/21 03:40:00 BASE 3.99 35 5.81 36 -6.6 77 -10.0 0 0 983.2 NA 0.0000 9999 0 0 0 0
2019/06/21 03:41:00 BASE 4.09 34 5.35 37 -6.6 77 -10.0 0 0 983.2 NA 0.0000 9999 0 0 0 0
2019/06/21 03:42:00 BASE 3.83 33 5.35 37 -6.7 77 -10.0 0 0 983.3 NA 0.0000 9999 0 0 0 0
2019/06/21 03:43:00 BASE 3.98 34 5.35 37 -6.7 77 -10.1 0 0 983.3 NA 0.0000 9999 0 0 0 0
2019/06/21 03:44:00 BASE 4.42 33 5.20 39 -6.7 77 -10.1 0 0 983.3 NA 0.0000 9999 0 0 0 0
2019/06/21 03:45:00 BASE 4.60 34 5.25 33 -6.8 77 -10.1 0 0 983.3 NA 0.0000 9999 0 0 0 0
2019/06/21 03:46:00 BASE 4.64 34 5.25 33 -6.8 78 -10.1 0 0 983.3 NA 0.0000 9999 0 0 0 0
2019/06/21 03:47:00 BASE 4.34 34 5.25 33 -6.8 78 -10.1 0 0 983.3 NA 0.0000 9999 7710 0 0 0
2019/06/21 03:48:00 BASE 4.16 34 5.25 33 -6.9 78 -10.0 0 0 983.4 NA 0.0000 9999 7610 0 0 0
2019/06/21 03:49:00 BASE 4.24 37 5.25 33 -6.9 78 -10.0 0 0 983.4 NA 0.0000 9999 7610 0 0 0
2019/06/21 03:50:00 BASE 4.34 39 5.25 33 -6.9 78 -10.0 0 0 983.4 NA 0.0000 9999 7580 0 0 0
2019/06/21 03:51:00 BASE 4.41 42 5.25 33 -6.9 79 -10.0 0 0 983.5 NA 0.0000 9999 7610 0 0 0
2019/06/21 03:52:00 BASE 4.37 43 5.25 33 -6.9 79 -10.0 0 0 983.5 NA 0.0000 9999 7610 0 0 0
2019/06/21 03:53:00 BASE 4.21 46 5.25 33 -6.9 79 -9.9 0 0 983.5 NA 0.0000 9999 7610 0 0 0
2019/06/21 03:54:00 BASE 4.10 54 5.25 33 -6.8 79 -9.8 0 0 983.5 NA 0.0000 9999 7550 0 0 0
2019/06/21 03:55:00 BASE 4.09 53 4.89 37 -6.8 79 -9.8 0 0 983.5 NA 0.0000 9999 7550 0 0 0
2019/06/21 03:56:00 BASE 3.98 46 4.78 42 -6.7 79 -9.7 0 0 983.5 NA 0.0000 9999 7550 0 0 0
2019/06/21 03:57:00 BASE 3.87 47 4.78 42 -6.7 79 -9.7 0 0 983.5 NA 0.0000 9999 7580 0 0 0
2019/06/21 03:58:00 BASE 3.79 48 4.78 42 -6.7 79 -9.7 0 0 983.5 NA 0.0000 9999 7450 0 0 0
2019/06/21 03:59:00 BASE 3.67 51 4.78 42 -6.6 79 -9.7 0 0 983.5 NA 0.0000 9999 7450 0 0 0
2019/06/21 04:00:00 BASE 3.72 50 4.78 42 -6.6 79 -9.6 0 0 983.5 NA 0.0000 9999 7420 0 0 0
2019/06/21 04:01:00 BASE 3.63 48 4.73 42 -6.5 79 -9.6 0 0 983.5 NA 0.0000 9999 7380 0 0 0
2019/06/21 04:02:00 BASE 3.48 51 4.68 43 -6.5 79 -9.5 0 0 983.5 NA 0.0000 9999 7120 0 0 0
2019/06/21 04:03:00 BASE 3.71 52 4.42 47 -6.4 79 -9.5 0 0 983.5 NA 0.0000 9999 7250 0 0 0
2019/06/21 04:04:00 BASE 3.87 54 4.42 47 -6.4 79 -9.4 0 0 983.5 NA 0.0000 9999 7280 0 0 0
2019/06/21 04:06:00 BASE 3.96 55 4.58 58 -6.4 79 -9.4 0 0 983.4 NA 0.0000 9999 7380 0 0 0
2019/06/21 04:07:00 BASE 3.94 55 4.58 58 -6.4 79 -9.4 0 0 983.5 NA 0.0000 9999 7420 0 0 0
2019/06/21 04:08:00 BASE 4.12 60 4.68 61 -6.4 79 -9.5 0 0 983.5 NA 0.0000 9999 7280 0 0 0
2019/06/21 04:09:00 BASE 4.07 60 4.68 44 -6.4 79 -9.5 0 0 983.5 NA 0.0000 9999 7320 0 0 0
2019/06/21 04:10:00 BASE 3.94 57 4.68 44 -6.4 79 -9.4 0 0 983.5 NA 0.0000 9999 7250 0 0 0
2019/06/21 04:11:01 BASE 4.24 55 5.04 39 -6.4 79 -9.4 0 0 983.5 NA 0.0000 9999 7220 0 0 0
2019/06/21 04:12:00 BASE 4.71 51 5.30 44 -6.4 79 -9.4 0 0 983.5 NA 0.0000 9999 7150 0 0 0
2019/06/21 04:13:00 BASE 4.68 52 5.30 44 -6.4 79 -9.4 0 0 983.5 NA 0.0000 9999 7050 0 0 0
2019/06/21 04:14:00 BASE 4.59 48 5.40 46 -6.4 79 -9.4 0 0 983.5 NA 0.0000 9999 6990 0 0 0
2019/06/21 04:15:00 BASE 4.64 43 5.40 46 -6.5 79 -9.5 0 0 983.5 NA 0.0000 9999 6990 0 0 0
2019/06/21 04:16:00 BASE 4.65 43 5.40 46 -6.5 79 -9.5 0 0 983.5 NA 0.0000 9999 6990 0 0 0
2019/06/21 04:17:00 BASE 4.51 45 5.40 46 -6.5 80 -9.5 0 0 983.5 NA 0.0000 9999 6960 0 0 0
2019/06/21 04:18:00 BASE 4.60 45 5.50 41 -6.5 80 -9.4 0 0 983.5 NA 0.0000 9999 6960 0 0 0
2019/06/21 04:19:00 BASE 4.48 50 5.50 41 -6.5 80 -9.4 0 0 983.5 NA 0.0000 9999 6920 0 0 0
2019/06/21 04:20:00 BASE 4.07 57 5.50 41 -6.5 80 -9.4 0 0 983.5 NA 0.0000 9999 6990 0 0 0
2019/06/21 04:21:00 BASE 3.65 55 5.50 41 -6.5 80 -9.4 0 0 983.5 NA 0.0000 9999 6990 0 0 0
2019/06/21 04:22:00 BASE 3.24 61 5.50 41 -6.6 81 -9.3 0 0 983.5 NA 0.0000 9999 7150 0 0 0
2019/06/21 04:23:00 BASE 3.18 68 5.50 41 -6.6 81 -9.3 0 0 983.5 NA 0.0000 9999 7190 0 0 0
2019/06/21 04:24:00 BASE 3.20 74 5.50 41 -6.6 81 -9.3 0 0 983.5 NA 0.0000 9999 7090 0 0 0
2019/06/21 04:25:00 BASE 3.22 74 5.50 41 -6.6 81 -9.3 0 0 983.5 NA 0.0000 9999 7050 0 0 0
2019/06/21 04:26:00 BASE 2.89 70 5.50 41 -6.5 81 -9.3 0 0 983.5 NA 0.0000 9999 7050 0 0 0
2019/06/21 04:27:00 BASE 2.48 68 5.50 41 -6.5 81 -9.2 0 0 983.5 NA 0.0000 9999 7020 0 0 0
2019/06/21 04:28:00 BASE 2.17 68 4.78 47 -6.4 81 -9.1 0 0 983.5 NA 0.0000 9999 7020 0 0 0
2019/06/21 04:29:00 BASE 2.24 67 4.73 53 -6.3 81 -9.1 0 0 983.5 NA 0.0000 9999 6990 0 0 0
2019/06/21 04:30:00 BASE 2.61 64 3.96 54 -6.2 81 -9.0 0 0 983.5 NA 0.0000 9999 6960 0 0 0
2019/06/21 04:31:00 BASE 2.48 68 3.96 54 -6.2 80 -9.0 0 0 983.5 NA 0.0000 9999 6920 0 0 0
2019/06/21 04:32:00 BASE 2.06 62 3.96 54 -6.2 80 -9.0 0 0 983.5 NA 0.0000 9999 6960 0 0 0
2019/06/21 04:33:00 BASE 2.07 52 3.96 54 -6.1 80 -9.0 0 0 983.5 NA 0.0000 9999 6990 0 0 0
2019/06/21 04:34:01 BASE 2.33 58 3.96 54 -6.1 80 -8.9 0 0 983.5 NA 0.0000 9999 7050 0 0 0
2019/06/21 04:35:00 BASE 2.47 58 3.34 66 -6.0 80 -8.9 0 0 983.5 NA 0.0000 9999 7050 0 0 0
2019/06/21 04:36:00 BASE 2.66 43 3.45 31 -6.0 80 -9.0 0 0 983.5 NA 0.0000 9999 7050 0 0 0
2019/06/21 04:37:00 BASE 2.99 37 3.65 37 -6.0 80 -9.0 0 0 983.5 NA 0.0000 9999 7020 0 0 0
2019/06/21 04:38:00 BASE 3.05 32 3.65 37 -6.0 80 -9.0 0 0 983.5 NA 0.0000 9999 7090 0 0 0
2019/06/21 04:39:00 BASE 2.72 27 3.65 37 -6.0 79 -9.0 0 0 983.5 NA 0.0000 9999 7050 0 0 0
2019/06/21 04:40:00 BASE 2.55 33 3.65 37 -6.0 79 -9.1 0 0 983.5 NA 0.0000 9999 7050 0 0 0
2019/06/21 04:41:00 BASE 2.57 35 3.65 37 -6.0 79 -9.1 0 0 983.5 NA 0.0000 9999 7020 0 0 0
2019/06/21 04:42:00 BASE 2.29 24 3.65 37 -6.0 79 -9.1 0 0 983.5 NA 0.0000 9999 7020 0 0 0
2019/06/21 04:43:00 BASE 2.48 13 3.65 37 -6.1 79 -9.1 0 0 983.5 NA 0.0000 9999 7020 0 0 0
2019/06/21 04:44:00 BASE 2.74 9 3.65 37 -6.1 79 -9.2 0 0 983.5 NA 0.0000 9999 4270 7050 0 0
2019/06/21 04:45:00 BASE 2.53 11 3.65 37 -6.1 79 -9.2 0 0 983.5 NA 0.0000 9999 4200 7020 0 0
2019/06/21 04:46:00 BASE 2.56 21 3.65 37 -6.1 79 -9.2 0 0 983.5 NA 0.0000 9999 6990 0 0 0
2019/06/21 04:47:00 BASE 2.11 25 3.40 32 -6.1 79 -9.2 0 0 983.5 NA 0.0000 9999 6920 0 0 0
2019/06/21 04:48:00 BASE 1.40 13 3.19 7 -6.1 79 -9.2 0 0 983.5 NA 0.0000 9999 6860 0 0 0
2019/06/21 04:49:00 BASE 1.47 6 3.19 7 -6.1 79 -9.1 0 0 983.6 NA 0.0000 9999 6860 0 0 0
2019/06/21 04:50:00 BASE 1.27 23 3.19 7 -6.1 79 -9.1 0 0 983.7 NA 0.0000 9999 7020 0 0 0
2019/06/21 04:51:00 BASE 1.21 41 3.19 7 -6.1 79 -9.1 0 0 983.7 NA 0.0000 9999 7090 0 0 0
2019/06/21 04:52:00 BASE 1.54 40 3.19 7 -6.2 79 -9.2 0 0 983.7 NA 0.0000 9999 7090 0 0 0
2019/06/21 04:53:00 BASE 1.49 45 3.04 6 -6.2 79 -9.2 0 0 983.7 NA 0.0000 9999 6990 0 0 0
2019/06/21 04:54:00 BASE 1.43 61 2.83 22 -6.2 79 -9.2 0 0 983.7 NA 0.0000 9999 6990 0 0 0
2019/06/21 04:55:00 BASE 1.49 55 2.78 33 -6.2 80 -9.2 0 0 983.7 NA 0.0000 9999 6990 0 0 0
2019/06/21 04:56:00 BASE 1.69 35 2.52 29 -6.2 80 -9.1 0 0 983.7 NA 0.0000 9999 6960 0 0 0
2019/06/21 04:57:00 BASE 1.76 28 2.52 29 -6.1 80 -9.0 0 0 983.7 NA 0.0000 9999 4230 7020 0 0
2019/06/21 04:58:00 BASE 1.64 43 2.52 29 -6.1 80 -9.0 0 0 983.7 NA 0.0000 9999 4170 6990 0 0
2019/06/21 04:59:00 BASE 2.11 58 3.60 63 -6.0 80 -8.9 0 0 983.7 NA 0.0000 9999 6920 0 0 0
2019/06/21 05:00:00 BASE 3.00 66 3.60 63 -6.1 80 -9.0 0 0 983.7 NA 0.0000 9999 4200 6920 0 0
2019/06/21 05:01:00 BASE 3.55 67 4.32 68 -6.1 80 -9.1 0 0 983.7 NA 0.0000 9999 4170 6990 0 0
2019/06/21 05:02:00 BASE 4.09 66 4.84 70 -6.2 80 -9.1 0 0 983.7 NA 0.0000 9999 6920 0 0 0
2019/06/21 05:03:00 BASE 4.08 62 4.84 70 -6.2 80 -9.2 0 0 983.7 NA 0.0000 9999 6890 0 0 0
2019/06/21 05:04:00 BASE 3.98 56 4.84 70 -6.3 80 -9.2 0 0 983.7 NA 0.0000 9999 6990 0 0 0
2019/06/21 05:05:00 BASE 3.66 54 4.84 70 -6.3 80 -9.2 0 0 983.7 NA 0.0000 9999 6920 0 0 0
2019/06/21 05:06:00 BASE 3.30 50 4.84 70 -6.3 80 -9.2 0 0 983.7 NA 0.0000 9999 6890 0 0 0
2019/06/21 05:07:00 BASE 3.76 42 4.84 70 -6.4 80 -9.2 0 0 983.7 NA 0.0000 9999 6820 0 0 0
2019/06/21 05:08:00 BASE 3.96 36 4.84 70 -6.4 80 -9.3 0 0 983.7 NA 0.0000 9999 4170 6790 0 0
2019/06/21 05:09:00 BASE 4.15 38 4.89 44 -6.5 80 -9.3 0 0 983.7 NA 0.0000 9999 6790 0 0 0
2019/06/21 05:10:00 BASE 4.49 36 4.89 44 -6.5 80 -9.4 0 0 983.7 NA 0.0000 9999 4130 6860 0 0
2019/06/21 05:11:00 BASE 4.32 35 4.89 44 -6.6 80 -9.4 0 0 983.7 NA 0.0000 9999 4100 6990 0 0
2019/06/21 05:12:00 BASE 4.10 36 5.50 34 -6.6 80 -9.4 0 0 983.7 NA 0.0000 9999 4100 6960 0 0
2019/06/21 05:13:00 BASE 4.34 30 5.50 34 -6.5 81 -9.3 0 0 983.7 NA 0.0000 9999 4100 6990 0 0
2019/06/21 05:14:00 BASE 4.57 30 5.50 34 -6.5 81 -9.3 0 0 983.7 NA 0.0000 9999 4100 6960 0 0
2019/06/21 05:15:00 BASE 4.13 35 5.50 34 -6.4 81 -9.2 0 0 983.7 NA 0.0000 9999 3670 0 0 0
2019/06/21 05:16:00 BASE 3.59 36 5.50 34 -6.4 81 -9.2 0 0 983.7 NA 0.0000 9999 3310 0 0 0
2019/06/21 05:17:00 BASE 3.40 41 5.50 34 -6.4 80 -9.2 0 0 983.7 NA 0.0000 9999 3080 0 0 0
2019/06/21 05:18:00 BASE 3.42 50 5.50 34 -6.4 80 -9.3 0 0 983.8 NA 0.0000 9999 3020 4200 0 0
2019/06/21 05:19:00 BASE 3.47 54 5.50 34 -6.4 80 -9.2 0 0 983.8 NA 0.0000 9999 2950 4130 0 0
2019/06/21 05:20:00 BASE 3.28 56 5.50 34 -6.4 80 -9.3 0 0 983.8 NA 0.0000 9999 3250 0 0 0
2019/06/21 05:21:00 BASE 3.30 59 5.50 34 -6.4 80 -9.3 0 0 983.8 NA 0.0000 9999 3310 0 0 0
2019/06/21 05:22:00 BASE 3.35 62 4.89 29 -6.3 80 -9.2 0 0 983.8 NA 0.0000 9999 2990 0 0 0
2019/06/21 05:23:00 BASE 2.93 64 4.89 29 -6.3 80 -9.2 0 0 983.9 NA 0.0000 9999 2920 4270 0 0
2019/06/21 05:24:00 BASE 2.25 67 4.22 49 -6.2 80 -9.1 0 0 983.9 NA 0.0000 9999 2890 4230 0 0
2019/06/21 05:25:00 BASE 1.64 69 4.22 49 -6.2 80 -9.1 0 0 983.9 NA 0.0000 9999 3120 0 0 0
2019/06/21 05:26:00 BASE 1.36 69 4.22 49 -6.2 80 -9.1 0 0 983.9 NA 0.0000 9999 3220 4300 0 0
2019/06/21 05:27:00 BASE 1.46 63 4.22 49 -6.1 80 -9.1 0 0 983.9 NA 0.0000 9999 2920 4270 0 0
2019/06/21 05:28:00 BASE 1.63 52 3.91 57 -6.1 79 -9.1 0 0 983.9 NA 0.0000 9999 2660 4200 0 0
2019/06/21 05:29:01 BASE 1.68 51 3.76 62 -6.1 79 -9.2 0 0 983.9 NA 0.0000 9999 2950 4040 0 0
2019/06/21 05:30:00 BASE 2.00 58 3.76 62 -6.2 79 -9.3 0 0 983.9 NA 0.0000 9999 3050 4130 0 0
2019/06/21 05:31:00 BASE 2.51 61 3.65 58 -6.2 78 -9.3 0 0 983.9 NA 0.0000 9999 4130 0 0 0
2019/06/21 05:32:00 BASE 2.61 60 3.14 58 -6.2 78 -9.4 0 0 983.9 NA 0.0000 9999 4070 0 0 0
2019/06/21 05:33:00 BASE 2.58 58 3.14 58 -6.2 78 -9.4 0 0 983.9 NA 0.0000 9999 4070 0 0 0
2019/06/21 05:34:00 BASE 2.53 55 3.14 58 -6.2 78 -9.4 0 0 983.9 NA 0.0000 9999 4200 0 0 0
2019/06/21 05:35:00 BASE 2.36 51 3.14 58 -6.2 78 -9.4 0 0 983.9 NA 0.0000 9999 3480 0 0 0
2019/06/21 05:36:00 BASE 2.33 46 3.14 58 -6.2 78 -9.4 0 0 983.9 NA 0.0000 9999 3050 4330 0 0
2019/06/21 05:37:00 BASE 2.43 49 3.14 58 -6.2 78 -9.4 0 0 983.9 NA 0.0000 9999 3480 0 0 0
2019/06/21 05:38:00 BASE 2.68 53 3.14 58 -6.2 78 -9.4 0 0 983.9 NA 0.0000 9999 3870 0 0 0
2019/06/21 05:39:00 BASE 3.14 59 3.76 65 -6.3 78 -9.5 0 0 983.9 NA 0.0000 9999 3940 0 0 0
2019/06/21 05:40:00 BASE 3.38 62 3.76 65 -6.3 78 -9.5 0 0 983.9 NA 0.0000 9999 3940 0 0 0
2019/06/21 05:41:00 BASE 3.34 62 3.76 65 -6.3 78 -9.5 0 0 983.9 NA 0.0000 9999 3870 0 0 0
2019/06/21 05:42:00 BASE 3.26 60 3.76 65 -6.4 78 -9.5 0 0 983.9 NA 0.0000 9999 3710 0 0 0
2019/06/21 05:43:00 BASE 3.18 58 3.76 65 -6.3 78 -9.5 0 0 984.0 NA 0.0000 9999 2790 3810 0 0
2019/06/21 05:44:00 BASE 2.99 60 3.76 65 -6.3 79 -9.4 0 0 983.9 NA 0.0000 9999 3900 0 0 0
2019/06/21 05:45:00 BASE 2.59 57 3.76 65 -6.3 79 -9.4 0 0 983.9 NA 0.0000 9999 2850 0 0 0
2019/06/21 05:46:00 BASE 2.37 56 3.76 65 -6.3 79 -9.3 0 0 983.9 NA 0.0000 9999 2850 0 0 0
2019/06/21 05:47:00 BASE 2.20 61 3.76 65 -6.3 79 -9.3 0 0 983.9 NA 0.0000 9999 3770 0 0 0
2019/06/21 05:48:00 BASE 2.01 62 3.76 65 -6.2 79 -9.3 0 0 984.0 NA 0.0000 9999 3670 0 0 0
2019/06/21 05:49:00 BASE 2.02 56 3.70 58 -6.2 79 -9.3 0 0 984.0 NA 0.0000 9999 3770 0 0 0
2019/06/21 05:50:00 BASE 2.07 51 3.70 58 -6.2 79 -9.2 0 0 984.0 NA 0.0000 9999 2950 0 0 0
2019/06/21 05:51:00 BASE 2.04 50 3.65 59 -6.1 79 -9.2 0 0 984.0 NA 0.0000 9999 2950 3770 0 0
2019/06/21 05:52:00 BASE 1.95 51 3.65 59 -6.1 79 -9.1 0 0 984.0 NA 0.0000 9999 3640 0 0 0
2019/06/21 05:53:00 BASE 1.89 48 3.09 62 -6.1 79 -9.1 0 0 984.0 NA 0.0000 9999 3740 0 0 0
2019/06/21 05:54:00 BASE 1.77 41 2.68 58 -6.1 80 -9.0 0 0 984.0 NA 0.0000 9999 3120 0 0 0
2019/06/21 05:55:00 BASE 1.54 38 2.57 63 -6.1 80 -9.0 0 0 984.0 NA 0.0000 9999 2920 0 0 0
2019/06/21 05:56:00 BASE 1.36 41 2.26 51 -6.1 80 -9.0 0 0 984.0 NA 0.0000 9999 2660 3640 0 0
2019/06/21 05:57:00 BASE 1.37 45 2.26 51 -6.1 80 -9.0 0 0 984.0 NA 0.0000 9999 3670 0 0 0
2019/06/21 05:58:00 BASE 1.51 46 2.26 51 -6.1 80 -8.9 0 0 984.0 NA 0.0000 9999 3670 0 0 0
2019/06/21 05:59:00 BASE 1.62 51 2.21 48 -6.1 80 -9.0 0 0 984.0 NA 0.0000 9999 3250 0 0 0
2019/06/21 06:00:00 BASE 1.81 62 2.21 48 -6.1 80 -9.0 0 0 984.0 NA 0.0000 9999 2790 3540 0 0
2019/06/21 06:01:00 BASE 1.84 69 2.11 69 -6.0 79 -9.0 0 0 984.0 NA 0.0000 9999 2530 4000 0 0
2019/06/21 06:02:00 BASE 1.45 75 2.11 69 -6.0 79 -9.0 0 0 984.0 NA 0.0000 9999 2430 0 0 0
2019/06/21 06:03:00 BASE 1.27 81 2.11 69 -6.0 79 -9.1 0 0 984.0 NA 0.0000 9999 2430 0 0 0
2019/06/21 06:04:00 BASE 1.32 75 2.11 69 -6.0 79 -9.1 0 0 984.0 NA 0.0000 9999 4000 0 0 0
2019/06/21 06:05:00 BASE 0.73 76 2.11 69 -6.0 78 -9.2 0 0 984.0 NA 0.0000 9999 2400 0 0 0
2019/06/21 06:06:00 BASE 0.09 92 2.11 69 -6.0 78 -9.2 0 0 984.0 NA 0.0000 9999 2260 0 0 0
2019/06/21 06:07:00 BASE 0.00 100 2.11 69 -6.0 78 -9.2 0 0 984.0 NA 0.0000 9999 2170 0 0 0
2019/06/21 06:08:00 BASE 0.00 99 2.11 69 -6.0 78 -9.2 0 0 984.0 NA 0.0000 9999 2170 0 0 0
2019/06/21 06:09:00 BASE 0.17 117 2.11 69 -6.0 78 -9.3 0 0 984.0 NA 0.0000 9999 2260 0 0 0
2019/06/21 06:10:00 BASE 0.17 139 1.85 69 -6.0 78 -9.3 0 0 984.0 NA 0.0000 9999 2300 0 0 0
2019/06/21 06:11:00 BASE 0.27 143 1.59 76 -6.0 78 -9.3 0 0 984.0 NA 0.0000 9999 2620 0 0 0
2019/06/21 06:12:00 BASE 0.89 140 1.85 133 -6.1 78 -9.4 0 0 984.1 NA 0.0000 9999 2300 3510 0 0
2019/06/21 06:13:00 BASE 1.27 136 1.85 133 -6.1 78 -9.4 0 0 984.1 NA 0.0000 9999 2230 0 0 0
2019/06/21 06:14:00 BASE 1.62 128 2.26 126 -6.2 78 -9.4 0 0 984.1 NA 0.0000 9999 2030 0 0 0
2019/06/21 06:15:00 BASE 2.14 124 2.52 129 -6.2 78 -9.4 0 0 984.1 NA 0.0000 9999 3280 0 0 0
2019/06/21 06:16:00 BASE 2.31 124 2.52 123 -6.3 78 -9.4 0 0 984.1 NA 0.0000 9999 4000 0 0 0
2019/06/21 06:17:00 BASE 2.35 125 2.62 131 -6.3 78 -9.5 0 0 984.1 NA 0.0000 9999 3870 0 0 0
2019/06/21 06:18:00 BASE 2.41 128 2.62 131 -6.4 79 -9.5 0 0 984.1 NA 0.0000 9999 2130 0 0 0
2019/06/21 06:19:00 BASE 2.31 125 2.62 131 -6.3 79 -9.4 0 0 984.1 NA 0.0000 9999 2030 0 0 0
2019/06/21 06:20:00 BASE 2.26 122 2.62 131 -6.3 79 -9.4 0 0 984.1 NA 0.0000 9999 3220 0 0 0
2019/06/21 06:21:00 BASE 2.36 121 2.62 131 -6.4 79 -9.4 0 0 984.1 NA 0.0000 9999 4040 0 0 0
2019/06/21 06:22:00 BASE 2.39 119 2.62 131 -6.3 79 -9.4 0 0 984.1 NA 0.0000 9999 2660 0 0 0
2019/06/21 06:23:00 BASE 2.25 115 2.62 131 -6.2 79 -9.3 0 0 984.1 NA 0.0000 9999 3250 0 0 0
2019/06/21 06:24:00 BASE 2.07 113 2.62 131 -6.3 78 -9.4 0 0 984.1 NA 0.0000 9999 3080 0 0 0
2019/06/21 06:25:00 BASE 1.93 112 2.62 131 -6.2 78 -9.5 0 0 984.1 NA 0.0000 9999 3900 0 0 0
2019/06/21 06:26:00 BASE 1.85 115 2.62 131 -6.3 78 -9.5 0 0 984.1 NA 0.0000 9999 3250 0 0 0
2019/06/21 06:27:00 BASE 1.69 116 2.57 119 -6.3 77 -9.6 0 0 984.1 NA 0.0000 9999 2950 0 0 0
2019/06/21 06:28:00 BASE 1.48 113 2.57 119 -6.3 77 -9.6 0 0 984.1 NA 0.0000 9999 3250 0 0 0
2019/06/21 06:29:00 BASE 1.06 106 2.57 119 -6.3 77 -9.6 0 0 984.1 NA 0.0000 9999 3410 0 0 0
2019/06/21 06:30:00 BASE 0.98 98 2.57 119 -6.2 77 -9.6 0 0 984.1 NA 0.0000 9999 3510 0 0 0
2019/06/21 06:31:00 BASE 1.16 91 2.42 116 -6.2 77 -9.6 0 0 984.1 NA 0.0000 9999 3050 0 0 0
2019/06/21 06:32:00 BASE 1.20 82 2.31 115 -6.2 77 -9.6 0 0 984.1 NA 0.0000 9999 3970 0 0 0
2019/06/21 06:33:00 BASE 1.54 66 2.16 49 -6.2 77 -9.6 0 0 984.1 NA 0.0000 9999 3150 0 0 0
2019/06/21 06:34:01 BASE 2.06 48 2.62 42 -6.2 76 -9.6 0 0 984.1 NA 0.0000 9999 3840 0 0 0
2019/06/21 06:35:00 BASE 2.37 42 2.62 48 -6.2 76 -9.7 0 0 984.1 NA 0.0000 9999 3740 0 0 0
2019/06/21 06:36:00 BASE 2.44 47 2.68 49 -6.2 77 -9.7 0 0 984.1 NA 0.0000 9999 2850 0 0 0
2019/06/21 06:37:00 BASE 2.24 50 2.68 49 -6.3 77 -9.6 0 0 984.1 NA 0.0000 9999 3540 0 0 0
2019/06/21 06:38:00 BASE 1.89 42 2.68 49 -6.3 77 -9.6 0 0 984.1 NA 0.0000 9999 3580 0 0 0
2019/06/21 06:39:00 BASE 1.67 36 2.68 49 -6.3 78 -9.6 0 0 984.1 NA 0.0000 9999 2950 0 0 0
2019/06/21 06:40:00 BASE 1.54 37 2.68 49 -6.3 78 -9.6 0 0 984.1 NA 0.0000 9999 2170 3020 0 0
2019/06/21 06:41:00 BASE 1.69 33 2.68 49 -6.4 78 -9.6 0 0 984.1 NA 0.0000 9999 1870 0 0 0
2019/06/21 06:42:00 BASE 1.62 38 2.68 49 -6.4 78 -9.6 0 0 984.1 NA 0.0000 9999 1940 0 0 0
2019/06/21 06:43:00 BASE 1.40 41 2.68 49 -6.4 79 -9.5 0 0 984.1 NA 0.0000 9999 2990 0 0 0
2019/06/21 06:44:00 BASE 1.39 35 2.68 49 -6.5 79 -9.5 0 0 984.1 NA 0.0000 9999 1800 2920 0 0
2019/06/21 06:45:00 BASE 1.45 33 2.68 49 -6.5 79 -9.4 0 0 984.1 NA 0.0000 9999 2170 0 0 0
2019/06/21 06:46:00 BASE 1.59 28 2.31 61 -6.4 80 -9.4 0 0 984.2 NA 0.0000 9999 1840 0 0 0
2019/06/21 06:47:00 BASE 1.55 21 2.21 36 -6.4 80 -9.3 0 0 984.2 NA 0.0000 9999 1800 0 0 0
2019/06/21 06:48:00 BASE 1.37 17 2.21 36 -6.4 80 -9.3 0 0 984.2 NA 0.0000 9999 3580 0 0 0
2019/06/21 06:49:00 BASE 0.73 17 2.21 36 -6.4 80 -9.2 0 0 984.2 NA 0.0000 9999 2530 0 0 0
2019/06/21 06:50:00 BASE 0.65 20 2.21 36 -6.4 81 -9.2 0 0 984.2 NA 0.0000 9999 2300 7550 0 0
2019/06/21 06:51:01 BASE 1.14 27 1.85 35 -6.4 81 -9.1 0 0 984.2 NA 0.0000 9999 1970 0 0 0
2019/06/21 06:52:00 BASE 0.91 36 1.85 35 -6.4 81 -9.1 0 0 984.2 NA 0.0000 9999 1940 0 0 0
2019/06/21 06:53:00 BASE 0.80 41 1.85 35 -6.4 81 -9.1 0 0 984.2 NA 0.0000 9999 3380 0 0 0
2019/06/21 06:54:00 BASE 1.12 40 1.85 35 -6.4 81 -9.1 0 0 984.2 NA 0.0000 9999 3020 0 0 0
2019/06/21 06:55:00 BASE 1.34 38 1.75 20 -6.4 81 -9.1 0 0 984.3 NA 0.0000 9999 3020 0 0 0
2019/06/21 06:56:01 BASE 1.37 34 1.65 19 -6.4 81 -9.1 0 0 984.3 NA 0.0000 9999 1800 0 0 0
2019/06/21 06:57:00 BASE 1.36 32 1.54 36 -6.4 81 -9.1 0 0 984.2 NA 0.0000 9999 3020 0 0 0
2019/06/21 06:58:00 BASE 1.32 34 1.54 36 -6.4 81 -9.1 0 0 984.3 NA 0.0000 9999 3020 7380 0 0
2019/06/21 06:59:01 BASE 1.33 31 1.54 36 -6.4 81 -9.2 0 0 984.3 NA 0.0000 9999 2620 0 0 0
2019/06/21 07:00:00 BASE 1.27 27 1.54 36 -6.5 81 -9.2 0 0 984.3 NA 0.0000 9999 2000 3080 0 0
2019/06/21 07:01:00 BASE 0.58 32 1.54 36 -6.5 81 -9.2 0 0 984.3 NA 0.0000 9999 1870 0 0 0
2019/06/21 07:02:01 BASE 0.00 38 1.54 36 -6.5 81 -9.2 0 0 984.3 NA 0.0000 9999 1770 0 0 0
2019/06/21 07:03:00 BASE 0.09 30 1.54 36 -6.5 80 -9.3 0 0 984.3 NA 0.0000 9999 1640 3020 0 0
2019/06/21 07:04:00 BASE 0.48 23 1.54 36 -6.5 80 -9.3 0 0 984.3 NA 0.0000 9999 1710 2760 0 0
2019/06/21 07:05:00 BASE 1.07 24 1.49 27 -6.5 80 -9.4 0 0 984.3 NA 0.0000 9999 1740 0 0 0
2019/06/21 07:06:00 BASE 1.40 23 1.59 25 -6.5 80 -9.4 0 0 984.3 NA 0.0000 9999 1610 0 0 0
2019/06/21 07:07:00 BASE 1.53 20 1.85 16 -6.5 80 -9.4 0 0 984.4 NA 0.0000 9999 1740 0 0 0
2019/06/21 07:08:00 BASE 1.51 15 1.85 16 -6.5 80 -9.4 0 0 984.4 NA 0.0000 9999 1640 2590 0 0
2019/06/21 07:09:00 BASE 1.41 13 1.85 16 -6.5 80 -9.4 0 0 984.4 NA 0.0000 9999 1610 0 0 0
2019/06/21 07:10:00 BASE 1.29 20 1.85 16 -6.5 80 -9.4 0 0 984.5 NA 0.0000 9999 1640 2360 2890 0
2019/06/21 07:11:00 BASE 1.25 34 1.85 16 -6.5 80 -9.4 0 0 984.5 NA 0.0000 9999 1710 0 0 0
2019/06/21 07:12:00 BASE 1.08 36 1.85 16 -6.5 80 -9.4 0 0 984.5 NA 0.0000 9999 1870 0 0 0
2019/06/21 07:13:00 BASE 0.78 42 1.85 16 -6.5 80 -9.4 0 0 984.5 NA 0.0000 9999 1640 0 0 0
2019/06/21 07:14:00 BASE 1.14 42 1.85 16 -6.6 81 -9.4 0 0 984.5 NA 0.0000 9999 1570 0 0 0
2019/06/21 07:15:01 BASE 0.89 32 1.85 16 -6.6 81 -9.3 0 0 984.5 NA 0.0000 9999 1510 0 0 0
2019/06/21 07:16:00 BASE 0.13 11 1.85 16 -6.6 81 -9.3 0 0 984.5 NA 0.0000 9999 1510 0 0 0
2019/06/21 07:17:00 BASE 0.00 13 1.75 35 -6.6 81 -9.3 0 0 984.5 NA 0.0000 9999 1440 3050 0 0
2019/06/21 07:18:00 BASE 0.00 15 1.75 35 -6.6 81 -9.4 0 0 984.5 NA 0.0000 9999 1380 2790 0 0
2019/06/21 07:19:00 BASE 0.45 5 1.75 35 -6.6 81 -9.4 0 0 984.5 NA 0.0000 9999 1280 2760 0 0
2019/06/21 07:20:00 BASE 0.68 26 1.75 35 -6.6 81 -9.4 0 0 984.5 NA 0.0000 9999 920 0 0 0
2019/06/21 07:21:00 BASE 0.88 45 1.75 35 -6.7 81 -9.4 0 0 984.5 NA 0.0000 9999 3180 0 0 0
2019/06/21 07:22:00 BASE 1.12 49 1.75 35 -6.6 81 -9.3 0 0 984.5 NA 0.0000 9999 1440 0 0 0
2019/06/21 07:23:00 BASE 0.57 63 1.75 35 -6.6 81 -9.3 0 0 984.5 NA 0.0000 9999 1280 0 0 0
2019/06/21 07:24:00 BASE 0.20 62 1.54 21 -6.6 81 -9.3 0 0 984.5 NA 0.0000 9999 1940 0 0 0
2019/06/21 07:25:00 BASE 0.14 43 1.44 57 -6.5 81 -9.3 0 0 984.5 NA 0.0000 9999 1800 0 0 0
2019/06/21 07:26:00 BASE 0.05 13 1.44 57 -6.5 81 -9.3 0 0 984.5 NA 0.0000 9999 1840 0 0 0
2019/06/21 07:27:00 BASE 0.00 331 1.44 57 -6.4 80 -9.2 0 0 984.5 NA 0.0000 9999 1940 7090 0 0
2019/06/21 07:28:00 BASE 0.00 241 1.44 57 -6.3 80 -9.2 0 0 984.5 NA 0.0000 9999 1970 2990 7120 0
2019/06/21 07:29:00 BASE 0.00 224 1.44 57 -6.3 80 -9.2 0 0 984.6 NA 0.0000 9999 1940 0 0 0
2019/06/21 07:30:00 BASE 0.00 245 1.44 57 -6.3 80 -9.2 0 0 984.6 NA 0.0000 9999 2000 0 0 0
2019/06/21 07:31:00 BASE 0.07 251 1.54 213 -6.3 79 -9.3 0 0 984.6 NA 0.0000 9999 2460 3020 0 0
2019/06/21 07:32:00 BASE 0.64 214 2.11 200 -6.3 79 -9.3 0 0 984.6 NA 0.0000 9999 2200 3380 7120 0
2019/06/21 07:33:00 BASE 0.84 198 2.11 200 -6.3 79 -9.3 0 0 984.6 NA 0.0000 9999 2170 3380 7090 0
2019/06/21 07:34:00 BASE 1.16 197 2.16 201 -6.2 79 -9.3 0 0 984.6 NA 0.0000 9999 2200 3220 6990 0
2019/06/21 07:35:00 BASE 1.95 198 3.09 215 -6.2 78 -9.3 0 0 984.6 NA 0.0000 9999 2200 3120 7120 0
2019/06/21 07:36:00 BASE 2.54 196 3.65 206 -6.2 78 -9.3 0 0 984.6 NA 0.0000 9999 1540 3120 0 0
2019/06/21 07:37:00 BASE 3.19 171 4.68 159 -6.2 78 -9.4 0 0 984.6 NA 0.0000 9999 1410 3280 7020 0
2019/06/21 07:38:00 BASE 3.41 165 4.68 159 -6.2 77 -9.5 0 0 984.6 NA 0.0000 9999 1510 3250 3940 0
2019/06/21 07:39:00 BASE 3.65 180 4.68 159 -6.3 77 -9.7 0 0 984.6 NA 0.0000 9999 2030 2790 6920 0
2019/06/21 07:40:01 BASE 4.20 178 5.61 175 -6.4 77 -9.7 0 0 984.6 NA 0.0000 9999 2330 0 0 0
2019/06/21 07:41:00 BASE 4.64 176 6.17 197 -6.5 77 -9.8 0 0 984.6 NA 0.0000 9999 1440 3510 0 0
2019/06/21 07:42:00 BASE 4.68 183 6.17 190 -6.5 77 -9.8 0 0 984.6 NA 0.0000 9999 1280 0 0 0
2019/06/21 07:43:00 BASE 4.70 190 6.28 187 -6.5 77 -9.8 0 0 984.6 NA 0.0000 9999 1350 3080 0 0
2019/06/21 07:44:01 BASE 5.50 190 7.31 192 -6.4 77 -9.7 0 0 984.6 NA 0.0000 9999 1380 3250 0 0
2019/06/21 07:45:00 BASE 6.43 188 7.31 192 -6.3 78 -9.5 0 0 984.6 NA 0.0000 9999 2560 0 0 0
2019/06/21 07:46:00 BASE 6.14 187 7.31 192 -6.2 78 -9.4 0 0 984.6 NA 0.0000 9999 3220 0 0 0
2019/06/21 07:47:00 BASE 5.30 190 7.31 192 -6.1 77 -9.4 0 0 984.6 NA 0.0000 9999 3180 0 0 0
2019/06/21 07:48:00 BASE 5.29 194 7.31 192 -6.0 77 -9.3 0 0 984.7 NA 0.0000 9999 3080 0 0 0
2019/06/21 07:49:00 BASE 5.60 195 7.31 192 -5.9 77 -9.3 0 0 984.6 NA 0.0000 9999 3050 0 0 0
2019/06/21 07:50:00 BASE 5.30 188 7.31 192 -5.8 76 -9.3 0 0 984.6 NA 0.0000 9999 2950 0 0 0
2019/06/21 07:51:00 BASE 5.50 178 7.31 192 -5.8 76 -9.3 0 0 984.6 NA 0.0000 9999 3020 0 0 0
2019/06/21 07:52:00 BASE 5.83 171 7.31 192 -5.8 76 -9.3 0 0 984.7 NA 0.0000 9999 2950 0 0 0
2019/06/21 07:53:00 BASE 5.08 170 7.31 192 -5.7 76 -9.3 0 0 984.7 NA 0.0000 9999 2920 0 0 0
2019/06/21 07:54:01 BASE 4.68 170 7.00 188 -5.7 76 -9.3 0 0 984.7 NA 0.0000 9999 2850 0 0 0
2019/06/21 07:55:01 BASE 4.93 171 6.69 187 -5.7 75 -9.4 0 0 984.7 NA 0.0000 9999 2790 0 0 0
2019/06/21 07:56:01 BASE 4.93 179 6.43 168 -5.7 75 -9.4 0 0 984.7 NA 0.0000 9999 2760 0 0 0
2019/06/21 07:57:00 BASE 5.68 183 7.31 178 -5.7 75 -9.4 0 0 984.7 NA 0.0000 9999 2720 0 0 0
2019/06/21 07:58:00 BASE 6.31 179 7.31 178 -5.7 75 -9.4 0 0 984.7 NA 0.0000 9999 2620 0 0 0
2019/06/21 07:59:00 BASE 6.45 171 8.64 173 -5.7 75 -9.4 0 0 984.7 NA 0.0000 9999 2560 0 0 0
2019/06/21 08:00:00 BASE 6.91 170 8.64 173 -5.7 75 -9.3 0 0 984.7 NA 0.0000 9999 2530 0 0 0
2019/06/21 08:01:00 BASE 7.26 171 8.64 173 -5.6 75 -9.3 0 0 984.7 NA 0.0000 9999 2530 0 0 0
2019/06/21 08:02:00 BASE 7.49 173 8.64 173 -5.6 75 -9.3 0 0 984.7 NA 0.0000 9999 2620 0 0 0
2019/06/21 08:03:01 BASE 7.39 175 8.64 173 -5.5 75 -9.3 0 0 984.7 NA 0.0000 9999 2560 0 0 0
2019/06/21 08:04:01 BASE 7.44 170 8.64 173 -5.5 74 -9.3 0 0 984.7 NA 0.0000 9999 2620 0 0 0
2019/06/21 08:05:01 BASE 7.68 167 8.64 173 -5.5 74 -9.4 0 0 984.7 NA 0.0000 9999 2560 0 0 0
2019/06/21 08:06:01 BASE 7.50 164 8.64 173 -5.5 74 -9.4 0 0 984.7 NA 0.0000 9999 2530 0 0 0
2019/06/21 08:07:00 BASE 7.45 163 8.64 173 -5.5 75 -9.3 0 0 984.7 NA 0.0000 9999 2490 0 0 0
2019/06/21 08:08:00 BASE 7.31 161 8.64 173 -5.5 75 -9.3 0 0 984.7 NA 0.0000 9999 2530 0 0 0
2019/06/21 08:09:00 BASE 7.26 163 8.54 168 -5.5 75 -9.2 0 0 984.7 NA 0.0000 9999 2530 0 0 0
2019/06/21 08:10:01 BASE 7.59 171 8.54 168 -5.5 76 -9.2 0 0 984.7 NA 0.0000 9999 2460 0 0 0
2019/06/21 08:11:00 BASE 7.38 173 8.44 164 -5.5 76 -9.1 0 0 984.7 NA 0.0000 9999 2430 0 0 0
2019/06/21 08:12:00 BASE 7.42 176 8.44 164 -5.5 76 -9.1 0 0 984.8 NA 0.0000 9999 2400 0 0 0
2019/06/21 08:13:00 BASE 7.53 176 8.44 164 -5.5 76 -9.1 0 0 984.8 NA 0.0000 9999 2400 0 0 0
2019/06/21 08:14:00 BASE 7.35 169 8.13 178 -5.5 76 -9.1 0 0 984.7 NA 0.0000 9999 2430 0 0 0
2019/06/21 08:15:00 BASE 6.91 163 8.13 178 -5.5 76 -9.0 0 0 984.8 NA 0.0000 9999 2400 0 0 0
2019/06/21 08:16:00 BASE 7.19 163 8.54 165 -5.5 76 -9.0 0 0 984.8 NA 0.0000 9999 2360 0 0 0
2019/06/21 08:17:00 BASE 7.93 166 8.75 170 -5.5 76 -9.0 0 0 984.8 NA 0.0000 9999 2400 0 0 0
2019/06/21 08:18:00 BASE 7.74 166 8.75 170 -5.5 76 -9.0 0 0 984.8 NA 0.0000 9999 2400 0 0 0
2019/06/21 08:19:00 BASE 7.19 166 8.75 170 -5.5 76 -9.0 0 0 984.8 NA 0.0000 9999 2330 0 0 0
2019/06/21 08:20:00 BASE 6.71 166 8.75 170 -5.5 76 -9.0 0 0 984.8 NA 0.0000 9999 2360 0 0 0
2019/06/21 08:21:00 BASE 6.55 166 8.75 170 -5.5 77 -9.0 0 0 984.8 NA 0.0000 9999 2360 0 0 0
2019/06/21 08:22:00 BASE 6.30 163 8.75 170 -5.5 77 -8.9 0 0 984.8 NA 0.0000 9999 2360 0 0 0
2019/06/21 08:23:00 BASE 6.48 163 8.75 170 -5.5 77 -8.9 0 0 984.8 NA 0.0000 9999 2330 0 0 0
2019/06/21 08:24:00 BASE 6.55 160 8.75 170 -5.5 77 -8.9 0 0 984.8 NA 0.0000 9999 2230 0 0 0
2019/06/21 08:25:00 BASE 6.24 156 8.75 170 -5.5 78 -8.8 0 0 984.8 NA 0.0000 9999 2200 0 0 0
2019/06/21 08:26:00 BASE 6.10 155 8.75 170 -5.5 78 -8.8 0 0 984.8 NA 0.0000 9999 2200 0 0 0
2019/06/21 08:27:01 BASE 5.50 158 8.03 168 -5.5 78 -8.8 0 0 984.8 NA 0.0000 9999 2200 0 0 0
2019/06/21 08:28:01 BASE 4.95 161 7.51 163 -5.5 78 -8.8 0 0 984.8 NA 0.0000 9999 2130 0 0 0
2019/06/21 08:29:01 BASE 4.83 154 7.51 163 -5.5 77 -8.9 0 0 984.8 NA 0.0000 9999 2070 0 0 0
2019/06/21 08:30:01 BASE 4.77 152 7.51 163 -5.5 77 -8.9 0 0 984.8 NA 0.0000 9999 2000 0 0 0
2019/06/21 08:31:00 BASE 4.69 158 7.41 156 -5.5 77 -8.9 0 0 984.8 NA 0.0000 9999 1970 0 0 0
2019/06/21 08:32:01 BASE 4.97 162 7.41 156 -5.5 77 -8.9 0 0 984.8 NA 0.0000 9999 1970 0 0 0
2019/06/21 08:33:00 BASE 5.66 166 7.31 164 -5.5 77 -8.9 0 0 984.8 NA 0.0000 9999 1970 0 0 0
2019/06/21 08:34:00 BASE 5.65 162 6.74 155 -5.5 78 -8.8 0 0 984.8 NA 0.0000 9999 1970 0 0 0
2019/06/21 08:35:00 BASE 5.26 158 6.69 174 -5.5 78 -8.8 0 0 984.8 NA 0.0000 9999 1940 0 0 0
2019/06/21 08:36:00 BASE 5.29 166 6.69 174 -5.5 78 -8.8 0 0 984.8 NA 0.0000 9999 1900 0 0 0
2019/06/21 08:37:00 BASE 5.38 173 6.69 174 -5.5 78 -8.7 0 0 984.8 NA 0.0000 9999 1940 0 0 0
2019/06/21 08:38:00 BASE 5.01 172 6.69 174 -5.5 78 -8.7 0 0 984.8 NA 0.0000 9999 1940 0 0 0
2019/06/21 08:39:00 BASE 4.31 169 6.69 174 -5.5 78 -8.7 0 0 984.8 NA 0.0000 9999 1900 0 0 0
2019/06/21 08:40:00 BASE 4.12 168 6.69 174 -5.5 78 -8.7 0 0 984.8 NA 0.0000 9999 1900 0 0 0
2019/06/21 08:41:00 BASE 4.44 162 6.69 174 -5.5 78 -8.7 0 0 984.8 NA 0.0000 9999 1940 0 0 0
2019/06/21 08:42:00 BASE 4.42 150 6.69 174 -5.6 79 -8.7 0 0 984.8 NA 0.0000 9999 1900 0 0 0
2019/06/21 08:43:00 BASE 4.48 139 6.02 166 -5.6 79 -8.6 0 0 984.8 NA 0.0000 9999 1900 0 0 0
2019/06/21 08:44:00 BASE 4.72 133 6.02 166 -5.6 79 -8.6 0 0 984.8 NA 0.0000 9999 1870 0 0 0
2019/06/21 08:45:00 BASE 4.97 129 6.02 128 -5.6 79 -8.6 0 0 984.8 NA 0.0000 9999 1800 0 0 0
2019/06/21 08:46:01 BASE 5.14 130 6.02 128 -5.6 79 -8.6 0 0 984.8 NA 0.0000 9999 1840 0 0 0
2019/06/21 08:47:00 BASE 4.89 133 6.02 128 -5.7 79 -8.7 0 0 984.8 NA 0.0000 9999 1840 0 0 0
2019/06/21 08:48:00 BASE 4.41 133 6.02 128 -5.7 79 -8.7 0 0 984.8 NA 0.0000 9999 1840 0 0 0
2019/06/21 08:49:00 BASE 3.74 131 6.02 128 -5.6 79 -8.7 0 0 984.8 NA 0.0000 9999 1840 0 0 0
2019/06/21 08:50:00 BASE 4.11 132 6.02 128 -5.6 79 -8.7 0 0 984.8 NA 0.0000 9999 1840 0 0 0
2019/06/21 08:51:00 BASE 4.77 134 6.02 128 -5.6 79 -8.7 0 0 984.8 NA 0.0000 9999 1840 0 0 0
2019/06/21 08:52:00 BASE 4.67 136 6.02 128 -5.6 79 -8.7 0 0 984.8 NA 0.0000 9999 1840 0 0 0
2019/06/21 08:53:00 BASE 4.71 145 6.22 159 -5.6 79 -8.7 0 0 984.8 NA 0.0000 9999 1870 0 0 0
2019/06/21 08:54:00 BASE 4.33 146 6.22 159 -5.6 79 -8.7 0 0 984.8 NA 0.0000 9999 1870 0 0 0
2019/06/21 08:55:00 BASE 3.80 139 6.22 159 -5.6 79 -8.7 0 0 984.8 NA 0.0000 9999 1800 0 0 0
2019/06/21 08:56:00 BASE 3.97 140 6.22 159 -5.6 79 -8.7 0 0 984.8 NA 0.0000 9999 1840 0 0 0
2019/06/21 08:57:00 BASE 3.86 149 6.22 159 -5.6 79 -8.7 0 0 984.8 NA 0.0000 9999 1800 0 0 0
2019/06/21 08:58:00 BASE 3.51 153 6.22 159 -5.6 79 -8.7 0 0 984.8 NA 0.0000 9999 1770 0 0 0
2019/06/21 08:59:00 BASE 3.17 150 6.22 159 -5.6 79 -8.7 0 0 984.8 NA 0.0000 9999 1740 0 0 0
2019/06/21 09:00:00 BASE 2.82 147 6.22 159 -5.6 79 -8.7 0 0 984.8 NA 0.0000 9999 1640 0 0 0
2019/06/21 09:01:00 BASE 2.68 142 6.22 159 -5.7 79 -8.6 0 0 984.8 NA 0.0000 9999 1670 0 0 0
2019/06/21 09:02:00 BASE 2.85 134 6.22 159 -5.7 80 -8.6 0 0 984.8 NA 0.0000 9999 1710 0 0 0
2019/06/21 09:03:00 BASE 3.56 132 4.58 137 -5.6 80 -8.6 0 0 984.8 NA 0.0000 9999 1870 0 0 0
2019/06/21 09:04:00 BASE 3.89 134 4.58 137 -5.6 80 -8.6 0 0 984.8 NA 0.0000 9999 1840 0 0 0
2019/06/21 09:05:00 BASE 3.58 133 4.58 137 -5.6 80 -8.6 0 0 984.8 NA 0.0000 9999 1670 0 0 0
2019/06/21 09:06:00 BASE 3.44 132 4.53 136 -5.6 79 -8.6 0 0 984.7 NA 0.0000 9999 1710 0 0 0
2019/06/21 09:07:01 BASE 3.72 133 4.53 136 -5.6 79 -8.6 0 0 984.7 NA 0.0000 9999 1570 0 0 0
2019/06/21 09:08:01 BASE 3.70 136 4.53 136 -5.6 79 -8.7 0 0 984.7 NA 0.0000 9999 1570 0 0 0
2019/06/21 09:09:01 BASE 3.42 134 4.53 136 -5.6 79 -8.7 0 0 984.7 NA 0.0000 9999 1710 0 0 0
2019/06/21 09:10:01 BASE 3.61 129 4.53 133 -5.6 79 -8.7 0 0 984.7 NA 0.0000 9999 1570 0 0 0
2019/06/21 09:11:01 BASE 3.81 131 4.53 133 -5.6 79 -8.7 0 0 984.7 NA 0.0000 9999 1440 0 0 0
2019/06/21 09:12:01 BASE 3.33 126 4.53 133 -5.6 79 -8.7 0 0 984.7 NA 0.0000 9999 1350 0 0 0
2019/06/21 09:13:00 BASE 2.76 112 4.53 133 -5.6 79 -8.7 0 0 984.7 NA 0.0000 9999 1380 0 0 0
2019/06/21 09:14:00 BASE 2.71 104 4.53 133 -5.6 79 -8.7 0 0 984.8 NA 0.0000 9999 1410 0 0 0
2019/06/21 09:15:00 BASE 2.97 101 4.53 133 -5.6 79 -8.7 0 0 984.8 NA 0.0000 9999 1480 0 0 0
2019/06/21 09:16:00 BASE 3.30 99 4.53 87 -5.6 79 -8.8 0 0 984.8 NA 0.0000 9999 1410 0 0 0
2019/06/21 09:17:00 BASE 3.97 93 4.99 83 -5.7 78 -8.8 0 0 984.8 NA 0.0000 9999 1180 0 0 0
2019/06/21 09:18:00 BASE 4.52 91 4.99 83 -5.7 78 -8.9 0 0 984.8 NA 0.0000 9999 1280 0 0 0
2019/06/21 09:19:01 BASE 4.78 91 5.40 85 -5.7 78 -8.9 0 0 984.8 NA 0.0000 9999 1180 0 0 0
2019/06/21 09:20:00 BASE 4.71 88 5.40 85 -5.8 78 -9.0 0 0 984.8 NA 0.0000 9999 1410 0 0 0
2019/06/21 09:21:00 BASE 4.33 85 5.40 85 -5.9 78 -9.1 0 0 984.8 NA 0.0000 9999 1480 0 0 0
2019/06/21 09:22:00 BASE 4.03 82 5.40 85 -6.0 78 -9.1 0 0 984.8 NA 0.0000 9999 1480 0 0 0
2019/06/21 09:23:00 BASE 3.57 84 5.40 85 -6.0 78 -9.2 0 0 984.8 NA 0.0000 9999 1510 0 0 0
2019/06/21 09:24:00 BASE 3.86 86 5.40 85 -6.1 78 -9.2 0 0 984.8 NA 0.0000 9999 1510 0 0 0
2019/06/21 09:25:00 BASE 4.59 88 5.40 85 -6.1 79 -9.2 0 0 984.8 NA 0.0000 9999 1510 0 0 0
2019/06/21 09:26:00 BASE 4.48 91 5.40 85 -6.1 79 -9.2 0 0 984.8 NA 0.0000 9999 1610 0 0 0
2019/06/21 09:27:00 BASE 4.02 90 5.40 85 -6.1 79 -9.2 0 0 984.8 NA 0.0000 9999 1480 0 0 0
2019/06/21 09:28:00 BASE 4.13 86 5.40 85 -6.1 79 -9.1 0 0 984.8 NA 0.0000 9999 1570 0 0 0
2019/06/21 09:29:00 BASE 4.40 81 5.14 89 -6.1 79 -9.1 0 0 984.8 NA 0.0000 9999 1540 0 0 0
2019/06/21 09:30:00 BASE 4.33 77 5.14 89 -6.0 79 -9.1 0 0 984.7 NA 0.0000 9999 1410 0 0 0
2019/06/21 09:31:00 BASE 4.48 76 5.25 76 -6.0 79 -9.1 0 0 984.7 NA 0.0000 9999 1310 0 0 0
2019/06/21 09:32:00 BASE 4.35 79 5.25 76 -6.0 79 -9.1 0 0 984.7 NA 0.0000 9999 1350 0 0 0
2019/06/21 09:33:00 BASE 4.05 81 5.25 76 -6.0 79 -9.1 0 0 984.7 NA 0.0000 9999 1540 0 0 0
2019/06/21 09:34:00 BASE 3.97 83 5.25 76 -5.9 79 -9.1 0 0 984.7 NA 0.0000 9999 1350 0 0 0
2019/06/21 09:35:00 BASE 3.85 83 5.25 76 -5.9 78 -9.0 0 0 984.7 NA 0.0000 9999 1180 0 0 0
2019/06/21 09:36:00 BASE 3.89 82 5.25 76 -5.8 78 -9.0 0 0 984.7 NA 0.0000 9999 1410 0 0 0
2019/06/21 09:37:00 BASE 3.71 84 5.25 76 -5.8 78 -9.1 0 0 984.7 NA 0.0000 9999 1250 0 0 0
2019/06/21 09:38:00 BASE 3.25 86 5.25 76 -5.8 77 -9.1 0 0 984.7 NA 0.0000 9999 1210 0 0 0
2019/06/21 09:39:00 BASE 3.14 84 5.25 76 -5.8 77 -9.1 0 0 984.7 NA 0.0000 9999 1120 0 0 0
2019/06/21 09:40:00 BASE 3.45 83 5.25 76 -5.8 77 -9.2 0 0 984.7 NA 0.0000 9999 950 0 0 0
2019/06/21 09:41:00 BASE 3.55 85 4.48 83 -5.8 77 -9.2 0 0 984.7 NA 0.0000 9999 1120 0 0 0
2019/06/21 09:42:00 BASE 3.67 90 4.48 83 -5.8 77 -9.2 0 0 984.7 NA 0.0000 9999 690 0 0 0
2019/06/21 09:43:00 BASE 3.96 96 4.37 109 -5.9 77 -9.2 0 0 984.7 NA 0.0000 9999 560 0 0 0
2019/06/21 09:44:00 BASE 3.77 98 4.73 98 -5.8 78 -9.1 0 0 984.7 NA 0.0000 -SN 9999 1380 0 0 0
2019/06/21 09:45:00 BASE 3.18 91 4.73 98 -5.8 78 -9.0 0 0 984.7 NA 0.0000 -SN 9999 1410 0 0 0
2019/06/21 09:46:00 BASE 2.71 81 4.73 98 -5.8 79 -8.9 0 0 984.8 NA 0.0000 -SN 9999 1480 0 0 0
2019/06/21 09:47:00 BASE 2.60 73 4.73 98 -5.7 79 -8.9 0 0 984.8 NA 0.0000 -SN 9999 1510 0 0 0
2019/06/21 09:48:00 BASE 2.58 72 4.73 98 -5.7 79 -8.8 0 0 984.8 NA 0.0000 -SN 9999 1570 0 0 0
2019/06/21 09:49:01 BASE 2.52 77 4.73 98 -5.6 79 -8.7 0 0 984.8 NA 0.0000 -SN 9999 1410 0 0 0
2019/06/21 09:50:01 BASE 2.50 81 4.73 98 -5.6 79 -8.7 0 0 984.8 NA 0.0000 -SN 9999 1210 0 0 0
2019/06/21 09:51:01 BASE 2.48 76 4.73 98 -5.5 79 -8.7 0 0 984.8 NA 0.0000 -SN 9999 1120 0 0 0
2019/06/21 09:52:00 BASE 2.47 78 4.73 98 -5.5 79 -8.6 0 0 984.8 NA 0.0000 -SN 9999 850 0 0 0
2019/06/21 09:53:00 BASE 2.41 94 4.73 98 -5.5 78 -8.7 0 0 984.8 NA 0.0000 -SN 9999 750 0 0 0
2019/06/21 09:54:00 BASE 2.13 100 3.24 101 -5.5 78 -8.7 0 0 984.8 NA 0.0000 -SN 9999 660 0 0 0
2019/06/21 09:55:00 BASE 1.65 95 2.93 85 -5.5 78 -8.7 0 0 984.8 NA 0.0000 -SN 9999 490 0 0 0
2019/06/21 09:56:00 BASE 1.42 91 2.93 85 -5.5 78 -8.7 0 0 984.8 NA 0.0000 -SN 9000 430 0 0 0
2019/06/21 09:57:00 BASE 1.32 88 2.93 85 -5.5 78 -8.7 0 0 984.8 NA 0.0000 -SN 4000 330 0 0 0
2019/06/21 09:58:00 BASE 1.34 87 2.93 85 -5.6 79 -8.7 0 0 984.8 NA 0.0000 -SN 2800 0 0 0 2200
2019/06/21 09:59:00 BASE 1.39 88 2.88 85 -5.6 79 -8.7 0 0 984.8 NA 0.0000 -SN 2400 0 0 0 2460
2019/06/21 10:00:00 BASE 1.04 87 2.78 105 -5.6 79 -8.6 0 0 984.8 NA 0.0000 -SN 2100 0 0 0 3120
2019/06/21 10:01:00 BASE 0.38 89 2.78 105 -5.6 79 -8.6 0 0 984.8 NA 0.0000 -SN 2300 0 0 0 2430
2019/06/21 10:02:00 BASE 0.00 109 2.78 105 -5.6 80 -8.6 0 0 984.8 NA 0.0000 -SN 2000 0 0 0 3080
2019/06/21 10:03:00 BASE 0.00 121 2.01 99 -5.6 80 -8.5 0 0 984.8 NA 0.0000 -SN 1800 0 0 0 3220
2019/06/21 10:04:00 BASE 0.00 110 1.80 93 -5.6 80 -8.4 0 0 984.8 NA 0.0000 -SN 2200 0 0 0 3150
2019/06/21 10:05:00 BASE 0.00 100 1.65 83 -5.6 81 -8.4 0 0 984.8 NA 0.0000 -SN 3000 0 0 0 3410
2019/06/21 10:06:00 BASE 0.00 100 1.65 83 -5.6 81 -8.3 0 0 984.8 NA 0.0000 -SN 3200 0 0 0 3080
2019/06/21 10:07:00 BASE 0.00 108 1.65 83 -5.6 82 -8.3 0 0 984.8 NA 0.0000 -SN 3400 0 0 0 3380
2019/06/21 10:08:00 BASE 0.00 114 1.44 85 -5.6 82 -8.2 0 0 984.8 NA 0.0000 -SN 3600 0 0 0 2720
2019/06/21 10:09:00 BASE 0.00 98 1.18 89 -5.6 82 -8.1 0 0 984.8 NA 0.0000 -SN 3400 0 0 0 3670
2019/06/21 10:10:00 BASE 0.00 83 M M -5.6 83 -8.1 0 0 984.8 NA 0.0000 -SN 3200 0 0 0 2690
2019/06/21 10:11:00 BASE 0.00 82 M M -5.6 83 -8.1 0 0 984.8 NA 0.0000 -SN 3600 0 0 0 3770
2019/06/21 10:12:00 BASE 0.00 69 M M -5.6 83 -8.0 0 0 984.8 NA 0.0000 -SN 4600 430 0 0 0
2019/06/21 10:13:00 BASE 0.00 52 M M -5.6 83 -8.0 0 0 984.8 NA 0.0000 -SN 8000 0 0 0 3710
2019/06/21 10:14:00 BASE 0.22 43 1.08 36 -5.6 84 -7.9 0 0 984.8 NA 0.0000 -SN 8000 360 0 0 0
2019/06/21 10:15:00 BASE 0.26 37 1.08 36 -5.6 84 -7.9 0 0 984.8 NA 0.0000 -SN 6000 330 0 0 0
2019/06/21 10:16:00 BASE 0.04 35 1.08 36 -5.6 84 -7.9 0 0 984.8 NA 0.0000 -SN 5000 360 0 0 0
2019/06/21 10:17:00 BASE 0.00 33 1.08 36 -5.6 84 -7.9 0 0 984.8 NA 0.0000 -SN 5000 0 0 0 3670
2019/06/21 10:18:00 BASE 0.00 43 1.08 36 -5.6 84 -7.8 0 0 984.8 NA 0.0000 -SN BR 5000 300 0 0 0
2019/06/21 10:19:00 BASE 0.00 60 1.08 36 -5.6 85 -7.8 0 0 984.8 NA 0.0000 -SN BR 4800 300 0 0 0
2019/06/21 10:20:00 BASE 0.00 67 1.08 36 -5.6 85 -7.8 0 0 984.8 NA 0.0000 -SN BR 6000 1440 0 0 0
2019/06/21 10:21:00 BASE 0.00 65 1.08 36 -5.6 85 -7.7 0 0 984.8 NA 0.0000 -SN BR 9999 1410 0 0 0
2019/06/21 10:22:00 BASE 0.00 61 1.08 36 -5.6 85 -7.7 0 0 984.8 NA 0.0000 -SN BR 9999 560 1380 0 0
2019/06/21 10:23:00 BASE 0.00 59 1.08 36 -5.6 85 -7.7 0 0 984.8 NA 0.0000 -SN BR 9999 390 0 0 0
2019/06/21 10:24:00 BASE 0.00 59 1.03 36 -5.6 85 -7.7 0 0 984.9 NA 0.0000 -SN BR 9000 300 0 0 0
2019/06/21 10:25:00 BASE 0.00 55 M M -5.6 85 -7.7 0 0 984.9 NA 0.0000 -SN BR 5000 0 0 0 2790
2019/06/21 10:26:00 BASE 0.00 45 M M -5.6 85 -7.7 0 0 984.8 NA 0.0000 -SN BR 5000 0 0 0 2760
2019/06/21 10:27:00 BASE 0.00 39 M M -5.6 86 -7.6 0 0 984.8 NA 0.0000 -SN BR 8000 1310 0 0 0
2019/06/21 10:28:00 BASE 0.33 37 1.23 37 -5.6 86 -7.6 0 0 984.8 NA 0.0000 -SN BR 9999 1540 0 0 0
2019/06/21 10:29:00 BASE 0.98 36 1.44 29 -5.6 86 -7.5 0 0 984.8 NA 0.0000 -SN BR 9999 1280 0 0 0
2019/06/21 10:30:00 BASE 1.33 31 1.54 28 -5.6 86 -7.5 0 0 984.8 NA 0.0000 -SN BR 9999 1410 0 0 0
2019/06/21 10:31:00 BASE 1.38 28 1.54 28 -5.6 86 -7.5 0 0 984.9 NA 0.0000 -SN BR 9999 1280 0 0 0
2019/06/21 10:32:00 BASE 0.97 31 1.54 28 -5.6 86 -7.5 0 0 984.9 NA 0.0000 -SN BR 9999 1280 0 0 0
2019/06/21 10:33:00 BASE 0.74 41 1.54 28 -5.6 86 -7.5 0 0 984.9 NA 0.0000 -SN BR 9999 1280 0 0 0
2019/06/21 10:34:00 BASE 1.23 53 1.70 55 -5.6 87 -7.5 0 0 984.9 NA 0.0000 -SN 9999 1280 0 0 0
2019/06/21 10:35:00 BASE 1.72 57 2.06 56 -5.6 87 -7.5 0 0 984.9 NA 0.0000 -SN 9999 1310 2460 0 0
2019/06/21 10:36:00 BASE 1.94 53 2.06 47 -5.6 87 -7.4 0 0 984.8 NA 0.0000 -SN 9999 2070 0 0 0
2019/06/21 10:37:00 BASE 1.93 46 2.06 42 -5.6 87 -7.4 0 0 984.8 NA 0.0000 -SN 9999 2000 0 0 0
2019/06/21 10:38:00 BASE 2.04 42 2.57 38 -5.6 87 -7.4 0 0 984.8 NA 0.0000 -SN 9999 1770 0 0 0
2019/06/21 10:39:00 BASE 2.31 40 2.57 40 -5.6 87 -7.4 0 0 984.8 NA 0.0000 9999 1640 0 0 0
2019/06/21 10:40:00 BASE 2.54 40 3.09 35 -5.6 87 -7.4 0 0 984.8 NA 0.0000 9999 1540 0 0 0
2019/06/21 10:41:00 BASE 2.68 39 3.09 35 -5.6 87 -7.4 0 0 984.8 NA 0.0000 9999 1380 0 0 0
2019/06/21 10:42:00 BASE 2.66 36 3.09 35 -5.6 87 -7.3 0 0 984.8 NA 0.0000 9999 1410 2300 0 0
2019/06/21 10:43:00 BASE 2.54 32 3.09 35 -5.5 88 -7.3 0 0 984.8 NA 0.0000 9999 1380 2200 0 0
2019/06/21 10:44:00 BASE 2.84 29 3.45 31 -5.5 88 -7.2 0 0 984.9 NA 0.0000 9999 1350 0 0 0
2019/06/21 10:45:00 BASE 2.98 29 3.45 31 -5.5 88 -7.1 0 0 984.9 NA 0.0000 9999 1310 0 0 0
2019/06/21 10:46:00 BASE 2.93 27 3.45 26 -5.4 88 -7.1 0 0 984.9 NA 0.0000 9999 1310 0 0 0
2019/06/21 10:47:00 BASE 2.74 25 3.45 26 -5.4 88 -7.1 0 0 984.9 NA 0.0000 9999 1250 0 0 0
2019/06/21 10:48:00 BASE 2.52 24 3.45 26 -5.4 88 -7.1 0 0 984.9 NA 0.0000 9999 1280 0 0 0
2019/06/21 10:49:00 BASE 2.97 28 3.91 35 -5.4 88 -7.0 0 0 984.8 NA 0.0000 9999 1280 2230 0 0
2019/06/21 10:50:00 BASE 3.31 37 3.91 35 -5.4 88 -7.0 0 0 984.9 NA 0.0000 9999 1250 0 0 0
2019/06/21 10:51:00 BASE 3.35 43 4.01 40 -5.4 88 -7.0 0 0 984.9 NA 0.0000 9999 0 0 0 0
2019/06/21 10:52:00 BASE 3.21 49 4.01 40 -5.4 88 -7.0 0 0 984.9 NA 0.0000 9999 0 0 0 0
2019/06/21 10:53:00 BASE 3.16 52 4.01 40 -5.4 88 -7.1 0 0 984.9 NA 0.0000 9999 0 0 0 0
2019/06/21 10:54:00 BASE 4.01 43 4.99 35 -5.4 88 -7.1 0 0 984.8 NA 0.0000 9999 0 0 0 0
2019/06/21 10:55:00 BASE 4.42 39 4.99 35 -5.5 88 -7.1 0 0 984.6 NA 0.0000 9999 0 0 0 0
2019/06/21 10:56:00 BASE 3.23 48 4.99 35 -5.5 88 -7.1 0 0 984.5 NA 0.0000 9999 1410 0 0 0
2019/06/21 10:57:00 BASE 2.33 49 4.99 35 -5.5 88 -7.1 0 0 984.9 NA 0.0000 9999 1440 0 0 0
2019/06/21 10:58:00 BASE 2.27 43 4.99 35 -5.5 89 -7.0 0 0 984.9 NA 0.0000 9999 1440 0 0 0
2019/06/21 10:59:00 BASE 2.20 43 4.99 35 -5.4 89 -7.0 0 0 984.9 NA 0.0000 9999 1480 0 0 0
2019/06/21 11:00:00 BASE 1.81 54 4.99 35 -5.4 89 -6.9 0 0 984.9 NA 0.0000 9999 0 0 0 0
2019/06/21 11:01:00 BASE 0.74 54 4.99 35 -5.3 89 -6.8 0 0 984.9 NA 0.0000 9999 0 0 0 0
2019/06/21 11:02:00 BASE 0.24 63 4.99 35 -5.3 90 -6.8 0 0 984.9 NA 0.0000 9999 0 0 0 0
2019/06/21 11:03:00 BASE 0.39 137 4.99 35 -5.3 90 -6.7 0 0 984.9 NA 0.0000 9999 1410 0 0 0
2019/06/21 11:04:00 BASE 0.82 155 4.63 31 -5.3 90 -6.7 0 0 984.8 NA 0.0000 9999 0 0 0 0
2019/06/21 11:05:00 BASE 1.57 164 3.19 53 -5.3 90 -6.6 0 0 984.6 NA 0.0000 9999 0 0 0 0
2019/06/21 11:06:00 BASE 1.64 193 2.78 205 -5.2 90 -6.6 0 0 984.9 NA 0.0000 9999 0 0 0 0
2019/06/21 11:07:00 BASE 1.53 233 2.78 205 -5.2 91 -6.5 0 0 984.9 NA 0.0000 9999 0 0 0 0
2019/06/21 11:08:00 BASE 1.93 258 2.78 205 -5.1 91 -6.4 0 0 984.9 NA 0.0000 9999 0 0 0 0
2019/06/21 11:09:00 BASE 1.81 264 2.78 205 -5.1 91 -6.3 0 0 984.9 NA 0.0000 9999 0 0 0 0
2019/06/21 11:10:00 BASE 0.90 263 2.78 205 -5.0 91 -6.2 0 0 984.9 NA 0.0000 9999 1710 0 0 0
2019/06/21 11:11:00 BASE 0.24 284 2.78 205 -5.0 91 -6.2 0 0 984.9 NA 0.0000 9999 1440 0 0 0
2019/06/21 11:12:00 BASE 0.30 305 2.78 205 -5.1 92 -6.2 0 0 984.8 NA 0.0000 9999 1250 0 0 0
2019/06/21 11:13:00 BASE 0.30 313 2.78 205 -5.1 92 -6.2 0 0 984.9 NA 0.0000 9999 1120 0 0 0
2019/06/21 11:14:01 BASE 0.19 346 2.78 205 -5.1 92 -6.2 0 0 984.9 NA 0.0000 9999 0 0 0 0
2019/06/21 11:15:00 BASE 0.19 357 2.78 205 -5.2 92 -6.2 0 0 984.9 NA 0.0000 9999 0 0 0 0
2019/06/21 11:16:00 BASE 0.63 10 2.62 253 -5.2 92 -6.2 0 0 984.9 NA 0.0000 9999 1250 0 0 0
2019/06/21 11:17:00 BASE 1.87 29 2.73 29 -5.2 93 -6.2 0 0 984.9 NA 0.0000 9999 1250 0 0 0
2019/06/21 11:18:00 BASE 2.48 36 2.78 37 -5.2 93 -6.2 0 0 984.9 NA 0.0000 9999 1180 0 0 0
2019/06/21 11:19:00 BASE 2.33 40 2.78 37 -5.3 93 -6.2 0 0 984.4 NA 0.0000 9999 1180 0 0 0
2019/06/21 11:20:00 BASE 2.30 42 2.78 37 -5.3 93 -6.3 0 0 984.3 NA 0.0000 9999 0 0 0 0
2019/06/21 11:21:00 BASE 2.77 43 3.34 45 -5.3 93 -6.2 0 0 984.9 NA 0.0000 9999 0 0 0 0
2019/06/21 11:22:00 BASE 2.78 44 3.34 45 -5.3 93 -6.2 0 0 984.8 NA 0.0000 9999 0 0 0 0
2019/06/21 11:23:00 BASE 2.63 44 3.34 45 -5.3 94 -6.1 0 0 984.8 NA 0.0000 9999 0 0 0 0
2019/06/21 11:24:00 BASE 2.73 41 3.34 45 -5.2 94 -6.0 0 0 984.8 NA 0.0000 9999 0 0 0 0
2019/06/21 11:25:00 BASE 2.43 40 3.34 45 -5.1 94 -6.0 0 0 984.9 NA 0.0000 9999 0 0 0 0
2019/06/21 11:26:00 BASE 2.51 45 3.45 22 -5.1 94 -5.9 0 0 984.9 NA 0.0000 9999 0 0 0 0
2019/06/21 11:27:00 BASE 3.06 42 3.70 28 -5.1 94 -5.9 0 0 984.9 NA 0.0000 9999 0 0 0 0
2019/06/21 11:28:00 BASE 3.02 39 3.70 28 -5.1 95 -5.8 0 0 984.9 NA 0.0000 9999 0 0 0 0
2019/06/21 11:29:00 BASE 2.66 42 3.70 28 -5.1 95 -5.8 0 0 984.9 NA 0.0000 9999 0 0 0 0
2019/06/21 11:30:00 BASE 2.77 46 3.70 28 -5.1 95 -5.7 0 0 984.9 NA 0.0000 9999 0 0 0 0
2019/06/21 11:31:00 BASE 3.24 47 3.81 47 -5.1 95 -5.7 0 0 984.9 NA 0.0000 9999 0 0 0 0
2019/06/21 11:32:00 BASE 3.31 46 3.81 47 -5.1 95 -5.7 0 0 984.9 NA 0.0000 9999 0 0 0 0
2019/06/21 11:33:00 BASE 3.07 50 3.81 47 -5.1 96 -5.7 0 0 984.9 NA 0.0000 9999 0 0 0 0
2019/06/21 11:34:00 BASE 2.87 58 3.81 47 -5.1 96 -5.6 0 0 984.9 NA 0.0000 9999 0 0 0 0
2019/06/21 11:35:00 BASE 2.61 61 3.81 47 -5.0 96 -5.6 0 0 985.0 NA 0.0000 9999 0 0 0 0
2019/06/21 11:36:00 BASE 2.46 61 3.81 47 -5.0 96 -5.6 0 0 985.1 NA 0.0000 9999 2200 0 0 0
2019/06/21 11:37:00 BASE 2.70 61 3.81 47 -5.0 96 -5.5 0 0 985.1 NA 0.0000 9999 2260 0 0 0
2019/06/21 11:38:00 BASE 2.95 60 3.81 47 -5.0 96 -5.4 0 0 985.0 NA 0.0000 9999 2130 0 0 0
2019/06/21 11:39:00 BASE 2.87 63 3.81 47 -4.9 97 -5.4 0 0 985.1 NA 0.0000 9999 1840 0 0 0
2019/06/21 11:40:00 BASE 2.69 66 3.81 47 -4.9 97 -5.4 0 0 985.1 NA 0.0000 9999 1840 0 0 0
2019/06/21 11:41:00 BASE 2.30 68 3.40 60 -5.0 97 -5.4 0 0 985.1 NA 0.0000 9999 2030 0 0 0
2019/06/21 11:42:00 BASE 2.19 63 3.40 60 -5.0 97 -5.4 0 0 985.1 NA 0.0000 9999 1870 0 0 0
2019/06/21 11:43:00 BASE 2.52 56 3.40 60 -5.0 97 -5.4 0 0 985.1 NA 0.0000 9999 1710 0 0 0
2019/06/21 11:44:00 BASE 2.87 58 3.45 62 -5.1 97 -5.4 0 0 984.9 NA 0.0000 9999 1710 0 0 0
2019/06/21 11:45:00 BASE 3.05 62 3.45 62 -5.0 97 -5.4 0 0 984.5 NA 0.0000 9999 1840 0 0 0
2019/06/21 11:46:00 BASE 3.05 67 3.65 75 -5.0 98 -5.3 0 0 985.1 NA 0.0000 9999 1740 2590 0 0
2019/06/21 11:47:00 BASE 3.28 65 3.91 58 -4.9 98 -5.2 0 0 985.1 NA 0.0000 9999 2200 0 0 0
2019/06/21 11:48:00 BASE 3.33 64 3.91 58 -4.9 98 -5.1 0 0 985.1 NA 0.0000 9999 1940 0 0 0
2019/06/21 11:49:00 BASE 3.20 76 3.91 58 -4.8 98 -5.1 0 0 985.1 NA 0.0000 9999 1840 0 0 0
2019/06/21 11:50:00 BASE 2.84 89 3.91 58 -4.8 98 -5.0 0 0 985.1 NA 0.0000 9999 1710 0 0 0
2019/06/21 11:51:00 BASE 2.38 76 3.91 58 -4.8 98 -5.0 0 0 985.1 NA 0.0000 9999 1670 0 0 0
2019/06/21 11:52:00 BASE 2.25 54 3.91 58 -4.8 98 -5.0 0 0 985.1 NA 0.0000 9999 1770 0 0 0
2019/06/21 11:53:00 BASE 2.16 47 3.91 58 -4.7 99 -4.9 0 0 985.1 NA 0.0000 9999 1710 0 0 0
2019/06/21 11:54:00 BASE 2.08 43 3.91 58 -4.7 99 -4.9 0 0 985.1 NA 0.0000 9999 1800 0 0 0
2019/06/21 11:55:00 BASE 1.90 40 3.91 58 -4.7 99 -4.9 0 0 985.1 NA 0.0000 9999 1710 0 0 0
2019/06/21 11:56:00 BASE 1.58 25 3.91 58 -4.7 99 -4.8 0 0 985.1 NA 0.0000 9999 1840 0 0 0
2019/06/21 11:57:00 BASE 1.25 11 3.65 73 -4.6 99 -4.8 0 0 985.1 NA 0.0000 9999 1770 0 0 0
2019/06/21 11:58:00 BASE 1.06 21 3.55 70 -4.6 99 -4.7 0 0 985.1 NA 0.0000 9999 1710 0 0 0
2019/06/21 11:59:00 BASE 0.69 54 2.68 50 -4.6 99 -4.7 0 0 985.0 NA 0.0000 9999 1800 0 0 0
2019/06/21 12:00:00 BASE 0.63 78 2.68 50 -4.6 99 -4.7 0 0 985.2 NA 0.0000 9999 1740 0 0 0
2019/06/21 12:01:00 BASE 1.13 77 2.68 50 -4.6 99 -4.7 0 0 985.1 NA 0.0000 9999 1740 0 0 0
2019/06/21 12:02:00 BASE 1.82 68 2.68 61 -4.6 99 -4.8 0 0 985.2 NA 0.0000 9999 1800 0 0 0
2019/06/21 12:03:00 BASE 2.47 69 2.78 71 -4.7 99 -4.8 0 0 985.2 NA 0.0000 9999 2030 0 0 0
2019/06/21 12:04:01 BASE 2.35 76 2.78 71 -4.7 99 -4.8 0 0 985.2 NA 0.0000 9999 2030 0 0 0
2019/06/21 12:05:00 BASE 1.57 75 2.78 71 -4.6 99 -4.8 0 0 985.2 NA 0.0000 9999 1770 0 0 0
2019/06/21 12:06:00 BASE 0.85 58 2.78 71 -4.6 99 -4.8 0 0 985.2 NA 0.0000 9999 1670 0 0 0
2019/06/21 12:07:00 BASE 0.63 39 2.78 71 -4.6 99 -4.8 0 0 985.2 NA 0.0000 9999 1840 0 0 0
2019/06/21 12:08:00 BASE 0.39 36 2.78 71 -4.6 99 -4.8 0 0 985.2 NA 0.0000 9999 1740 0 0 0
2019/06/21 12:09:00 BASE 0.90 44 2.88 65 -4.6 98 -4.8 0 0 985.2 NA 0.0000 9999 1970 0 0 0
2019/06/21 12:10:00 BASE 2.13 53 2.98 57 -4.6 98 -4.8 0 0 984.8 NA 0.0000 9999 2070 0 0 0
2019/06/21 12:11:00 BASE 2.75 63 3.19 67 -4.6 98 -4.9 0 0 985.2 NA 0.0000 9999 2360 0 0 0
2019/06/21 12:12:00 BASE 2.87 69 3.19 67 -4.6 98 -4.9 0 0 985.2 NA 0.0000 9999 1900 0 0 0
2019/06/21 12:13:00 BASE 2.66 69 3.19 67 -4.7 98 -4.9 0 0 985.1 NA 0.0000 9999 1800 0 0 0
2019/06/21 12:14:00 BASE 2.51 66 3.19 67 -4.7 98 -5.0 0 0 985.0 NA 0.0000 9999 1970 0 0 0
2019/06/21 12:15:00 BASE 2.54 54 3.19 67 -4.7 98 -4.9 0 0 985.2 NA 0.0000 9999 1840 0 0 0
2019/06/21 12:16:00 BASE 2.74 47 3.19 49 -4.7 98 -4.9 0 0 985.2 NA 0.0000 9999 1800 0 0 0
2019/06/21 12:17:00 BASE 2.88 53 3.19 49 -4.7 99 -4.9 0 0 985.2 NA 0.0000 9999 1640 0 0 0
2019/06/21 12:18:00 BASE 2.73 62 3.19 49 -4.6 99 -4.8 0 0 985.2 NA 0.0000 9999 1610 2330 0 0
2019/06/21 12:19:00 BASE 2.73 60 3.19 47 -4.6 99 -4.7 0 0 985.2 NA 0.0000 9999 1670 0 0 0
2019/06/21 12:20:00 BASE 3.12 52 3.55 51 -4.6 99 -4.7 0 0 985.2 NA 0.0000 9999 1670 0 0 0
2019/06/21 12:21:00 BASE 3.34 50 4.01 43 -4.6 99 -4.7 0 0 985.2 NA 0.0000 9999 1670 0 0 0
2019/06/21 12:22:00 BASE 2.83 51 4.01 43 -4.5 99 -4.7 0 0 985.2 NA 0.0000 9999 1570 0 0 0
2019/06/21 12:23:00 BASE 2.47 54 4.01 43 -4.5 99 -4.7 0 0 985.2 NA 0.0000 9999 1480 0 0 0
2019/06/21 12:24:00 BASE 2.60 58 4.01 43 -4.5 99 -4.7 0 0 985.3 NA 0.0000 9999 1480 0 0 0
2019/06/21 12:25:00 BASE 2.50 64 4.01 43 -4.6 99 -4.7 0 0 985.3 NA 0.0000 9999 1480 0 0 0
2019/06/21 12:26:00 BASE 2.30 67 4.01 43 -4.5 99 -4.7 0 0 985.3 NA 0.0000 9999 1610 0 0 0
2019/06/21 12:27:00 BASE 2.78 60 4.01 43 -4.5 98 -4.8 0 0 985.2 NA 0.0000 9999 1900 0 0 0
2019/06/21 12:28:00 BASE 2.68 61 4.01 43 -4.5 98 -4.7 0 0 985.2 NA 0.0000 9999 1840 0 0 0
2019/06/21 12:29:00 BASE 2.13 63 4.01 43 -4.5 98 -4.7 0 0 985.3 NA 0.0000 9999 1670 0 0 0
2019/06/21 12:30:00 BASE 1.52 62 4.01 43 -4.5 98 -4.7 0 0 985.3 NA 0.0000 9999 1710 0 0 0
2019/06/21 12:31:00 BASE 1.24 70 3.91 67 -4.5 98 -4.7 0 0 985.3 NA 0.0000 9999 1710 0 0 0
2019/06/21 12:32:00 BASE 1.62 83 3.91 67 -4.5 98 -4.7 0 0 985.3 NA 0.0000 9999 1710 0 0 0
2019/06/21 12:33:00 BASE 1.79 101 3.91 67 -4.4 98 -4.7 0 0 985.3 NA 0.0000 9999 1770 0 0 0
2019/06/21 12:34:00 BASE 1.69 102 3.91 67 -4.4 98 -4.6 0 0 985.3 NA 0.0000 9999 1610 0 0 0
2019/06/21 12:35:00 BASE 1.50 100 3.91 67 -4.3 98 -4.6 0 0 985.2 NA 0.0000 9999 1670 0 0 0
2019/06/21 12:36:00 BASE 1.79 122 3.91 67 -4.3 98 -4.6 0 0 985.2 NA 0.0000 9999 1800 0 0 0
2019/06/21 12:37:00 BASE 2.41 144 3.81 129 -4.3 98 -4.6 0 0 985.3 NA 0.0000 9999 1670 0 0 0
2019/06/21 12:38:00 BASE 2.79 156 4.68 167 -4.2 97 -4.6 0 0 985.2 NA 0.0000 9999 1640 0 0 0
2019/06/21 12:39:00 BASE 3.86 172 5.35 181 -4.2 97 -4.6 0 0 985.3 NA 0.0000 9999 1670 0 0 0
2019/06/21 12:40:00 BASE 4.31 182 5.35 181 -4.2 97 -4.6 0 0 985.3 NA 0.0000 9999 1640 0 0 0
2019/06/21 12:41:00 BASE 3.53 180 5.35 181 -4.2 97 -4.6 0 0 985.3 NA 0.0000 9999 1570 0 0 0
2019/06/21 12:42:00 BASE 3.87 187 5.71 182 -4.2 97 -4.6 0 0 985.3 NA 0.0000 9999 1540 2300 0 0
2019/06/21 12:43:00 BASE 3.45 198 5.71 182 -4.2 96 -4.7 0 0 985.0 NA 0.0000 9999 1740 0 0 0
2019/06/21 12:44:00 BASE 4.23 188 6.84 165 -4.2 96 -4.7 0 0 985.3 NA 0.0000 9999 1710 0 0 0
2019/06/21 12:45:00 BASE 6.06 176 7.10 179 -4.2 96 -4.7 0 0 985.3 NA 0.0000 9999 1740 0 0 0
2019/06/21 12:46:00 BASE 7.06 180 8.54 200 -4.2 96 -4.7 0 0 985.3 NA 0.0000 9999 1710 0 0 0
2019/06/21 12:47:00 BASE 7.66 187 8.85 188 -4.1 96 -4.7 0 0 985.2 NA 0.0000 9999 1670 0 0 0
2019/06/21 12:48:00 BASE 6.94 186 8.85 188 -4.1 96 -4.7 0 0 985.2 NA 0.0000 9999 1670 0 0 0
2019/06/21 12:49:00 BASE 5.75 183 8.85 188 -4.1 96 -4.7 0 0 985.3 NA 0.0000 9999 1640 0 0 0
2019/06/21 12:50:00 BASE 4.99 174 8.85 188 -4.1 95 -4.7 0 0 985.3 NA 0.0000 9999 1670 0 0 0
2019/06/21 12:51:00 BASE 5.53 172 8.85 188 -4.1 95 -4.8 0 0 985.2 NA 0.0000 9999 1640 0 0 0
2019/06/21 12:52:00 BASE 5.82 175 8.85 188 -4.1 95 -4.8 0 0 985.2 NA 0.0000 9999 1610 0 0 0
2019/06/21 12:53:00 BASE 5.23 171 8.85 188 -4.1 95 -4.8 0 0 985.2 NA 0.0000 9999 1640 0 0 0
2019/06/21 12:54:00 BASE 5.17 169 8.85 188 -4.1 95 -4.8 0 0 985.2 NA 0.0000 9999 1670 0 0 0
2019/06/21 12:55:00 BASE 5.80 168 8.85 188 -4.1 95 -4.8 0 0 985.2 NA 0.0000 9999 1570 0 0 0
2019/06/21 12:56:00 BASE 6.17 162 8.85 188 -4.1 95 -4.8 0 0 985.3 NA 0.0000 9999 1610 0 0 0
2019/06/21 12:57:00 BASE 5.69 157 8.49 165 -4.1 95 -4.8 0 0 985.2 NA 0.0000 9999 1900 0 0 0
2019/06/21 12:58:00 BASE 4.87 160 8.49 165 -4.1 95 -4.8 0 0 985.2 NA 0.0000 9999 1870 0 0 0
2019/06/21 12:59:00 BASE 4.26 171 8.49 165 -4.1 95 -4.8 0 0 985.3 NA 0.0000 9999 1740 0 0 0
2019/06/21 13:00:00 BASE 4.33 169 8.49 165 -4.1 94 -4.8 0 0 984.7 NA 0.0000 9999 1640 0 0 0
2019/06/21 13:01:00 BASE 5.20 163 8.49 165 -4.1 94 -4.9 0 0 985.3 NA 0.0000 9999 1570 0 0 0
2019/06/21 13:02:00 BASE 6.05 167 8.49 165 -4.1 94 -4.9 0 0 985.3 NA 0.0000 9999 1870 0 0 0
2019/06/21 13:03:00 BASE 5.31 172 8.49 165 -4.1 94 -4.9 0 0 985.3 NA 0.0000 9999 1840 0 0 0
2019/06/21 13:04:00 BASE 4.62 184 8.49 165 -4.1 94 -4.9 0 0 985.3 NA 0.0000 9999 1870 0 0 0
2019/06/21 13:05:00 BASE 4.86 185 7.67 167 -4.1 94 -4.9 0 0 985.3 NA 0.0000 9999 1770 0 0 0
2019/06/21 13:06:00 BASE 4.87 175 7.05 174 -4.1 94 -4.9 0 0 985.3 NA 0.0000 9999 1800 0 0 0
2019/06/21 13:07:00 BASE 5.23 167 7.05 174 -4.0 94 -4.8 0 0 985.3 NA 0.0000 9999 1640 0 0 0
2019/06/21 13:08:00 BASE 5.65 156 7.05 174 -4.1 94 -4.9 0 0 985.3 NA 0.0000 9999 1610 0 0 0
2019/06/21 13:09:01 BASE 5.44 152 7.05 174 -4.1 94 -4.8 0 0 985.4 NA 0.0000 9999 1710 0 0 0
2019/06/21 13:10:00 BASE 4.62 148 7.05 174 -4.1 95 -4.8 0 0 985.4 NA 0.0000 9999 1670 0 0 0
2019/06/21 13:11:00 BASE 4.04 144 7.05 174 -4.1 95 -4.8 0 0 985.4 NA 0.0000 9999 1640 0 0 0
2019/06/21 13:12:00 BASE 4.49 149 6.17 152 -4.1 95 -4.8 0 0 985.4 NA 0.0000 9999 1770 0 0 0
2019/06/21 13:13:00 BASE 4.56 150 6.17 152 -4.1 95 -4.8 0 0 985.4 NA 0.0000 9999 1670 0 0 0
2019/06/21 13:14:00 BASE 4.58 153 6.17 163 -4.1 95 -4.8 0 0 985.4 NA 0.0000 9999 1770 0 0 0
2019/06/21 13:15:00 BASE 5.01 165 6.17 163 -4.1 95 -4.8 0 0 985.4 NA 0.0000 9999 1770 0 0 0
2019/06/21 13:16:00 BASE 5.00 173 6.17 163 -4.1 95 -4.8 0 0 985.4 NA 0.0000 9999 1640 0 0 0
2019/06/21 13:17:00 BASE 4.37 181 6.17 163 -4.1 95 -4.8 0 0 985.4 NA 0.0000 9999 1740 0 0 0
2019/06/21 13:18:00 BASE 3.18 182 6.17 163 -4.1 95 -4.8 0 0 985.4 NA 0.0000 9999 1640 0 0 0
2019/06/21 13:19:00 BASE 2.87 170 6.17 163 -4.1 95 -4.8 0 0 985.4 NA 0.0000 9999 1670 0 0 0
2019/06/21 13:20:00 BASE 3.62 162 6.17 163 -4.1 95 -4.8 0 0 985.4 NA 0.0000 9999 1610 0 0 0
2019/06/21 13:21:00 BASE 3.88 164 6.17 163 -4.2 95 -4.8 0 0 985.4 NA 0.0000 9999 1670 0 0 0
2019/06/21 13:22:00 BASE 4.21 171 6.17 163 -4.2 95 -4.9 0 0 985.4 NA 0.0000 9999 1710 0 0 0
2019/06/21 13:23:00 BASE 4.91 177 6.17 163 -4.2 95 -4.9 0 0 985.5 NA 0.0000 9999 1770 0 0 0
2019/06/21 13:24:00 BASE 5.35 180 6.12 186 -4.2 95 -4.8 0 0 985.5 NA 0.0000 9999 1740 0 0 0
2019/06/21 13:25:00 BASE 5.37 182 6.12 186 -4.1 95 -4.8 0 0 985.4 NA 0.0000 9999 1740 0 0 0
2019/06/21 13:26:00 BASE 4.58 168 6.12 186 -4.1 95 -4.8 0 0 985.4 NA 0.0000 9999 1840 0 0 0
2019/06/21 13:27:00 BASE 4.25 152 6.12 186 -4.1 95 -4.8 0 0 985.5 NA 0.0000 9999 1710 0 0 0
2019/06/21 13:28:00 BASE 4.32 153 6.12 186 -4.1 95 -4.8 0 0 985.4 NA 0.0000 9999 1710 0 0 0
2019/06/21 13:29:00 BASE 4.19 158 6.12 186 -4.2 95 -4.9 0 0 985.4 NA 0.0000 9999 1670 0 0 0
2019/06/21 13:30:00 BASE 4.40 154 6.12 186 -4.2 95 -4.9 0 0 985.5 NA 0.0000 9999 1670 0 0 0
2019/06/21 13:31:00 BASE 3.83 146 6.12 186 -4.2 95 -4.9 0 0 985.4 NA 0.0000 9999 1710 0 0 0
2019/06/21 13:32:00 BASE 4.18 154 6.74 178 -4.2 95 -4.9 0 0 985.5 NA 0.0000 9999 1740 0 0 0
2019/06/21 13:33:00 BASE 5.71 184 7.72 197 -4.2 95 -4.9 0 0 985.5 NA 0.0000 9999 1640 0 0 0
2019/06/21 13:34:00 BASE 5.75 198 7.72 197 -4.2 95 -4.9 0 0 985.5 NA 0.0000 9999 1870 0 0 0
2019/06/21 13:35:00 BASE 5.27 187 7.72 197 -4.2 95 -4.8 0 0 985.5 NA 0.0000 9999 1770 0 0 0
2019/06/21 13:36:00 BASE 5.52 170 7.72 197 -4.2 95 -4.9 0 0 985.6 NA 0.0000 9999 1800 0 0 0
2019/06/21 13:37:00 BASE 5.62 160 7.72 197 -4.1 95 -4.9 0 0 985.6 NA 0.0000 9999 1740 0 0 0
2019/06/21 13:38:00 BASE 4.96 164 7.72 197 -4.1 94 -4.9 0 0 985.6 NA 0.0000 9999 1800 0 0 0
2019/06/21 13:39:00 BASE 4.05 165 7.72 197 -4.2 94 -5.0 0 0 985.6 NA 0.0000 9999 1770 0 0 0
2019/06/21 13:40:00 BASE 3.46 162 7.72 197 -4.2 94 -5.0 0 0 985.6 NA 0.0000 9999 1800 0 0 0
2019/06/21 13:41:00 BASE 3.77 159 7.72 197 -4.2 94 -5.0 0 0 985.6 NA 0.0000 9999 1970 0 0 0
2019/06/21 13:42:00 BASE 3.63 167 7.72 197 -4.2 94 -5.0 0 0 985.6 NA 0.0000 9999 1800 0 0 0
2019/06/21 13:43:00 BASE 3.16 175 6.58 164 -4.2 94 -5.0 0 0 985.6 NA 0.0000 9999 1710 0 0 0
2019/06/21 13:44:00 BASE 3.75 174 6.58 164 -4.2 94 -5.0 0 0 985.6 NA 0.0000 9999 1670 0 0 0
2019/06/21 13:45:00 BASE 4.35 180 6.58 164 -4.2 94 -5.0 0 0 985.6 NA 0.0000 9999 1670 0 0 0
2019/06/21 13:46:00 BASE 4.05 175 6.12 157 -4.1 94 -5.0 1 0 985.7 NA 0.0000 9999 2000 0 0 0
2019/06/21 13:47:00 BASE 3.36 164 5.61 145 -4.1 94 -5.0 1 0 985.7 NA 0.0000 9999 2000 0 0 0
2019/06/21 13:48:00 BASE 3.07 176 5.61 145 -4.1 94 -4.9 1 0 985.7 NA 0.0000 9999 1740 0 0 0
2019/06/21 13:49:00 BASE 2.59 194 5.61 145 -4.1 94 -4.9 1 0 985.7 NA 0.0000 9999 1800 0 0 0
2019/06/21 13:50:00 BASE 2.34 176 5.61 145 -4.1 94 -4.9 1 0 985.3 NA 0.0000 9999 1670 0 0 0
2019/06/21 13:51:00 BASE 2.87 157 5.40 195 -4.1 94 -5.0 1 0 985.7 NA 0.0000 9999 1740 0 0 0
2019/06/21 13:52:00 BASE 3.25 167 5.40 195 -4.1 93 -5.0 1 0 985.8 NA 0.0000 9999 1800 0 0 0
2019/06/21 13:53:00 BASE 3.06 171 5.40 195 -4.2 93 -5.1 1 0 985.8 NA 0.0000 9999 1870 0 0 0
2019/06/21 13:54:00 BASE 2.49 171 5.40 195 -4.2 93 -5.1 1 0 985.7 NA 0.0000 9999 1870 0 0 0
2019/06/21 13:55:00 BASE 1.81 172 4.17 175 -4.2 93 -5.1 1 0 985.8 NA 0.0000 9999 1800 0 0 0
2019/06/21 13:56:00 BASE 1.56 158 3.70 158 -4.2 93 -5.1 1 0 985.8 NA 0.0000 9999 2030 0 0 0
2019/06/21 13:57:00 BASE 1.79 131 3.70 158 -4.2 93 -5.1 1 0 985.8 NA 0.0000 9999 1940 0 0 0
2019/06/21 13:58:00 BASE 1.92 115 3.70 158 -4.2 93 -5.1 1 0 985.8 NA 0.0000 9999 1840 0 0 0
2019/06/21 13:59:00 BASE 1.89 116 3.70 158 -4.2 93 -5.1 1 0 985.8 NA 0.0000 9999 1970 0 0 0
2019/06/21 14:00:00 BASE 2.24 123 3.70 158 -4.3 93 -5.2 1 0 985.8 NA 0.0000 9999 1970 0 0 0
2019/06/21 14:01:00 BASE 2.97 138 3.65 184 -4.3 93 -5.2 1 0 985.8 NA 0.0000 9999 1940 0 0 0
2019/06/21 14:02:00 BASE 2.92 145 3.60 153 -4.3 93 -5.3 1 0 985.8 NA 0.0000 9999 1940 0 0 0
2019/06/21 14:03:00 BASE 2.25 138 3.60 153 -4.3 93 -5.3 1 0 985.8 NA 0.0000 9999 1970 0 0 0
2019/06/21 14:04:00 BASE 1.94 127 3.60 153 -4.3 93 -5.3 1 0 985.8 NA 0.0000 9999 1840 0 0 0
2019/06/21 14:05:00 BASE 2.04 122 3.60 153 -4.3 93 -5.3 1 0 985.8 NA 0.0000 9999 1870 0 0 0
2019/06/21 14:06:00 BASE 1.98 137 3.60 153 -4.3 93 -5.3 1 0 985.9 NA 0.0000 9999 1870 0 0 0
2019/06/21 14:07:00 BASE 1.05 156 3.60 153 -4.3 93 -5.2 1 0 985.9 NA 0.0000 9999 1800 0 0 0
2019/06/21 14:08:00 BASE 0.13 158 3.60 153 -4.3 94 -5.1 1 0 985.9 NA 0.0000 9999 1840 0 0 0
2019/06/21 14:09:00 BASE 0.00 143 3.60 153 -4.2 94 -5.1 1 0 985.4 NA 0.0000 9999 1840 0 0 0
2019/06/21 14:10:00 BASE 0.04 115 3.60 153 -4.1 94 -5.0 2 0 985.9 NA 0.0000 9999 1770 0 0 0
2019/06/21 14:11:00 BASE 0.04 100 2.73 129 -4.1 93 -5.0 2 0 985.9 NA 0.0000 9999 1770 0 0 0
2019/06/21 14:12:00 BASE 0.35 83 2.73 129 -4.1 93 -5.1 2 0 985.9 NA 0.0000 9999 1770 0 0 0
2019/06/21 14:13:00 BASE 0.35 67 2.73 129 -4.1 92 -5.1 2 0 985.9 NA 0.0000 9999 1740 0 0 0
2019/06/21 14:14:00 BASE 0.16 55 2.73 129 -4.1 92 -5.2 2 0 985.9 NA 0.0000 9999 1670 0 0 0
2019/06/21 14:15:00 BASE 0.49 37 2.52 142 -4.1 92 -5.2 2 0 985.9 NA 0.0000 9999 1710 0 0 0
2019/06/21 14:16:00 BASE 0.33 39 1.80 154 -4.1 92 -5.2 2 0 985.9 NA 0.0000 9999 1770 0 0 0
2019/06/21 14:17:00 BASE 0.05 65 1.39 41 -4.1 92 -5.2 2 0 985.9 NA 0.0000 9999 1710 0 0 0
2019/06/21 14:18:00 BASE 0.47 95 1.44 110 -4.1 92 -5.2 2 0 986.0 NA 0.0000 9999 1710 0 0 0
2019/06/21 14:19:00 BASE 0.72 116 1.44 110 -4.1 91 -5.3 2 0 986.0 NA 0.0000 9999 1800 0 0 0
2019/06/21 14:20:00 BASE 0.61 98 1.44 110 -4.1 91 -5.3 2 0 986.0 NA 0.0000 9999 1770 0 0 0
2019/06/21 14:21:00 BASE 0.40 88 1.44 110 -4.1 91 -5.4 2 0 986.0 NA 0.0000 9999 1870 0 0 0
2019/06/21 14:22:00 BASE 0.45 158 2.62 230 -4.1 91 -5.4 2 0 986.0 NA 0.0000 9999 1800 0 0 0
2019/06/21 14:23:00 BASE 1.24 212 2.62 230 -4.1 91 -5.3 2 0 986.0 NA 0.0000 9999 1840 0 0 0
2019/06/21 14:24:00 BASE 1.78 194 2.62 230 -4.1 92 -5.2 2 0 986.0 NA 0.0000 9999 1900 0 0 0
2019/06/21 14:25:00 BASE 1.37 167 2.62 230 -4.0 92 -5.2 2 0 985.9 NA 0.0000 9999 1840 0 0 0
2019/06/21 14:26:00 BASE 2.00 193 4.53 232 -4.0 92 -5.2 2 0 985.9 NA 0.0000 9999 1710 0 0 0
2019/06/21 14:27:00 BASE 4.93 228 9.41 219 -4.0 91 -5.2 2 0 985.9 NA 0.0000 9999 1870 0 0 0
2019/06/21 14:28:00 BASE 6.88 219 9.41 219 -3.9 91 -5.2 2 0 985.9 NA 0.0000 9999 1710 0 0 0
2019/06/21 14:29:00 BASE 7.53 205 9.41 219 -3.9 91 -5.2 2 0 985.8 NA 0.0000 9999 1740 0 0 0
2019/06/21 14:30:00 BASE 8.07 206 9.98 202 -3.9 91 -5.1 2 0 985.9 NA 0.0000 9999 1840 0 0 0
2019/06/21 14:31:00 BASE 6.25 230 9.98 202 -3.9 91 -5.1 2 0 985.9 NA 0.0000 9999 1800 0 0 0
2019/06/21 14:32:00 BASE 3.76 241 9.98 202 -3.9 91 -5.1 3 0 985.9 NA 0.0000 9999 1800 0 0 0
2019/06/21 14:33:00 BASE 4.47 235 9.98 202 -3.9 91 -5.1 3 0 985.8 NA 0.0000 9999 1800 0 0 0
2019/06/21 14:34:00 BASE 6.27 236 9.98 202 -3.9 91 -5.2 3 0 985.8 NA 0.0000 9999 1840 0 0 0
2019/06/21 14:35:00 BASE 7.33 234 9.98 202 -3.8 90 -5.2 3 0 985.8 NA 0.0000 9999 1640 0 0 0
2019/06/21 14:36:00 BASE 7.91 234 9.98 202 -3.8 90 -5.2 3 0 985.8 NA 0.0000 9999 1840 0 0 0
2019/06/21 14:37:00 BASE 7.20 240 9.98 202 -3.8 90 -5.2 3 0 985.8 NA 0.0000 9999 1800 0 0 0
2019/06/21 14:38:00 BASE 6.45 244 9.98 202 -3.8 90 -5.2 3 0 985.9 NA 0.0000 9999 1870 0 0 0
2019/06/21 14:39:00 BASE 6.12 234 9.98 202 -3.8 90 -5.2 3 0 985.9 NA 0.0000 9999 1870 0 0 0
2019/06/21 14:40:00 BASE 6.09 222 8.64 230 -3.8 90 -5.2 3 0 985.9 NA 0.0000 9999 1800 0 0 0
2019/06/21 14:41:00 BASE 6.95 218 8.85 217 -3.8 90 -5.2 3 0 985.9 NA 0.0000 9999 1710 0 0 0
2019/06/21 14:42:00 BASE 7.26 224 8.85 217 -3.8 90 -5.2 3 0 985.9 NA 0.0000 9999 1710 0 0 0
2019/06/21 14:43:00 BASE 6.22 230 8.85 217 -3.8 90 -5.2 3 0 985.9 NA 0.0000 9999 1710 0 0 0
2019/06/21 14:44:00 BASE 6.32 221 8.85 217 -3.8 90 -5.2 3 0 985.9 NA 0.0000 9999 1640 0 0 0
2019/06/21 14:45:00 BASE 6.98 208 8.85 217 -3.8 90 -5.1 3 0 985.9 NA 0.0000 9999 1610 0 0 0
2019/06/21 14:46:00 BASE 7.02 196 8.85 217 -3.8 90 -5.1 4 0 986.0 NA 0.0000 9999 1740 0 0 0
2019/06/21 14:47:00 BASE 6.56 194 8.85 217 -3.8 91 -5.1 4 0 986.0 NA 0.0000 9999 1740 0 0 0
2019/06/21 14:48:00 BASE 5.74 191 8.85 217 -3.8 91 -5.1 4 0 986.0 NA 0.0000 9999 1640 0 0 0
2019/06/21 14:49:00 BASE 5.45 182 8.85 217 -3.8 91 -5.1 4 0 986.0 NA 0.0000 9999 1770 0 0 0
2019/06/21 14:50:00 BASE 4.97 181 8.85 217 -3.9 91 -5.1 4 0 986.0 NA 0.0000 9999 1670 0 0 0
2019/06/21 14:51:00 BASE 4.24 191 8.08 194 -3.9 91 -5.1 4 0 986.0 NA 0.0000 9999 1640 0 0 0
2019/06/21 14:52:00 BASE 3.80 209 8.08 194 -3.9 91 -5.2 4 0 986.0 NA 0.0000 9999 1670 0 0 0
2019/06/21 14:53:00 BASE 3.63 214 8.08 194 -3.9 91 -5.2 4 0 986.0 NA 0.0000 9999 1670 0 0 0
2019/06/21 14:54:00 BASE 3.41 209 8.08 194 -3.9 91 -5.2 4 0 986.0 NA 0.0000 9999 1670 0 0 0
2019/06/21 14:55:00 BASE 2.73 207 8.08 194 -3.9 91 -5.2 4 0 986.0 NA 0.0000 9999 1670 0 0 0
2019/06/21 14:56:00 BASE 2.00 206 6.48 195 -3.9 91 -5.2 4 0 986.0 NA 0.0000 9999 1710 0 0 0
2019/06/21 14:57:00 BASE 1.83 202 6.38 186 -3.9 90 -5.2 5 0 986.0 NA 0.0000 9999 1770 0 0 0
2019/06/21 14:58:00 BASE 2.20 180 6.38 186 -3.9 90 -5.3 5 0 986.0 NA 0.0000 9999 1800 0 0 0
2019/06/21 14:59:00 BASE 2.20 152 6.38 186 -3.9 90 -5.3 5 0 986.0 NA 0.0000 9999 1740 0 0 0
2019/06/21 15:00:00 BASE 1.98 137 4.58 205 -3.9 90 -5.3 5 0 986.0 NA 0.0000 9999 1740 0 0 0
2019/06/21 15:01:00 BASE 1.37 142 4.48 215 -4.0 90 -5.3 5 0 986.0 NA 0.0000 9999 1770 0 0 0
2019/06/21 15:02:00 BASE 1.38 175 4.32 204 -4.0 90 -5.4 5 0 986.0 NA 0.0000 9999 1800 0 0 0
2019/06/21 15:03:00 BASE 2.06 202 3.81 210 -4.0 90 -5.4 5 0 986.0 NA 0.0000 9999 1800 0 0 0
2019/06/21 15:04:00 BASE 2.87 205 4.48 184 -3.9 90 -5.3 5 0 986.0 NA 0.0000 9999 1770 0 0 0
2019/06/21 15:05:00 BASE 3.78 195 4.68 188 -3.9 90 -5.3 6 0 986.0 NA 0.0000 9999 1710 0 0 0
2019/06/21 15:06:00 BASE 4.08 187 4.78 192 -3.9 90 -5.3 6 0 986.0 NA 0.0000 9999 1670 0 0 0
2019/06/21 15:07:00 BASE 4.08 180 4.78 192 -3.9 90 -5.3 6 0 986.1 NA 0.0000 9999 1710 0 0 0
2019/06/21 15:08:00 BASE 3.57 161 4.78 192 -4.0 90 -5.3 6 0 986.2 NA 0.0000 9999 1710 0 0 0
2019/06/21 15:09:00 BASE 3.13 144 4.78 192 -4.0 90 -5.4 6 0 986.2 NA 0.0000 9999 1670 0 0 0
2019/06/21 15:10:00 BASE 2.69 141 4.78 192 -4.0 90 -5.4 6 0 986.2 NA 0.0000 9999 1670 0 0 0
2019/06/21 15:11:00 BASE 2.50 142 4.78 192 -4.1 90 -5.5 6 0 986.2 NA 0.0000 9999 1610 0 0 0
2019/06/21 15:12:00 BASE 2.07 143 4.78 192 -4.1 90 -5.5 6 0 986.2 NA 0.0000 9999 1540 0 0 0
2019/06/21 15:13:00 BASE 1.26 146 4.78 192 -4.1 90 -5.4 6 0 986.2 NA 0.0000 9999 1540 0 0 0
2019/06/21 15:14:00 BASE 1.39 165 4.78 192 -4.1 91 -5.4 6 0 986.2 NA 0.0000 9999 1640 0 0 0
2019/06/21 15:15:00 BASE 1.74 188 4.78 192 -4.1 91 -5.3 6 0 986.2 NA 0.0000 9999 1640 0 0 0
2019/06/21 15:16:00 BASE 1.99 199 4.53 187 -4.0 91 -5.3 6 0 986.2 NA 0.0000 9999 1610 0 0 0
2019/06/21 15:17:00 BASE 3.50 220 6.02 231 -4.0 91 -5.3 6 0 986.2 NA 0.0000 9999 1610 0 0 0
2019/06/21 15:18:00 BASE 5.08 232 6.02 217 -4.0 91 -5.3 6 0 986.2 NA 0.0000 9999 1510 0 0 0
2019/06/21 15:19:00 BASE 5.25 223 6.02 217 -4.0 91 -5.3 6 0 986.2 NA 0.0000 9999 1510 0 0 0
2019/06/21 15:20:00 BASE 4.79 218 6.02 217 -4.0 91 -5.2 6 0 986.2 NA 0.0000 9999 1440 0 0 0
2019/06/21 15:21:00 BASE 4.50 221 6.02 217 -4.0 91 -5.2 6 0 986.2 NA 0.0000 9999 1440 0 0 0
2019/06/21 15:22:00 BASE 5.13 219 6.12 215 -4.0 92 -5.1 6 0 986.2 NA 0.0000 9999 1410 0 0 0
2019/06/21 15:23:00 BASE 5.25 217 6.12 215 -4.0 92 -5.1 6 0 986.2 NA 0.0000 9999 1310 0 0 0
2019/06/21 15:24:00 BASE 5.48 217 7.31 211 -4.0 92 -5.1 6 0 986.2 NA 0.0000 9999 1440 0 0 0
2019/06/21 15:25:00 BASE 6.86 214 8.54 214 -4.0 92 -5.1 5 0 986.2 NA 0.0000 9999 1570 0 0 0
2019/06/21 15:26:00 BASE 6.51 211 8.54 214 -4.0 92 -5.1 5 0 986.2 NA 0.0000 9999 1570 0 0 0
2019/06/21 15:27:00 BASE 5.26 204 8.54 214 -4.0 92 -5.1 5 0 986.3 NA 0.0000 9999 1540 0 0 0
2019/06/21 15:28:00 BASE 4.77 201 8.54 214 -4.0 92 -5.2 6 0 986.3 NA 0.0000 9999 1570 0 0 0
2019/06/21 15:29:00 BASE 5.67 208 8.54 214 -4.0 91 -5.2 6 0 986.3 NA 0.0000 9999 1610 0 0 0
2019/06/21 15:30:00 BASE 7.32 212 8.54 214 -4.0 91 -5.2 6 0 986.3 NA 0.0000 9999 1510 0 0 0
2019/06/21 15:31:00 BASE 7.88 215 8.54 214 -4.0 91 -5.3 5 0 986.3 NA 0.0000 9999 1510 2300 0 0
2019/06/21 15:32:00 BASE 8.00 218 9.41 219 -4.0 91 -5.2 6 0 986.3 NA 0.0000 9999 2070 0 0 0
2019/06/21 15:33:00 BASE 7.35 212 9.41 219 -4.0 91 -5.2 6 0 986.3 NA 0.0000 9999 1770 2400 0 0
2019/06/21 15:34:00 BASE 6.62 205 9.41 219 -4.0 92 -5.2 6 0 986.4 NA 0.0000 9999 1770 0 0 0
2019/06/21 15:35:00 BASE 7.14 203 9.41 219 -4.1 92 -5.2 5 0 986.3 NA 0.0000 9999 1740 0 0 0
2019/06/21 15:36:00 BASE 6.86 208 9.41 219 -4.1 92 -5.2 5 0 986.3 NA 0.0000 9999 1640 0 0 0
2019/06/21 15:37:00 BASE 5.56 219 9.41 219 -4.2 92 -5.3 6 0 986.3 NA 0.0000 9999 1610 0 0 0
2019/06/21 15:38:00 BASE 4.57 231 9.41 219 -4.2 92 -5.3 6 0 986.4 NA 0.0000 9999 1610 0 0 0
2019/06/21 15:39:00 BASE 3.96 229 9.41 219 -4.2 92 -5.3 6 0 986.4 NA 0.0000 9999 1670 0 0 0
2019/06/21 15:40:00 BASE 3.97 217 9.41 219 -4.2 92 -5.3 6 0 986.3 NA 0.0000 9999 1710 0 0 0
2019/06/21 15:41:00 BASE 3.85 210 9.41 219 -4.2 92 -5.3 6 0 986.3 NA 0.0000 9999 1710 0 0 0
2019/06/21 15:42:00 BASE 4.07 212 9.11 200 -4.2 92 -5.3 6 0 986.3 NA 0.0000 9999 1610 0 0 0
2019/06/21 15:43:00 BASE 5.07 211 9.11 200 -4.2 92 -5.3 6 0 986.3 NA 0.0000 9999 1640 0 0 0
2019/06/21 15:44:00 BASE 5.35 207 9.11 200 -4.2 92 -5.3 6 0 986.3 NA 0.0000 9999 1570 0 0 0
2019/06/21 15:45:00 BASE 4.83 210 6.84 213 -4.2 92 -5.3 6 0 986.4 NA 0.0000 9999 1570 0 0 0
2019/06/21 15:46:00 BASE 4.92 218 6.58 222 -4.2 92 -5.3 6 0 986.4 NA 0.0000 9999 1570 0 0 0
2019/06/21 15:47:00 BASE 5.53 219 6.58 222 -4.2 92 -5.3 6 0 986.4 NA 0.0000 9999 1610 0 0 0
2019/06/21 15:48:00 BASE 5.87 209 6.58 192 -4.2 92 -5.3 6 0 986.4 NA 0.0000 9999 1570 0 0 0
2019/06/21 15:49:00 BASE 5.92 202 6.58 192 -4.1 92 -5.3 6 0 986.4 NA 0.0000 9999 1640 0 0 0
2019/06/21 15:50:00 BASE 5.83 205 6.58 192 -4.1 92 -5.2 6 0 986.4 NA 0.0000 9999 1770 0 0 0
2019/06/21 15:51:00 BASE 5.27 206 6.58 192 -4.2 92 -5.2 6 0 986.4 NA 0.0000 9999 1670 0 0 0
2019/06/21 15:52:00 BASE 4.55 198 6.58 192 -4.2 93 -5.2 6 0 986.4 NA 0.0000 9999 1640 0 0 0
2019/06/21 15:53:00 BASE 4.85 193 6.69 202 -4.2 93 -5.2 6 0 986.4 NA 0.0000 9999 1540 0 0 0
2019/06/21 15:54:00 BASE 4.89 196 6.69 202 -4.3 93 -5.2 6 0 986.4 NA 0.0000 9999 1640 0 0 0
2019/06/21 15:55:00 BASE 3.43 206 6.69 202 -4.3 93 -5.2 6 0 986.4 NA 0.0000 9999 1710 0 0 0
2019/06/21 15:56:00 BASE 1.77 209 6.69 202 -4.3 93 -5.3 6 0 986.4 NA 0.0000 9999 1670 0 0 0
2019/06/21 15:57:00 BASE 1.94 195 6.69 202 -4.3 93 -5.3 6 0 986.4 NA 0.0000 9999 1440 0 0 0
2019/06/21 15:58:00 BASE 2.97 198 6.69 202 -4.3 92 -5.4 6 0 986.4 NA 0.0000 9999 1570 0 0 0
2019/06/21 15:59:00 BASE 3.27 205 6.69 202 -4.3 92 -5.4 7 0 986.4 NA 0.0000 9999 1380 0 0 0
2019/06/21 16:00:00 BASE 3.38 195 6.69 202 -4.3 92 -5.4 7 0 986.4 NA 0.0000 9999 1410 0 0 0
2019/06/21 16:01:00 BASE 4.35 192 6.69 202 -4.3 92 -5.4 8 0 986.4 NA 0.0000 9999 1410 0 0 0
2019/06/21 16:02:00 BASE 5.59 193 6.69 202 -4.3 92 -5.4 8 0 986.4 NA 0.0000 9999 1410 0 0 0
2019/06/21 16:03:00 BASE 5.78 200 6.58 201 -4.3 92 -5.3 8 0 986.4 NA 0.0000 9999 1350 0 0 0
2019/06/21 16:04:00 BASE 4.85 203 6.58 201 -4.3 92 -5.3 7 0 986.4 NA 0.0000 9999 1380 0 0 0
2019/06/21 16:05:00 BASE 4.21 192 6.58 201 -4.3 93 -5.3 7 0 986.4 NA 0.0000 9999 1380 0 0 0
2019/06/21 16:06:00 BASE 4.71 184 6.89 189 -4.3 93 -5.3 7 0 986.4 NA 0.0000 9999 1380 0 0 0
2019/06/21 16:07:00 BASE 5.45 197 6.89 189 -4.3 93 -5.2 7 0 986.4 NA 0.0000 9999 1510 0 0 0
2019/06/21 16:08:00 BASE 6.08 222 7.97 230 -4.3 93 -5.2 7 0 986.4 NA 0.0000 9999 1480 0 0 0
2019/06/21 16:09:00 BASE 6.52 225 7.97 230 -4.3 94 -5.2 7 0 986.4 NA 0.0000 9999 1510 0 0 0
2019/06/21 16:10:00 BASE 6.86 217 7.97 230 -4.3 94 -5.1 6 0 986.4 NA 0.0000 9999 1540 0 0 0
2019/06/21 16:11:00 BASE 7.01 219 7.97 220 -4.3 94 -5.1 6 0 986.4 NA 0.0000 9999 1570 0 0 0
2019/06/21 16:12:00 BASE 7.12 221 7.97 220 -4.3 94 -5.2 6 0 986.4 NA 0.0000 9999 1570 0 0 0
2019/06/21 16:13:00 BASE 7.30 218 8.28 217 -4.4 94 -5.2 6 0 986.3 NA 0.0000 9999 1440 0 0 0
2019/06/21 16:14:00 BASE 7.10 219 8.28 217 -4.4 94 -5.2 6 0 986.4 NA 0.0000 9999 1350 0 0 0
2019/06/21 16:15:00 BASE 6.03 224 8.28 217 -4.4 94 -5.2 6 0 986.4 NA 0.0000 9999 1440 0 0 0
2019/06/21 16:16:00 BASE 5.02 225 8.28 217 -4.4 94 -5.2 6 0 986.4 NA 0.0000 9999 1310 0 0 0
2019/06/21 16:17:00 BASE 5.14 224 8.28 217 -4.4 94 -5.2 6 0 986.4 NA 0.0000 9999 1540 0 0 0
2019/06/21 16:18:00 BASE 5.37 215 8.28 217 -4.4 94 -5.2 6 0 986.4 NA 0.0000 9999 1480 0 0 0
2019/06/21 16:19:00 BASE 5.17 201 8.28 217 -4.4 94 -5.2 7 0 986.4 NA 0.0000 9999 1510 0 0 0
2019/06/21 16:20:00 BASE 5.21 192 8.28 217 -4.4 94 -5.2 7 0 986.4 NA 0.0000 9999 1510 0 0 0
2019/06/21 16:21:00 BASE 4.73 198 8.28 217 -4.4 94 -5.3 7 0 986.4 NA 0.0000 9999 1480 0 0 0
2019/06/21 16:22:00 BASE 3.72 200 8.28 217 -4.5 94 -5.3 7 0 986.4 NA 0.0000 9999 1510 0 0 0
2019/06/21 16:23:00 BASE 4.28 196 7.51 220 -4.5 94 -5.3 7 0 986.4 NA 0.0000 9999 1510 0 0 0
2019/06/21 16:24:00 BASE 6.05 198 7.61 196 -4.5 94 -5.3 7 0 986.4 NA 0.0000 9999 1510 0 0 0
2019/06/21 16:25:00 BASE 6.20 194 7.61 196 -4.5 94 -5.3 6 0 986.4 NA 0.0000 9999 1440 0 0 0
2019/06/21 16:26:00 BASE 4.66 187 7.61 196 -4.5 94 -5.3 7 0 986.4 NA 0.0000 9999 1410 0 0 0
2019/06/21 16:27:00 BASE 3.69 189 7.61 196 -4.5 94 -5.3 7 0 986.4 NA 0.0000 9999 1570 0 0 0
2019/06/21 16:28:00 BASE 3.56 202 7.61 196 -4.5 94 -5.3 7 0 986.4 NA 0.0000 9999 1570 0 0 0
2019/06/21 16:29:00 BASE 3.37 214 7.61 196 -4.5 94 -5.3 7 0 986.4 NA 0.0000 9999 1570 0 0 0
2019/06/21 16:30:00 BASE 3.25 209 7.61 196 -4.5 94 -5.3 7 0 986.4 NA 0.0000 9999 1510 0 0 0
2019/06/21 16:31:00 BASE 3.65 200 7.61 196 -4.5 94 -5.3 7 0 986.4 NA 0.0000 9999 1510 0 0 0
2019/06/21 16:32:00 BASE 3.98 199 7.61 196 -4.5 94 -5.3 7 0 986.4 NA 0.0000 9999 1510 0 0 0
2019/06/21 16:33:00 BASE 4.33 196 7.61 196 -4.5 94 -5.3 7 0 986.4 NA 0.0000 9999 1540 0 0 0
2019/06/21 16:34:00 BASE 5.37 205 6.84 214 -4.4 94 -5.3 7 0 986.4 NA 0.0000 9999 1570 0 0 0
2019/06/21 16:35:00 BASE 6.02 218 6.84 214 -4.5 94 -5.3 7 0 986.4 NA 0.0000 9999 1570 0 0 0
2019/06/21 16:36:00 BASE 5.91 217 6.84 214 -4.5 94 -5.3 7 0 986.4 NA 0.0000 9999 1610 0 0 0
2019/06/21 16:37:00 BASE 5.51 216 6.84 214 -4.5 94 -5.3 8 0 986.4 NA 0.0000 9999 1640 0 0 0
2019/06/21 16:38:00 BASE 5.21 226 6.84 214 -4.5 94 -5.4 8 0 986.4 NA 0.0000 9999 1610 0 0 0
2019/06/21 16:39:00 BASE 5.13 233 6.84 214 -4.5 94 -5.4 8 0 986.4 NA 0.0000 9999 1640 0 0 0
2019/06/21 16:40:00 BASE 4.59 228 6.84 214 -4.6 93 -5.5 8 0 986.4 NA 0.0000 9999 1610 0 0 0
2019/06/21 16:41:00 BASE 4.05 220 6.84 214 -4.6 93 -5.5 8 0 986.4 NA 0.0000 9999 1610 0 0 0
2019/06/21 16:42:00 BASE 4.82 220 6.84 214 -4.6 93 -5.5 8 0 986.4 NA 0.0000 9999 1670 0 0 0
2019/06/21 16:43:00 BASE 4.85 232 6.84 214 -4.6 93 -5.5 8 0 986.4 NA 0.0000 9999 1510 0 0 0
2019/06/21 16:44:00 BASE 3.71 241 6.69 217 -4.6 93 -5.6 8 0 986.4 NA 0.0000 9999 1610 0 0 0
2019/06/21 16:45:00 BASE 3.60 235 6.58 225 -4.6 93 -5.6 8 0 986.3 NA 0.0000 9999 1800 0 0 0
2019/06/21 16:46:00 BASE 3.66 225 6.58 225 -4.6 92 -5.7 8 0 986.4 NA 0.0000 9999 1770 0 0 0
2019/06/21 16:47:00 BASE 3.84 219 6.58 225 -4.6 92 -5.7 8 0 986.4 NA 0.0000 9999 1740 0 0 0
2019/06/21 16:48:00 BASE 3.92 214 6.58 225 -4.6 92 -5.7 8 0 986.4 NA 0.0000 9999 1540 0 0 0
2019/06/21 16:49:00 BASE 3.91 220 6.58 225 -4.6 92 -5.7 8 0 986.4 NA 0.0000 9999 1510 0 0 0
2019/06/21 16:50:00 BASE 3.49 225 6.58 225 -4.6 92 -5.7 8 0 986.4 NA 0.0000 9999 1570 0 0 0
2019/06/21 16:51:00 BASE 2.12 225 6.58 225 -4.6 92 -5.7 8 0 986.4 NA 0.0000 9999 1540 0 0 0
2019/06/21 16:52:00 BASE 1.19 230 5.09 227 -4.6 92 -5.7 8 0 986.4 NA 0.0000 9999 1610 0 0 0
2019/06/21 16:53:00 BASE 1.35 231 5.09 227 -4.6 92 -5.7 8 0 986.4 NA 0.0000 9999 1670 0 0 0
2019/06/21 16:54:00 BASE 1.82 220 5.09 227 -4.5 91 -5.7 8 0 986.4 NA 0.0000 9999 1610 0 0 0
2019/06/21 16:55:00 BASE 2.47 216 4.78 233 -4.5 91 -5.8 8 0 986.4 NA 0.0000 9999 1610 0 0 0
2019/06/21 16:56:00 BASE 2.77 221 4.78 233 -4.5 91 -5.8 9 0 986.4 NA 0.0000 9999 1440 0 0 0
2019/06/21 16:57:00 BASE 2.30 230 4.78 233 -4.5 91 -5.8 9 0 986.4 NA 0.0000 9999 1570 0 0 0
2019/06/21 16:58:00 BASE 1.92 238 4.78 233 -4.6 91 -5.8 9 0 986.4 NA 0.0000 9999 1640 0 0 0
2019/06/21 16:59:00 BASE 1.66 232 3.96 220 -4.6 91 -5.9 10 0 986.4 NA 0.0000 9999 1610 0 0 0
2019/06/21 17:00:00 BASE 1.32 217 3.96 220 -4.6 91 -5.9 10 0 986.4 NA 0.0000 9999 1640 0 0 0
2019/06/21 17:01:00 BASE 1.34 203 3.96 220 -4.7 91 -5.9 11 0 986.4 NA 0.0000 9999 1640 0 0 0
2019/06/21 17:02:00 BASE 1.87 188 3.96 220 -4.7 91 -5.9 12 0 986.4 NA 0.0000 9999 1710 0 0 0
2019/06/21 17:03:00 BASE 2.29 178 3.96 220 -4.7 91 -5.9 12 0 986.5 NA 0.0000 9999 1610 0 0 0
2019/06/21 17:04:00 BASE 2.38 174 3.96 220 -4.7 91 -6.0 14 0 986.5 NA 0.0000 9999 1640 0 0 0
2019/06/21 17:05:00 BASE 2.27 170 2.78 181 -4.7 91 -6.0 14 0 986.5 NA 0.0000 9999 1570 0 0 0
2019/06/21 17:06:00 BASE 2.36 165 2.78 163 -4.8 91 -6.0 16 0 986.5 NA 0.0000 9999 1610 0 0 0
2019/06/21 17:07:00 BASE 2.36 167 2.78 163 -4.8 91 -6.1 15 0 986.5 NA 0.0000 9999 1640 0 0 0
2019/06/21 17:08:00 BASE 2.10 179 2.78 163 -4.8 91 -6.0 13 0 986.5 NA 0.0000 9999 1610 0 0 0
2019/06/21 17:09:00 BASE 1.64 187 2.78 163 -4.8 92 -6.0 11 0 986.5 NA 0.0000 9999 1610 0 0 0
2019/06/21 17:10:00 BASE 0.73 184 2.78 163 -4.8 92 -5.9 10 0 986.4 NA 0.0000 9999 1570 0 0 0
2019/06/21 17:11:00 BASE 0.05 169 2.78 163 -4.7 92 -5.8 9 0 986.4 NA 0.0000 9999 1510 0 0 0
2019/06/21 17:12:00 BASE 0.00 151 2.78 163 -4.7 92 -5.8 10 0 986.4 NA 0.0000 9999 1740 0 0 0
2019/06/21 17:13:00 BASE 0.51 139 2.78 163 -4.7 92 -5.9 10 0 986.4 NA 0.0000 9999 1710 0 0 0
2019/06/21 17:14:00 BASE 1.57 150 2.78 163 -4.7 91 -5.9 11 0 986.5 NA 0.0000 9999 1710 0 0 0
2019/06/21 17:15:00 BASE 2.29 170 3.09 174 -4.7 91 -5.9 11 0 986.5 NA 0.0000 9999 1710 0 0 0
2019/06/21 17:16:00 BASE 2.43 182 3.09 174 -4.7 91 -5.9 10 0 986.5 NA 0.0000 9999 1570 0 0 0
2019/06/21 17:17:00 BASE 1.92 190 3.09 174 -4.7 91 -5.9 10 0 986.5 NA 0.0000 9999 1540 0 0 0
2019/06/21 17:18:00 BASE 1.62 184 3.09 174 -4.7 91 -5.9 9 0 986.5 NA 0.0000 9999 1510 2130 0 0
2019/06/21 17:19:00 BASE 1.64 183 3.09 174 -4.7 91 -5.9 9 0 986.5 NA 0.0000 9999 1770 0 0 0
2019/06/21 17:20:00 BASE 1.51 185 3.09 174 -4.7 91 -5.9 8 0 986.6 NA 0.0000 9999 1670 0 0 0
2019/06/21 17:21:00 BASE 1.19 171 3.09 174 -4.7 91 -5.9 8 0 986.6 NA 0.0000 9999 1640 0 0 0
2019/06/21 17:22:00 BASE 0.84 165 3.09 174 -4.7 91 -6.0 8 0 986.6 NA 0.0000 9999 1610 0 0 0
2019/06/21 17:23:00 BASE 0.94 166 3.09 174 -4.7 91 -6.0 8 0 986.6 NA 0.0000 9999 1610 0 0 0
2019/06/21 17:24:00 BASE 1.31 173 3.09 174 -4.8 91 -6.0 8 0 986.6 NA 0.0000 9999 1540 0 0 0
2019/06/21 17:25:00 BASE 1.55 190 2.93 187 -4.8 91 -6.0 8 0 986.6 NA 0.0000 9999 1570 0 0 0
2019/06/21 17:26:00 BASE 1.33 202 2.11 193 -4.8 92 -6.0 8 0 986.6 NA 0.0000 9999 1710 2490 0 0
2019/06/21 17:27:00 BASE 0.97 214 2.06 168 -4.8 92 -6.0 8 0 986.6 NA 0.0000 9999 1670 2430 0 0
2019/06/21 17:28:00 BASE 0.41 214 1.85 177 -4.8 92 -5.9 8 0 986.6 NA 0.0000 9999 1670 2400 0 0
2019/06/21 17:29:00 BASE 0.27 193 1.85 177 -4.8 92 -5.9 8 0 986.6 NA 0.0000 9999 1670 2330 0 0
2019/06/21 17:30:00 BASE 0.54 178 1.85 177 -4.8 92 -5.9 8 0 986.6 NA 0.0000 9999 1670 2300 0 0
2019/06/21 17:31:00 BASE 0.96 172 1.85 177 -4.8 92 -5.9 8 0 986.6 NA 0.0000 9999 1640 2260 0 0
2019/06/21 17:32:00 BASE 1.51 164 1.90 161 -4.9 92 -6.0 8 0 986.6 NA 0.0000 9999 1640 2170 0 0
2019/06/21 17:33:00 BASE 1.70 157 2.06 151 -4.9 92 -6.0 7 0 986.6 NA 0.0000 9999 2130 0 0 0
2019/06/21 17:34:00 BASE 1.85 152 2.11 154 -5.0 93 -6.0 7 0 986.6 NA 0.0000 9999 2170 0 0 0
2019/06/21 17:35:00 BASE 1.89 152 2.11 154 -4.9 93 -5.9 6 0 986.6 NA 0.0000 9999 2030 0 0 0
2019/06/21 17:36:00 BASE 1.78 162 2.11 154 -4.9 93 -5.9 6 0 986.6 NA 0.0000 9999 1970 0 0 0
2019/06/21 17:37:00 BASE 1.88 174 2.31 178 -4.9 93 -5.8 6 0 986.6 NA 0.0000 9999 1740 0 0 0
2019/06/21 17:38:00 BASE 1.89 182 2.31 178 -4.9 93 -5.8 6 0 986.6 NA 0.0000 9999 1670 0 0 0
2019/06/21 17:39:00 BASE 1.63 187 2.31 178 -4.8 93 -5.8 5 0 986.6 NA 0.0000 9999 1640 0 0 0
2019/06/21 17:40:00 BASE 2.07 181 3.19 167 -4.8 93 -5.8 5 0 986.6 NA 0.0000 9999 1740 0 0 0
2019/06/21 17:41:00 BASE 2.25 166 3.19 167 -4.8 93 -5.7 5 0 986.6 NA 0.0000 9999 1610 0 0 0
2019/06/21 17:42:00 BASE 1.60 143 3.19 167 -4.8 93 -5.7 5 0 986.6 NA 0.0000 9999 1540 0 0 0
2019/06/21 17:43:00 BASE 1.51 136 3.19 167 -4.8 93 -5.8 5 0 986.6 NA 0.0000 9999 1440 0 0 0
2019/06/21 17:44:00 BASE 1.90 152 3.19 167 -4.9 93 -5.8 5 0 986.6 NA 0.0000 9999 1480 0 0 0
2019/06/21 17:45:00 BASE 1.97 158 3.19 167 -4.9 94 -5.8 5 0 986.6 NA 0.0000 9999 1800 0 0 0
2019/06/21 17:46:00 BASE 1.84 157 3.19 167 -4.9 94 -5.8 5 0 986.6 NA 0.0000 9999 1740 0 0 0
2019/06/21 17:47:00 BASE 1.93 164 3.19 167 -4.9 94 -5.7 5 0 986.6 NA 0.0000 9999 1670 0 0 0
2019/06/21 17:48:00 BASE 1.87 170 3.19 167 -4.9 94 -5.7 5 0 986.6 NA 0.0000 9999 1800 0 0 0
2019/06/21 17:49:00 BASE 1.67 169 3.19 167 -4.9 94 -5.7 4 0 986.6 NA 0.0000 9999 1840 0 0 0
2019/06/21 17:50:00 BASE 1.74 169 2.42 175 -4.8 94 -5.7 5 0 986.6 NA 0.0000 9999 1800 0 0 0
2019/06/21 17:51:00 BASE 1.85 175 2.42 175 -4.8 94 -5.6 5 0 986.6 NA 0.0000 9999 1740 0 0 0
2019/06/21 17:52:00 BASE 1.72 176 2.42 175 -4.8 94 -5.6 5 0 986.6 NA 0.0000 9999 1800 0 0 0
2019/06/21 17:53:00 BASE 1.54 172 2.42 175 -4.8 94 -5.6 5 0 986.6 NA 0.0000 9999 1710 0 0 0
2019/06/21 17:54:00 BASE 1.35 174 2.42 175 -4.7 94 -5.5 5 0 986.7 NA 0.0000 9999 1610 0 0 0
2019/06/21 17:55:00 BASE 1.20 173 2.42 175 -4.7 94 -5.5 5 0 986.7 NA 0.0000 9999 1570 0 0 0
2019/06/21 17:56:00 BASE 1.27 163 2.42 175 -4.6 94 -5.5 5 0 986.7 NA 0.0000 9999 1540 0 0 0
2019/06/21 17:57:00 BASE 0.97 153 2.06 176 -4.7 94 -5.5 5 0 986.7 NA 0.0000 9999 1670 0 0 0
2019/06/21 17:58:00 BASE 0.60 149 1.95 177 -4.7 94 -5.5 4 0 986.7 NA 0.0000 9999 1710 0 0 0
2019/06/21 17:59:00 BASE 0.75 150 1.95 177 -4.8 94 -5.6 4 0 986.7 NA 0.0000 9999 1640 0 0 0
2019/06/21 18:00:00 BASE 0.62 151 1.90 180 -4.8 94 -5.6 4 0 986.7 NA 0.0000 9999 1770 0 0 0
2019/06/21 18:01:00 BASE 0.24 145 1.75 169 -4.8 94 -5.6 4 0 986.7 NA 0.0000 9999 1840 0 0 0
2019/06/21 18:02:00 BASE 0.13 132 1.65 157 -4.8 94 -5.6 4 0 986.7 NA 0.0000 9999 1840 0 0 0
2019/06/21 18:03:00 BASE 0.45 133 1.65 157 -4.8 94 -5.6 4 0 986.7 NA 0.0000 9999 1770 0 0 0
2019/06/21 18:04:00 BASE 0.55 139 1.65 157 -4.8 94 -5.6 4 0 986.7 NA 0.0000 9999 1770 0 0 0
2019/06/21 18:05:00 BASE 0.27 139 1.65 157 -4.8 95 -5.5 3 0 986.7 NA 0.0000 9999 1740 0 0 0
2019/06/21 18:06:00 BASE 0.09 142 1.23 153 -4.7 95 -5.4 3 0 986.7 NA 0.0000 9999 1740 0 0 0
2019/06/21 18:07:00 BASE 0.00 141 1.23 153 -4.7 95 -5.4 3 0 986.7 NA 0.0000 9999 1710 0 0 0
2019/06/21 18:08:00 BASE 0.00 113 1.23 153 -4.7 95 -5.3 3 0 986.7 NA 0.0000 9999 1710 0 0 0
2019/06/21 18:09:00 BASE 0.00 64 1.23 153 -4.6 95 -5.3 3 0 986.7 NA 0.0000 9999 1710 0 0 0
2019/06/21 18:10:00 BASE 0.00 49 1.18 125 -4.6 95 -5.3 3 0 986.7 NA 0.0000 9999 1740 0 0 0
2019/06/21 18:11:00 BASE 0.00 48 1.18 125 -4.6 95 -5.3 3 0 986.7 NA 0.0000 9999 1740 0 0 0
2019/06/21 18:12:00 BASE 0.39 48 1.29 48 -4.6 94 -5.4 3 0 986.7 NA 0.0000 9999 1740 0 0 0
2019/06/21 18:13:00 BASE 1.18 48 1.90 46 -4.6 94 -5.4 3 0 986.7 NA 0.0000 9999 1670 0 0 0
2019/06/21 18:14:00 BASE 1.51 47 1.90 46 -4.6 94 -5.4 3 0 986.7 NA 0.0000 9999 1800 0 0 0
2019/06/21 18:15:00 BASE 1.66 58 2.21 74 -4.6 94 -5.4 3 0 986.7 NA 0.0000 9999 1740 0 0 0
2019/06/21 18:16:00 BASE 2.03 71 2.42 69 -4.6 94 -5.5 3 0 986.7 NA 0.0000 9999 1670 0 0 0
2019/06/21 18:17:00 BASE 2.20 69 2.42 69 -4.7 94 -5.5 3 0 986.7 NA 0.0000 9999 1770 0 0 0
2019/06/21 18:18:00 BASE 2.16 65 2.42 69 -4.7 94 -5.5 2 0 986.7 NA 0.0000 9999 1710 0 0 0
2019/06/21 18:19:00 BASE 1.91 65 2.42 69 -4.7 94 -5.5 2 0 986.7 NA 0.0000 9999 1640 0 0 0
2019/06/21 18:20:00 BASE 1.62 64 2.42 69 -4.7 94 -5.5 2 0 986.7 NA 0.0000 9999 1670 0 0 0
2019/06/21 18:21:00 BASE 1.55 61 2.42 69 -4.6 94 -5.5 2 0 986.7 NA 0.0000 9999 1640 0 0 0
2019/06/21 18:22:00 BASE 1.82 61 2.42 67 -4.6 94 -5.4 2 0 986.7 NA 0.0000 9999 1800 0 0 0
2019/06/21 18:23:00 BASE 1.76 68 2.42 67 -4.6 94 -5.4 2 0 986.7 NA 0.0000 9999 1740 0 0 0
2019/06/21 18:24:00 BASE 1.55 76 2.42 67 -4.6 94 -5.4 2 0 986.8 NA 0.0000 9999 1740 0 0 0
2019/06/21 18:25:00 BASE 1.72 85 2.42 67 -4.6 94 -5.4 2 0 986.8 NA 0.0000 9999 1610 0 0 0
2019/06/21 18:26:00 BASE 2.00 94 2.42 90 -4.6 94 -5.4 2 0 986.8 NA 0.0000 9999 1610 0 0 0
2019/06/21 18:27:00 BASE 2.28 103 2.78 103 -4.7 94 -5.5 2 0 986.8 NA 0.0000 9999 1640 0 0 0
2019/06/21 18:28:00 BASE 2.31 109 2.78 103 -4.7 94 -5.5 2 0 986.8 NA 0.0000 9999 1770 0 0 0
2019/06/21 18:29:00 BASE 2.05 105 2.78 103 -4.7 94 -5.5 2 0 986.8 NA 0.0000 9999 1710 0 0 0
2019/06/21 18:30:00 BASE 1.95 95 2.78 103 -4.7 94 -5.6 2 0 986.8 NA 0.0000 9999 1870 0 0 0
2019/06/21 18:31:00 BASE 1.95 83 2.78 103 -4.7 94 -5.5 2 0 986.8 NA 0.0000 9999 1610 2200 0 0
2019/06/21 18:32:00 BASE 1.95 77 2.78 103 -4.7 94 -5.5 2 0 986.8 NA 0.0000 9999 1570 2200 0 0
2019/06/21 18:33:00 BASE 2.31 76 2.78 78 -4.7 94 -5.5 2 0 986.8 NA 0.0000 9999 1940 0 0 0
2019/06/21 18:34:00 BASE 2.58 78 2.78 82 -4.7 94 -5.5 2 0 986.8 NA 0.0000 9999 1970 0 0 0
2019/06/21 18:35:00 BASE 2.90 83 3.65 85 -4.7 94 -5.5 2 0 986.8 NA 0.0000 9999 1970 0 0 0
2019/06/21 18:36:00 BASE 3.33 89 3.65 86 -4.7 94 -5.5 1 0 986.8 NA 0.0000 9999 1970 0 0 0
2019/06/21 18:37:00 BASE 3.57 93 4.12 91 -4.7 94 -5.5 1 0 986.9 NA 0.0000 9999 1840 0 0 0
2019/06/21 18:38:00 BASE 4.01 92 4.53 83 -4.7 94 -5.6 1 0 986.9 NA 0.0000 9999 1840 0 0 0
2019/06/21 18:39:00 BASE 4.23 96 5.04 94 -4.8 94 -5.6 1 0 986.9 NA 0.0000 9999 1940 0 0 0
2019/06/21 18:40:00 BASE 3.86 99 5.04 94 -4.8 94 -5.6 1 0 986.9 NA 0.0000 9999 1900 0 0 0
2019/06/21 18:41:00 BASE 3.42 98 5.04 94 -4.8 94 -5.6 1 0 987.0 NA 0.0000 9999 1710 0 0 0
2019/06/21 18:42:00 BASE 2.89 94 5.04 94 -4.8 94 -5.6 1 0 987.0 NA 0.0000 9999 1670 0 0 0
2019/06/21 18:43:00 BASE 2.45 82 5.04 94 -4.8 94 -5.5 1 0 987.0 NA 0.0000 9999 1670 0 0 0
2019/06/21 18:44:00 BASE 2.26 74 5.04 94 -4.7 94 -5.5 1 0 987.0 NA 0.0000 9999 1670 0 0 0
2019/06/21 18:45:00 BASE 2.35 83 5.04 94 -4.7 94 -5.5 1 0 987.0 NA 0.0000 9999 1610 0 0 0
2019/06/21 18:46:00 BASE 2.31 88 5.04 94 -4.6 94 -5.4 1 0 987.0 NA 0.0000 9999 1610 2200 0 0
2019/06/21 18:47:00 BASE 2.22 90 5.04 94 -4.6 94 -5.4 1 0 987.0 NA 0.0000 9999 2030 0 0 0
2019/06/21 18:48:00 BASE 2.41 108 5.04 94 -4.6 94 -5.4 1 0 987.0 NA 0.0000 9999 2030 0 0 0
2019/06/21 18:49:00 BASE 2.74 128 3.76 99 -4.6 94 -5.4 1 0 987.1 NA 0.0000 9999 1900 0 0 0
2019/06/21 18:50:00 BASE 3.05 135 3.70 137 -4.6 94 -5.4 1 0 987.1 NA 0.0000 9999 1670 0 0 0
2019/06/21 18:51:00 BASE 3.20 126 4.17 112 -4.6 94 -5.4 1 0 987.0 NA 0.0000 9999 1740 0 0 0
2019/06/21 18:52:00 BASE 3.48 116 4.48 120 -4.6 94 -5.4 1 0 987.1 NA 0.0000 9999 2170 0 0 0
2019/06/21 18:53:00 BASE 3.22 105 4.48 120 -4.6 94 -5.4 1 0 987.1 NA 0.0000 9999 2030 0 0 0
2019/06/21 18:54:00 BASE 2.71 91 4.48 120 -4.6 94 -5.4 1 0 987.1 NA 0.0000 9999 2200 0 0 0
2019/06/21 18:55:00 BASE 3.24 90 4.48 120 -4.6 94 -5.4 1 0 987.0 NA 0.0000 9999 1770 0 0 0
2019/06/21 18:56:00 BASE 3.73 89 4.48 120 -4.6 94 -5.4 1 0 987.1 NA 0.0000 9999 1670 0 0 0
2019/06/21 18:57:00 BASE 3.65 84 4.48 120 -4.6 94 -5.4 0 0 987.1 NA 0.0000 9999 1840 0 0 0
2019/06/21 18:58:00 BASE 3.63 78 4.48 120 -4.6 94 -5.4 0 0 987.1 NA 0.0000 9999 1740 0 0 0
2019/06/21 18:59:00 BASE 3.24 78 4.48 120 -4.6 94 -5.4 0 0 987.2 NA 0.0000 9999 1970 0 0 0
2019/06/21 19:00:00 BASE 2.92 81 4.48 120 -4.6 94 -5.4 0 0 987.2 NA 0.0000 9999 1800 0 0 0
2019/06/21 19:01:00 BASE 2.90 79 4.48 120 -4.6 94 -5.4 0 0 987.2 NA 0.0000 9999 2070 0 0 0
2019/06/21 19:02:00 BASE 2.91 77 4.22 80 -4.6 94 -5.4 0 0 987.2 NA 0.0000 9999 2170 0 0 0
2019/06/21 19:03:00 BASE 2.89 81 4.22 80 -4.6 94 -5.4 0 0 987.2 NA 0.0000 9999 2170 0 0 0
2019/06/21 19:04:00 BASE 2.87 88 4.22 80 -4.6 94 -5.4 0 0 987.2 NA 0.0000 9999 2000 0 0 0
2019/06/21 19:05:00 BASE 2.99 91 4.22 80 -4.6 94 -5.4 0 0 987.3 NA 0.0000 9999 1970 0 0 0
2019/06/21 19:06:00 BASE 2.97 93 4.22 80 -4.5 94 -5.4 0 0 987.3 NA 0.0000 9999 1900 0 0 0
2019/06/21 19:07:00 BASE 2.63 94 4.12 78 -4.5 94 -5.4 0 0 987.3 NA 0.0000 9999 1740 0 0 0
2019/06/21 19:08:00 BASE 1.99 91 3.55 93 -4.5 94 -5.4 0 0 987.3 NA 0.0000 9999 1740 0 0 0
2019/06/21 19:09:00 BASE 1.59 80 3.55 93 -4.5 94 -5.4 0 0 987.3 NA 0.0000 9999 1710 0 0 0
2019/06/21 19:10:00 BASE 1.88 77 3.55 93 -4.5 94 -5.4 0 0 987.3 NA 0.0000 9999 1670 0 0 0
2019/06/21 19:11:00 BASE 2.31 88 3.55 93 -4.5 94 -5.4 0 0 987.3 NA 0.0000 9999 2230 0 0 0
2019/06/21 19:12:00 BASE 2.40 90 3.55 93 -4.5 94 -5.4 0 0 987.3 NA 0.0000 9999 2030 0 0 0
2019/06/21 19:13:00 BASE 2.51 91 3.55 93 -4.5 94 -5.4 0 0 987.3 NA 0.0000 9999 1670 0 0 0
2019/06/21 19:14:00 BASE 2.42 98 3.55 93 -4.5 94 -5.4 0 0 987.3 NA 0.0000 9999 1710 0 0 0
2019/06/21 19:15:00 BASE 2.33 102 2.98 85 -4.5 93 -5.4 0 0 987.3 NA 0.0000 9999 1610 2330 0 0
2019/06/21 19:16:00 BASE 2.39 110 2.98 85 -4.5 93 -5.4 0 0 987.3 NA 0.0000 9999 1740 0 0 0
2019/06/21 19:17:00 BASE 2.47 112 2.98 85 -4.5 93 -5.5 0 0 987.4 NA 0.0000 9999 1710 0 0 0
2019/06/21 19:18:00 BASE 2.53 104 2.98 85 -4.6 93 -5.5 0 0 987.4 NA 0.0000 9999 1840 0 0 0
2019/06/21 19:19:00 BASE 2.51 98 2.98 85 -4.6 93 -5.6 0 0 987.4 NA 0.0000 9999 2590 0 0 0
2019/06/21 19:20:00 BASE 2.57 96 3.24 101 -4.7 93 -5.6 0 0 987.4 NA 0.0000 9999 2460 0 0 0
2019/06/21 19:21:00 BASE 2.66 92 3.24 101 -4.7 93 -5.6 0 0 987.4 NA 0.0000 9999 2330 0 0 0
2019/06/21 19:22:00 BASE 2.64 92 3.24 101 -4.6 93 -5.6 0 0 987.4 NA 0.0000 9999 1940 0 0 0
2019/06/21 19:23:00 BASE 2.44 96 3.24 101 -4.6 93 -5.5 0 0 987.4 NA 0.0000 9999 2000 0 0 0
2019/06/21 19:24:00 BASE 2.59 109 3.50 133 -4.6 93 -5.5 0 0 987.4 NA 0.0000 9999 2430 0 0 0
2019/06/21 19:25:00 BASE 2.63 130 3.50 133 -4.5 93 -5.5 0 0 987.4 NA 0.0000 9999 1670 2460 0 0
2019/06/21 19:26:00 BASE 2.95 147 3.96 150 -4.5 93 -5.5 0 0 987.4 NA 0.0000 9999 1740 2490 0 0
2019/06/21 19:27:00 BASE 2.89 151 3.96 150 -4.5 93 -5.4 0 0 987.4 NA 0.0000 9999 2030 2660 0 0
2019/06/21 19:28:00 BASE 2.26 152 3.96 150 -4.5 93 -5.4 0 0 987.4 NA 0.0000 9999 2200 0 0 0
2019/06/21 19:29:00 BASE 2.87 159 4.58 142 -4.4 93 -5.4 0 0 987.4 NA 0.0000 9999 2430 0 0 0
2019/06/21 19:30:00 BASE 4.03 149 5.04 138 -4.4 93 -5.3 0 0 987.5 NA 0.0000 9999 2360 0 0 0
2019/06/21 19:31:00 BASE 3.95 138 5.04 138 -4.3 93 -5.3 0 0 987.5 NA 0.0000 9999 2070 0 0 0
2019/06/21 19:32:00 BASE 3.35 132 5.04 138 -4.4 93 -5.3 0 0 987.6 NA 0.0000 9999 2030 0 0 0
2019/06/21 19:33:00 BASE 2.42 125 5.04 138 -4.4 93 -5.3 0 0 987.6 NA 0.0000 9999 2030 0 0 0
2019/06/21 19:34:00 BASE 1.38 114 5.04 138 -4.4 93 -5.3 0 0 987.6 NA 0.0000 9999 1800 0 0 0
2019/06/21 19:35:00 BASE 1.73 106 5.04 138 -4.4 93 -5.4 0 0 987.6 NA 0.0000 9999 1770 2260 0 0
2019/06/21 19:36:00 BASE 2.10 112 5.04 138 -4.4 93 -5.4 0 0 987.6 NA 0.0000 9999 1840 0 0 0
2019/06/21 19:37:00 BASE 2.30 121 5.04 138 -4.5 93 -5.4 0 0 987.6 NA 0.0000 9999 2070 0 0 0
2019/06/21 19:38:00 BASE 3.23 124 5.04 138 -4.5 93 -5.4 0 0 987.6 NA 0.0000 9999 2000 0 0 0
2019/06/21 19:39:00 BASE 4.26 136 6.17 131 -4.5 93 -5.4 0 0 987.6 NA 0.0000 9999 2130 0 0 0
2019/06/21 19:40:00 BASE 3.87 158 6.17 131 -4.4 93 -5.4 0 0 987.6 NA 0.0000 9999 1940 2490 0 0
2019/06/21 19:41:00 BASE 2.75 157 6.17 131 -4.4 93 -5.4 0 0 987.6 NA 0.0000 9999 2260 0 0 0
2019/06/21 19:42:00 BASE 2.19 154 6.17 131 -4.4 93 -5.3 0 0 987.7 NA 0.0000 9999 2400 0 0 0
2019/06/21 19:43:00 BASE 1.84 145 6.17 131 -4.3 93 -5.3 0 0 987.7 NA 0.0000 9999 2200 0 0 0
2019/06/21 19:44:00 BASE 2.24 125 6.17 131 -4.3 93 -5.3 0 0 987.7 NA 0.0000 9999 2200 0 0 0
2019/06/21 19:45:00 BASE 2.77 121 6.17 131 -4.3 93 -5.3 0 0 987.7 NA 0.0000 9999 2230 0 0 0
2019/06/21 19:46:00 BASE 2.88 125 6.17 131 -4.3 92 -5.4 0 0 987.7 NA 0.0000 9999 2130 0 0 0
2019/06/21 19:47:00 BASE 2.81 126 6.17 131 -4.3 92 -5.4 0 0 987.7 NA 0.0000 9999 2200 0 0 0
2019/06/21 19:48:00 BASE 2.66 140 6.17 131 -4.3 92 -5.5 0 0 987.8 NA 0.0000 9999 2100 0 0 0
2019/06/21 19:49:00 BASE 2.74 152 4.01 184 -4.3 91 -5.5 0 0 987.8 NA 0.0000 9999 2000 0 0 0
2019/06/21 19:50:00 BASE 2.60 145 3.45 143 -4.4 91 -5.6 0 0 987.8 NA 0.0000 9999 1970 0 0 0
2019/06/21 19:51:00 BASE 1.87 144 3.45 143 -4.3 91 -5.6 0 0 987.8 NA 0.0000 9999 1900 0 0 0
2019/06/21 19:52:00 BASE 0.68 154 3.45 143 -4.3 91 -5.6 0 0 987.8 NA 0.0000 9999 2260 0 0 0
2019/06/21 19:53:00 BASE 0.00 164 3.45 143 -4.3 91 -5.5 0 0 987.8 NA 0.0000 9999 2690 0 0 0
2019/06/21 19:54:00 BASE 0.00 165 3.45 143 -4.2 91 -5.5 0 0 987.8 NA 0.0000 9999 1940 2850 0 0
2019/06/21 19:55:00 BASE 0.61 168 3.45 143 -4.2 91 -5.5 0 0 987.8 NA 0.0000 9999 2070 2590 0 0
2019/06/21 19:56:00 BASE 1.33 181 3.19 144 -4.2 90 -5.5 0 0 987.8 NA 0.0000 9999 2300 0 0 0
2019/06/21 19:57:00 BASE 1.57 186 3.19 144 -4.2 90 -5.5 0 0 987.8 NA 0.0000 9999 2030 0 0 0
2019/06/21 19:58:00 BASE 1.80 182 3.19 144 -4.2 90 -5.6 0 0 987.8 NA 0.0000 9999 1840 0 0 0
2019/06/21 19:59:00 BASE 1.85 186 2.93 151 -4.2 90 -5.6 0 0 987.8 NA 0.0000 9999 1840 0 0 0
2019/06/21 20:00:00 BASE 1.67 183 2.88 190 -4.2 90 -5.6 0 0 987.8 NA 0.0000 9999 2330 0 0 0
2019/06/21 20:01:00 BASE 2.25 171 3.60 167 -4.2 90 -5.6 0 0 987.8 NA 0.0000 9999 1840 2330 0 0
2019/06/21 20:02:00 BASE 2.78 167 3.60 167 -4.2 90 -5.6 0 0 987.8 NA 0.0000 9999 2030 0 0 0
2019/06/21 20:03:00 BASE 2.82 174 3.60 167 -4.2 90 -5.6 0 0 987.8 NA 0.0000 9999 1970 0 0 0
2019/06/21 20:04:00 BASE 2.59 187 3.60 167 -4.2 90 -5.6 0 0 987.8 NA 0.0000 9999 2170 0 0 0
2019/06/21 20:05:00 BASE 2.10 194 3.60 167 -4.2 91 -5.5 0 0 987.8 NA 0.0000 9999 1840 0 0 0
2019/06/21 20:06:00 BASE 3.24 203 5.56 226 -4.2 91 -5.5 0 0 987.7 NA 0.0000 9999 1840 0 0 0
2019/06/21 20:07:00 BASE 3.96 226 5.56 226 -4.1 91 -5.4 0 0 987.8 NA 0.0000 9999 1840 0 0 0
2019/06/21 20:08:00 BASE 2.96 227 5.56 226 -4.1 91 -5.4 0 0 987.8 NA 0.0000 9999 1770 0 0 0
2019/06/21 20:09:00 BASE 2.82 204 5.56 226 -4.1 91 -5.4 0 0 987.8 NA 0.0000 9999 1800 0 0 0
2019/06/21 20:10:00 BASE 3.44 198 5.56 226 -4.1 90 -5.4 0 0 987.8 NA 0.0000 9999 1770 0 0 0
2019/06/21 20:11:00 BASE 3.84 207 5.56 226 -4.1 90 -5.5 0 0 987.8 NA 0.0000 9999 1770 0 0 0
2019/06/21 20:12:00 BASE 5.86 219 10.24 222 -4.0 90 -5.5 0 0 987.8 NA 0.0000 9999 1770 0 0 0
2019/06/21 20:13:00 BASE 7.85 215 10.24 222 -4.0 89 -5.5 0 0 987.8 NA 0.0000 9999 1970 0 0 0
2019/06/21 20:14:00 BASE 9.02 212 12.04 209 -3.9 89 -5.5 0 0 987.8 NA 0.0000 9999 2170 0 0 0
2019/06/21 20:15:00 BASE 9.41 216 12.04 209 -3.9 89 -5.5 0 0 987.8 NA 0.0000 9999 2200 0 0 0
2019/06/21 20:16:00 BASE 8.29 214 12.04 209 -3.9 89 -5.5 0 0 987.8 NA 0.0000 9999 2230 0 0 0
2019/06/21 20:17:00 BASE 8.78 214 12.04 209 -3.9 89 -5.5 0 0 987.8 NA 0.0000 9999 2200 0 0 0
2019/06/21 20:18:00 BASE 9.90 216 12.04 209 -3.9 89 -5.5 0 0 987.7 NA 0.0000 9999 2300 0 0 0
2019/06/21 20:19:00 BASE 10.20 213 12.04 209 -3.9 89 -5.5 0 0 987.8 NA 0.0000 9999 2030 0 0 0
2019/06/21 20:20:00 BASE 10.26 210 12.04 209 -3.9 88 -5.6 0 0 987.8 NA 0.0000 9999 2170 0 0 0
2019/06/21 20:21:00 BASE 9.81 209 12.04 209 -3.9 88 -5.6 0 0 987.9 NA 0.0000 9999 2200 0 0 0
2019/06/21 20:22:00 BASE 9.05 215 12.04 209 -3.9 88 -5.6 0 0 987.8 NA 0.0000 9999 2200 0 0 0
2019/06/21 20:23:00 BASE 8.16 223 12.04 209 -4.0 88 -5.7 0 0 987.8 NA 0.0000 9999 2170 0 0 0
2019/06/21 20:24:00 BASE 7.54 220 11.32 206 -4.0 88 -5.7 0 0 987.9 NA 0.0000 9999 2230 0 0 0
2019/06/21 20:25:00 BASE 8.38 214 11.32 206 -4.0 88 -5.7 0 0 987.8 NA 0.0000 9999 1970 0 0 0
2019/06/21 20:26:00 BASE 9.61 205 11.32 206 -4.0 88 -5.7 0 0 987.9 NA 0.0000 9999 1940 0 0 0
2019/06/21 20:27:00 BASE 9.41 198 11.32 206 -4.0 88 -5.7 0 0 987.9 NA 0.0000 9999 1900 0 0 0
2019/06/21 20:28:00 BASE 8.51 200 11.32 206 -4.0 88 -5.7 0 0 987.9 NA 0.0000 9999 1940 0 0 0
2019/06/21 20:29:00 BASE 7.47 207 11.01 201 -4.0 88 -5.7 0 0 987.9 NA 0.0000 9999 1970 0 0 0
2019/06/21 20:30:00 BASE 7.83 211 11.47 231 -4.0 88 -5.7 0 0 987.9 NA 0.0000 9999 1870 0 0 0
2019/06/21 20:31:00 BASE 9.16 222 11.99 236 -4.0 88 -5.7 0 0 987.9 NA 0.0000 9999 1940 0 0 0
2019/06/21 20:32:00 BASE 9.33 234 11.99 236 -4.0 88 -5.7 0 0 987.9 NA 0.0000 9999 1900 0 0 0
2019/06/21 20:33:00 BASE 8.27 240 11.99 236 -4.0 88 -5.7 0 0 987.9 NA 0.0000 9999 1970 0 0 0
2019/06/21 20:34:00 BASE 6.54 240 11.99 236 -4.0 88 -5.7 0 0 987.9 NA 0.0000 9999 2070 0 0 0
2019/06/21 20:35:00 BASE 7.07 227 11.99 236 -4.0 88 -5.7 0 0 987.9 NA 0.0000 9999 2100 0 0 0
2019/06/21 20:36:00 BASE 8.98 223 11.99 236 -4.1 88 -5.8 0 0 987.9 NA 0.0000 9999 2170 0 0 0
2019/06/21 20:37:00 BASE 9.63 226 11.99 236 -4.1 88 -5.8 0 0 987.9 NA 0.0000 9999 2130 0 0 0
2019/06/21 20:38:00 BASE 8.59 223 11.99 236 -4.1 87 -5.9 0 0 988.0 NA 0.0000 9999 1970 0 0 0
2019/06/21 20:39:00 BASE 7.49 216 11.99 236 -4.1 87 -5.9 0 0 988.0 NA 0.0000 9999 2100 2690 0 0
2019/06/21 20:40:00 BASE 7.04 214 11.99 236 -4.1 87 -5.9 0 0 988.0 NA 0.0000 9999 1800 0 0 0
2019/06/21 20:41:00 BASE 5.60 217 11.27 228 -4.1 87 -5.9 0 0 988.0 NA 0.0000 9999 1870 0 0 0
2019/06/21 20:42:00 BASE 4.29 214 11.27 228 -4.1 87 -5.9 0 0 988.0 NA 0.0000 9999 1840 0 0 0
2019/06/21 20:43:00 BASE 3.79 210 11.27 228 -4.1 87 -6.0 0 0 988.0 NA 0.0000 9999 1870 0 0 0
2019/06/21 20:44:00 BASE 3.55 223 11.27 228 -4.1 87 -6.0 0 0 988.0 NA 0.0000 9999 1840 0 0 0
2019/06/21 20:45:00 BASE 4.18 228 11.27 228 -4.1 86 -6.0 0 0 988.0 NA 0.0000 9999 1800 0 0 0
2019/06/21 20:46:00 BASE 5.50 219 11.11 222 -4.1 86 -6.0 0 0 988.0 NA 0.0000 9999 1770 0 0 0
2019/06/21 20:47:00 BASE 6.06 209 8.28 217 -4.1 86 -6.1 0 0 988.1 NA 0.0000 9999 1800 0 0 0
2019/06/21 20:48:00 BASE 6.09 198 8.28 217 -4.0 86 -6.0 0 0 988.1 NA 0.0000 9999 1800 0 0 0
2019/06/21 20:49:00 BASE 6.51 200 8.39 213 -4.0 86 -6.0 0 0 988.1 NA 0.0000 9999 1740 0 0 0
2019/06/21 20:50:00 BASE 7.44 208 8.85 208 -4.0 86 -6.0 0 0 988.1 NA 0.0000 9999 1800 0 0 0
2019/06/21 20:51:00 BASE 7.18 206 8.85 208 -4.0 86 -6.0 0 0 988.2 NA 0.0000 9999 1900 0 0 0
2019/06/21 20:52:00 BASE 5.45 210 8.85 208 -4.1 86 -6.1 0 0 988.2 NA 0.0000 9999 1900 0 0 0
2019/06/21 20:53:00 BASE 4.53 213 8.85 208 -4.1 86 -6.1 0 0 988.2 NA 0.0000 9999 2000 0 0 0
2019/06/21 20:54:00 BASE 4.55 206 8.85 208 -4.1 86 -6.1 0 0 988.2 NA 0.0000 9999 1970 0 0 0
2019/06/21 20:55:00 BASE 5.27 195 8.85 208 -4.1 86 -6.1 0 0 988.2 NA 0.0000 9999 1900 0 0 0
2019/06/21 20:56:00 BASE 6.71 188 8.85 208 -4.1 86 -6.1 0 0 988.1 NA 0.0000 9999 2000 0 0 0
2019/06/21 20:57:00 BASE 7.27 186 8.85 208 -4.1 86 -6.1 0 0 988.2 NA 0.0000 9999 1970 0 0 0
2019/06/21 20:58:00 BASE 6.37 191 8.85 208 -4.1 86 -6.0 0 0 988.2 NA 0.0000 9999 1900 0 0 0
2019/06/21 20:59:00 BASE 6.48 195 8.85 208 -4.1 87 -6.0 0 0 988.2 NA 0.0000 9999 1900 0 0 0
2019/06/21 21:00:00 BASE 7.28 191 8.54 190 -4.1 87 -6.0 0 0 988.2 NA 0.0000 9999 1940 0 0 0
2019/06/21 21:01:00 BASE 8.03 193 9.98 200 -4.1 87 -5.9 0 0 988.2 NA 0.0000 9999 2100 0 0 0
2019/06/21 21:02:00 BASE 8.59 199 9.98 200 -4.1 87 -5.9 0 0 988.2 NA 0.0000 9999 2030 0 0 0
2019/06/21 21:03:00 BASE 7.80 197 9.98 200 -4.1 88 -5.9 0 0 988.2 NA 0.0000 9999 2130 0 0 0
2019/06/21 21:04:00 BASE 6.82 194 9.98 200 -4.1 88 -5.9 0 0 988.2 NA 0.0000 9999 2070 0 0 0
2019/06/21 21:05:00 BASE 6.02 192 9.98 200 -4.1 88 -5.9 0 0 988.2 NA 0.0000 9999 2070 0 0 0
2019/06/21 21:06:00 BASE 5.76 193 9.98 200 -4.1 87 -5.9 0 0 988.2 NA 0.0000 9999 2170 0 0 0
2019/06/21 21:07:00 BASE 6.83 190 9.98 200 -4.1 87 -5.9 0 0 988.2 NA 0.0000 9999 1970 0 0 0
2019/06/21 21:08:00 BASE 7.73 187 9.98 200 -4.1 87 -6.0 0 0 988.2 NA 0.0000 9999 2030 0 0 0
2019/06/21 21:09:00 BASE 7.44 187 9.98 200 -4.1 87 -6.0 0 0 988.2 NA 0.0000 9999 2000 0 0 0
2019/06/21 21:10:00 BASE 7.57 187 9.98 200 -4.2 87 -6.0 0 0 988.2 NA 0.0000 9999 2100 0 0 0
2019/06/21 21:11:00 BASE 7.99 187 8.95 198 -4.2 87 -5.9 0 0 988.2 NA 0.0000 9999 1970 0 0 0
2019/06/21 21:12:00 BASE 8.52 191 10.03 194 -4.2 88 -5.9 0 0 988.2 NA 0.0000 9999 1970 0 0 0
2019/06/21 21:13:00 BASE 8.53 199 10.03 194 -4.2 88 -5.9 0 0 988.2 NA 0.0000 9999 1900 0 0 0
2019/06/21 21:14:00 BASE 7.40 204 10.03 194 -4.2 88 -5.9 0 0 988.2 NA 0.0000 9999 1900 0 0 0
2019/06/21 21:15:00 BASE 6.35 201 10.03 194 -4.1 88 -5.8 0 0 988.2 NA 0.0000 9999 1800 0 0 0
2019/06/21 21:16:00 BASE 6.04 199 10.03 194 -4.1 88 -5.8 0 0 988.2 NA 0.0000 9999 1870 0 0 0
2019/06/21 21:17:00 BASE 5.85 205 10.03 194 -4.1 88 -5.8 0 0 988.2 NA 0.0000 9999 1800 0 0 0
2019/06/21 21:18:00 BASE 5.49 216 10.03 194 -4.1 88 -5.8 0 0 988.2 NA 0.0000 9999 1900 0 0 0
2019/06/21 21:19:00 BASE 4.95 217 10.03 194 -4.1 88 -5.8 0 0 988.2 NA 0.0000 9999 1870 0 0 0
2019/06/21 21:20:00 BASE 4.26 214 10.03 194 -4.1 88 -5.8 0 0 988.2 NA 0.0000 9999 1800 0 0 0
2019/06/21 21:21:00 BASE 3.91 211 10.03 194 -4.1 88 -5.8 0 0 988.2 NA 0.0000 9999 1940 0 0 0
2019/06/21 21:22:00 BASE 3.97 207 9.16 200 -4.1 88 -5.9 0 0 988.3 NA 0.0000 9999 1970 0 0 0
2019/06/21 21:23:00 BASE 4.44 204 7.72 214 -4.1 87 -5.9 0 0 988.3 NA 0.0000 9999 1900 2460 0 0
2019/06/21 21:24:00 BASE 5.63 201 7.51 197 -4.1 87 -5.9 0 0 988.3 NA 0.0000 9999 1940 0 0 0
2019/06/21 21:25:00 BASE 5.38 201 7.51 197 -4.1 87 -6.0 0 0 988.3 NA 0.0000 9999 1970 0 0 0
2019/06/21 21:26:00 BASE 4.61 204 7.25 197 -4.1 86 -6.0 0 0 988.3 NA 0.0000 9999 1870 0 0 0
2019/06/21 21:27:00 BASE 5.04 205 7.25 197 -4.1 86 -6.1 0 0 988.3 NA 0.0000 9999 1800 0 0 0
2019/06/21 21:28:00 BASE 5.84 200 7.41 200 -4.1 86 -6.1 0 0 988.3 NA 0.0000 9999 1770 0 0 0
2019/06/21 21:29:00 BASE 6.72 197 8.33 198 -4.1 86 -6.1 0 0 988.4 NA 0.0000 9999 1800 0 0 0
2019/06/21 21:30:00 BASE 6.93 204 8.39 208 -4.2 86 -6.1 0 0 988.3 NA 0.0000 9999 2030 0 0 0
2019/06/21 21:31:00 BASE 6.90 213 8.39 208 -4.1 87 -6.0 0 0 988.3 NA 0.0000 9999 2230 0 0 0
2019/06/21 21:32:00 BASE 6.44 204 8.39 208 -4.2 87 -6.0 0 0 988.4 NA 0.0000 9999 2260 0 0 0
2019/06/21 21:33:00 BASE 6.14 192 8.39 208 -4.2 87 -6.0 0 0 988.4 NA 0.0000 9999 2430 0 0 0
2019/06/21 21:34:00 BASE 5.83 194 8.39 208 -4.2 87 -6.0 0 0 988.4 NA 0.0000 9999 2400 0 0 0
2019/06/21 21:35:00 BASE 5.19 196 8.39 208 -4.2 87 -6.0 0 0 988.4 NA 0.0000 9999 2590 0 0 0
2019/06/21 21:36:00 BASE 4.78 195 8.39 208 -4.2 87 -6.0 0 0 988.4 NA 0.0000 9999 2430 0 0 0
2019/06/21 21:37:00 BASE 6.06 198 8.39 209 -4.2 87 -6.0 0 0 988.4 NA 0.0000 9999 2430 0 0 0
2019/06/21 21:38:00 BASE 7.72 201 8.39 207 -4.2 87 -6.0 0 0 988.4 NA 0.0000 9999 2200 0 0 0
2019/06/21 21:39:00 BASE 7.34 202 8.39 207 -4.2 87 -6.0 0 0 988.5 NA 0.0000 9999 2070 0 0 0
2019/06/21 21:40:00 BASE 6.83 202 8.39 207 -4.2 87 -6.0 0 0 988.5 NA 0.0000 9999 2000 0 0 0
2019/06/21 21:41:00 BASE 6.99 197 8.39 207 -4.2 88 -6.0 0 0 988.5 NA 0.0000 9999 1900 0 0 0
2019/06/21 21:42:00 BASE 6.69 189 8.39 207 -4.2 88 -5.9 0 0 988.5 NA 0.0000 9999 2130 0 0 0
2019/06/21 21:43:00 BASE 5.84 190 8.39 207 -4.2 88 -5.9 0 0 988.5 NA 0.0000 9999 2170 0 0 0
2019/06/21 21:44:00 BASE 4.90 203 8.39 207 -4.2 88 -5.9 0 0 988.5 NA 0.0000 9999 2070 0 0 0
2019/06/21 21:45:00 BASE 4.84 211 8.39 207 -4.2 88 -5.8 0 0 988.5 NA 0.0000 9999 1970 0 0 0
2019/06/21 21:46:00 BASE 5.09 204 8.39 207 -4.2 89 -5.8 0 0 988.5 NA 0.0000 9999 1970 0 0 0
2019/06/21 21:47:00 BASE 4.88 198 8.39 207 -4.2 89 -5.8 0 0 988.5 NA 0.0000 9999 1900 0 0 0
2019/06/21 21:48:00 BASE 4.22 197 7.87 204 -4.2 89 -5.7 0 0 988.5 NA 0.0000 9999 1940 0 0 0
2019/06/21 21:49:00 BASE 3.40 192 7.72 195 -4.2 89 -5.8 0 0 988.5 NA 0.0000 9999 2000 0 0 0
2019/06/21 21:50:00 BASE 2.73 194 7.72 195 -4.2 89 -5.8 0 0 988.5 NA 0.0000 9999 1970 0 0 0
2019/06/21 21:51:00 BASE 2.19 197 7.25 183 -4.3 89 -5.8 0 0 988.5 NA 0.0000 9999 2000 0 0 0
2019/06/21 21:52:00 BASE 2.31 197 6.17 191 -4.3 89 -5.8 0 0 988.5 NA 0.0000 9999 2070 0 0 0
2019/06/21 21:53:00 BASE 2.65 197 5.66 213 -4.3 89 -5.8 0 0 988.5 NA 0.0000 9999 2100 0 0 0
2019/06/21 21:54:00 BASE 2.82 188 5.66 213 -4.3 89 -5.8 0 0 988.5 NA 0.0000 9999 2170 0 0 0
2019/06/21 21:55:00 BASE 2.39 172 5.45 195 -4.2 89 -5.8 0 0 988.5 NA 0.0000 9999 2130 0 0 0
2019/06/21 21:56:00 BASE 1.67 164 5.45 195 -4.2 89 -5.8 0 0 988.5 NA 0.0000 9999 2170 0 0 0
2019/06/21 21:57:00 BASE 1.08 154 4.12 202 -4.2 89 -5.8 0 0 988.5 NA 0.0000 9999 2260 0 0 0
2019/06/21 21:58:00 BASE 1.00 153 3.45 189 -4.2 89 -5.8 0 0 988.5 NA 0.0000 9999 2130 0 0 0
2019/06/21 21:59:00 BASE 2.03 175 3.45 189 -4.2 88 -5.8 0 0 988.5 NA 0.0000 9999 2430 0 0 0
2019/06/21 22:00:00 BASE 2.76 193 4.01 202 -4.2 88 -5.9 0 0 988.5 NA 0.0000 9999 2400 0 0 0
2019/06/21 22:01:00 BASE 3.38 197 4.32 204 -4.2 88 -5.9 0 0 988.5 NA 0.0000 9999 2330 0 0 0
2019/06/21 22:02:00 BASE 4.08 187 5.14 183 -4.2 88 -5.9 0 0 988.5 NA 0.0000 9999 1970 0 0 0
2019/06/21 22:03:00 BASE 4.61 185 5.66 188 -4.2 88 -5.9 0 0 988.5 NA 0.0000 9999 2170 0 0 0
2019/06/21 22:04:00 BASE 4.85 191 5.66 188 -4.2 88 -5.9 0 0 988.5 NA 0.0000 9999 2100 0 0 0
2019/06/21 22:05:00 BASE 4.55 187 5.66 188 -4.2 88 -5.9 0 0 988.5 NA 0.0000 9999 1970 0 0 0
2019/06/21 22:06:00 BASE 4.75 185 5.66 188 -4.2 88 -5.9 0 0 988.5 NA 0.0000 9999 2200 0 0 0
2019/06/21 22:07:00 BASE 5.06 190 5.66 188 -4.3 88 -5.9 0 0 988.5 NA 0.0000 9999 2230 0 0 0
2019/06/21 22:08:00 BASE 4.49 203 5.66 188 -4.3 88 -5.9 0 0 988.5 NA 0.0000 9999 2260 0 0 0
2019/06/21 22:09:00 BASE 3.78 196 5.66 188 -4.2 88 -5.9 0 0 988.6 NA 0.0000 9999 2170 0 0 0
2019/06/21 22:10:00 BASE 3.70 175 5.66 188 -4.2 88 -5.9 0 0 988.6 NA 0.0000 9999 2130 0 0 0
2019/06/21 22:11:00 BASE 3.76 176 5.66 188 -4.3 88 -6.0 0 0 988.7 NA 0.0000 9999 2170 0 0 0
2019/06/21 22:12:00 BASE 3.66 183 5.66 188 -4.3 88 -5.9 0 0 988.7 NA 0.0000 9999 2070 0 0 0
2019/06/21 22:13:00 BASE 3.30 184 5.61 200 -4.3 88 -5.9 0 0 988.7 NA 0.0000 9999 2030 0 0 0
2019/06/21 22:14:00 BASE 3.01 195 5.61 200 -4.3 89 -5.9 0 0 988.7 NA 0.0000 9999 1970 0 0 0
2019/06/21 22:15:00 BASE 2.53 201 5.61 200 -4.3 89 -5.9 0 0 988.7 NA 0.0000 9999 2030 0 0 0
2019/06/21 22:16:00 BASE 2.25 185 5.61 200 -4.3 89 -5.8 0 0 988.7 NA 0.0000 9999 2170 0 0 0
2019/06/21 22:17:00 BASE 2.71 173 4.84 201 -4.2 89 -5.8 0 0 988.7 NA 0.0000 9999 2170 0 0 0
2019/06/21 22:18:00 BASE 2.96 169 4.22 176 -4.2 89 -5.8 0 0 988.7 NA 0.0000 9999 2170 0 0 0
2019/06/21 22:19:00 BASE 3.02 172 4.22 176 -4.2 89 -5.8 0 0 988.7 NA 0.0000 9999 2200 0 0 0
2019/06/21 22:20:00 BASE 2.73 175 4.01 191 -4.2 88 -5.8 0 0 988.7 NA 0.0000 9999 2200 0 0 0
2019/06/21 22:21:00 BASE 2.70 163 4.01 191 -4.2 88 -5.9 0 0 988.7 NA 0.0000 9999 2230 0 0 0
2019/06/21 22:22:00 BASE 3.12 159 4.06 163 -4.2 88 -5.9 0 0 988.7 NA 0.0000 9999 2200 0 0 0
2019/06/21 22:23:00 BASE 3.59 163 4.12 160 -4.2 88 -5.9 0 0 988.7 NA 0.0000 9999 2200 0 0 0
2019/06/21 22:24:00 BASE 3.71 160 4.12 160 -4.2 88 -5.9 0 0 988.7 NA 0.0000 9999 2260 0 0 0
2019/06/21 22:25:00 BASE 3.31 162 4.12 160 -4.3 88 -5.9 0 0 988.7 NA 0.0000 9999 1870 0 0 0
2019/06/21 22:26:00 BASE 3.35 166 4.12 160 -4.3 89 -5.9 0 0 988.7 NA 0.0000 9999 1900 0 0 0
2019/06/21 22:27:00 BASE 4.28 173 6.22 184 -4.3 89 -5.9 0 0 988.7 NA 0.0000 9999 1870 0 0 0
2019/06/21 22:28:00 BASE 5.15 183 6.22 184 -4.3 89 -5.8 0 0 988.7 NA 0.0000 9999 1870 0 0 0
2019/06/21 22:29:00 BASE 5.65 189 6.58 196 -4.3 89 -5.8 0 0 988.7 NA 0.0000 9999 1970 0 0 0
2019/06/21 22:30:00 BASE 5.89 187 6.74 179 -4.3 90 -5.7 0 0 988.7 NA 0.0000 9999 1970 0 0 0
2019/06/21 22:31:00 BASE 5.85 179 6.74 179 -4.2 90 -5.7 0 0 988.7 NA 0.0000 9999 2000 0 0 0
2019/06/21 22:32:00 BASE 6.02 176 6.74 179 -4.2 90 -5.6 0 0 988.7 NA 0.0000 9999 1970 0 0 0
2019/06/21 22:33:00 BASE 6.10 184 6.74 201 -4.2 90 -5.6 0 0 988.7 NA 0.0000 9999 2070 0 0 0
2019/06/21 22:34:00 BASE 5.74 196 6.94 200 -4.3 90 -5.6 0 0 988.7 NA 0.0000 9999 2130 0 0 0
2019/06/21 22:35:00 BASE 5.78 195 6.94 200 -4.3 91 -5.6 0 0 988.7 NA 0.0000 9999 2070 0 0 0
2019/06/21 22:36:00 BASE 5.62 191 6.94 200 -4.3 91 -5.6 0 0 988.7 NA 0.0000 9999 2300 0 0 0
2019/06/21 22:37:00 BASE 4.73 190 6.94 200 -4.3 91 -5.5 0 0 988.7 NA 0.0000 9999 2130 0 0 0
2019/06/21 22:38:00 BASE 4.92 193 6.94 200 -4.3 91 -5.5 0 0 988.7 NA 0.0000 9999 2260 0 0 0
2019/06/21 22:39:00 BASE 5.09 199 6.94 200 -4.3 91 -5.5 0 0 988.7 NA 0.0000 9999 2100 0 0 0
2019/06/21 22:40:00 BASE 4.81 201 6.94 200 -4.3 91 -5.6 0 0 988.7 NA 0.0000 9999 2170 0 0 0
2019/06/21 22:41:00 BASE 5.63 196 6.94 200 -4.2 90 -5.6 0 0 988.7 NA 0.0000 9999 2330 0 0 0
2019/06/21 22:42:00 BASE 6.12 191 6.94 200 -4.2 90 -5.6 0 0 988.7 NA 0.0000 9999 2490 0 0 0
2019/06/21 22:43:00 BASE 5.80 187 6.94 200 -4.2 89 -5.7 0 0 988.7 NA 0.0000 9999 2330 0 0 0
2019/06/21 22:44:00 BASE 5.75 182 6.89 194 -4.2 89 -5.7 0 0 988.7 NA 0.0000 9999 2230 0 0 0
2019/06/21 22:45:00 BASE 6.15 191 7.20 199 -4.2 89 -5.7 0 0 988.7 NA 0.0000 9999 2230 0 0 0
2019/06/21 22:46:00 BASE 6.15 204 7.20 199 -4.2 89 -5.7 0 0 988.7 NA 0.0000 9999 2100 0 0 0
2019/06/21 22:47:00 BASE 5.54 207 7.20 199 -4.2 89 -5.7 0 0 988.7 NA 0.0000 9999 2030 0 0 0
2019/06/21 22:48:00 BASE 4.83 209 7.20 199 -4.2 90 -5.7 0 0 988.7 NA 0.0000 9999 2130 0 0 0
2019/06/21 22:49:00 BASE 4.62 208 7.20 199 -4.2 90 -5.7 0 0 988.7 NA 0.0000 9999 2200 0 0 0
2019/06/21 22:50:00 BASE 4.45 203 7.20 199 -4.2 90 -5.7 0 0 988.7 NA 0.0000 9999 2230 0 0 0
2019/06/21 22:51:00 BASE 3.61 204 7.20 199 -4.2 89 -5.7 0 0 988.7 NA 0.0000 9999 2230 0 0 0
2019/06/21 22:52:00 BASE 3.33 210 7.20 199 -4.2 89 -5.7 0 0 988.7 NA 0.0000 9999 2130 0 0 0
2019/06/21 22:53:00 BASE 3.58 211 7.20 199 -4.2 89 -5.8 0 0 988.7 NA 0.0000 9999 2000 0 0 0
2019/06/21 22:54:00 BASE 4.20 210 7.20 199 -4.2 89 -5.8 0 0 988.7 NA 0.0000 9999 2000 0 0 0
2019/06/21 22:55:00 BASE 5.06 222 6.28 234 -4.2 89 -5.8 0 0 988.7 NA 0.0000 9999 2130 0 0 0
2019/06/21 22:56:00 BASE 5.08 232 6.28 234 -4.2 88 -5.8 0 0 988.7 NA 0.0000 9999 2100 0 0 0
2019/06/21 22:57:00 BASE 4.83 214 6.38 209 -4.2 88 -5.8 0 0 988.8 NA 0.0000 9999 1900 0 0 0
2019/06/21 22:58:00 BASE 5.05 181 6.64 166 -4.2 88 -5.8 0 0 988.8 NA 0.0000 9999 1800 0 0 0
2019/06/21 22:59:00 BASE 5.56 167 6.64 166 -4.2 88 -5.8 0 0 988.9 NA 0.0000 9999 2200 0 0 0
2019/06/21 23:00:00 BASE 5.24 169 6.64 166 -4.2 88 -5.8 0 0 988.9 NA 0.0000 9999 2170 0 0 0
2019/06/21 23:01:00 BASE 4.71 168 6.64 166 -4.2 89 -5.8 0 0 988.9 NA 0.0000 9999 2170 0 0 0
2019/06/21 23:02:00 BASE 5.26 168 6.64 166 -4.3 89 -5.8 0 0 988.9 NA 0.0000 9999 2260 0 0 0
2019/06/21 23:03:00 BASE 5.84 173 7.25 189 -4.3 90 -5.7 0 0 989.0 NA 0.0000 9999 1940 0 0 0
2019/06/21 23:04:00 BASE 6.48 184 8.39 193 -4.3 90 -5.7 0 0 988.9 NA 0.0000 9999 1940 0 0 0
2019/06/21 23:05:00 BASE 6.85 191 8.39 193 -4.3 91 -5.6 0 0 988.9 NA 0.0000 9999 2230 0 0 0
2019/06/21 23:06:00 BASE 6.82 187 8.39 193 -4.4 91 -5.6 0 0 989.0 NA 0.0000 9999 2260 0 0 0
2019/06/21 23:07:00 BASE 6.27 181 8.39 193 -4.4 91 -5.7 0 0 989.0 NA 0.0000 9999 2230 0 0 0
2019/06/21 23:08:00 BASE 5.69 179 8.39 193 -4.4 91 -5.7 0 0 989.0 NA 0.0000 9999 2260 0 0 0
2019/06/21 23:09:00 BASE 5.82 185 8.39 193 -4.4 90 -5.8 0 0 989.0 NA 0.0000 9999 2230 0 0 0
2019/06/21 23:10:00 BASE 5.02 181 8.39 193 -4.4 90 -5.9 0 0 989.0 NA 0.0000 9999 2260 0 0 0
2019/06/21 23:11:00 BASE 5.27 178 8.39 193 -4.4 89 -5.9 0 0 989.0 NA 0.0000 9999 2260 0 0 0
2019/06/21 23:12:00 BASE 6.11 183 8.39 193 -4.3 89 -5.9 0 0 989.0 NA 0.0000 9999 2300 0 0 0
2019/06/21 23:13:00 BASE 5.86 186 8.39 193 -4.3 88 -6.0 0 0 989.0 NA 0.0000 9999 2300 0 0 0
2019/06/21 23:14:00 BASE 5.91 196 7.97 189 -4.3 88 -6.0 0 0 989.0 NA 0.0000 9999 2360 0 0 0
2019/06/21 23:15:00 BASE 5.50 199 7.82 220 -4.3 88 -6.0 0 0 989.0 NA 0.0000 9999 2330 0 0 0
2019/06/21 23:16:00 BASE 4.70 190 7.82 220 -4.3 89 -5.9 0 0 989.0 NA 0.0000 9999 2300 0 0 0
2019/06/21 23:17:00 BASE 4.58 183 7.82 220 -4.3 89 -5.9 0 0 989.0 NA 0.0000 9999 2200 0 0 0
2019/06/21 23:18:00 BASE 4.44 184 7.82 220 -4.3 89 -5.9 0 0 989.1 NA 0.0000 9999 2230 0 0 0
2019/06/21 23:19:00 BASE 3.81 181 7.82 220 -4.3 89 -5.9 0 0 989.0 NA 0.0000 9999 2130 0 0 0
2019/06/21 23:20:00 BASE 3.15 164 7.82 220 -4.3 89 -5.9 0 0 989.1 NA 0.0000 9999 2200 0 0 0
2019/06/21 23:21:00 BASE 2.65 147 7.82 220 -4.4 89 -5.8 0 0 989.1 NA 0.0000 9999 2170 0 0 0
2019/06/21 23:22:00 BASE 2.71 142 7.82 220 -4.4 90 -5.8 0 0 989.1 NA 0.0000 9999 2200 0 0 0
2019/06/21 23:23:00 BASE 2.95 153 7.82 220 -4.4 90 -5.8 0 0 989.1 NA 0.0000 9999 2200 0 0 0
2019/06/21 23:24:00 BASE 2.93 156 6.69 193 -4.4 90 -5.8 0 0 989.1 NA 0.0000 9999 2170 0 0 0
2019/06/21 23:25:00 BASE 2.45 147 5.14 181 -4.4 90 -5.8 0 0 989.0 NA 0.0000 9999 2170 0 0 0
2019/06/21 23:26:00 BASE 1.71 143 5.14 181 -4.5 90 -5.8 0 0 989.0 NA 0.0000 9999 2100 0 0 0
2019/06/21 23:27:00 BASE 1.52 140 4.78 188 -4.5 91 -5.8 0 0 989.0 NA 0.0000 9999 2100 0 0 0
2019/06/21 23:28:00 BASE 1.49 132 3.91 176 -4.5 91 -5.8 0 0 989.1 NA 0.0000 9999 2100 0 0 0
2019/06/21 23:29:00 BASE 2.20 124 3.81 131 -4.5 91 -5.7 0 0 989.1 NA 0.0000 9999 2070 0 0 0
2019/06/21 23:30:00 BASE 2.99 138 3.81 131 -4.5 91 -5.7 0 0 989.1 NA 0.0000 9999 1970 0 0 0
2019/06/21 23:31:00 BASE 2.85 153 3.81 131 -4.5 91 -5.7 0 0 989.1 NA 0.0000 9999 1900 0 0 0
2019/06/21 23:32:00 BASE 2.86 151 3.81 131 -4.5 91 -5.7 0 0 989.1 NA 0.0000 9999 2030 0 0 0
2019/06/21 23:33:00 BASE 2.72 150 3.81 131 -4.5 91 -5.7 0 0 989.1 NA 0.0000 9999 2000 0 0 0
2019/06/21 23:34:00 BASE 1.67 156 3.81 131 -4.4 91 -5.7 0 0 989.1 NA 0.0000 9999 2030 0 0 0
2019/06/21 23:35:00 BASE 0.86 156 3.81 131 -4.4 90 -5.7 0 0 989.1 NA 0.0000 9999 1970 0 0 0
2019/06/21 23:36:00 BASE 1.68 156 3.81 131 -4.4 90 -5.8 0 0 989.1 NA 0.0000 9999 1710 0 0 0
2019/06/21 23:37:00 BASE 2.70 158 3.81 131 -4.4 90 -5.8 0 0 989.1 NA 0.0000 9999 2030 0 0 0
2019/06/21 23:38:00 BASE 3.29 148 4.58 154 -4.4 89 -5.9 0 0 989.1 NA 0.0000 9999 1900 0 0 0
2019/06/21 23:39:00 BASE 4.19 142 5.25 138 -4.4 89 -5.9 0 0 989.1 NA 0.0000 9999 1870 0 0 0
2019/06/21 23:40:00 BASE 4.67 138 5.25 138 -4.4 89 -6.0 0 0 989.1 NA 0.0000 9999 1970 0 0 0
2019/06/21 23:41:00 BASE 4.32 132 5.25 138 -4.5 89 -5.9 0 0 989.1 NA 0.0000 9999 2000 0 0 0
2019/06/21 23:42:00 BASE 4.10 127 5.25 138 -4.5 90 -5.9 0 0 989.1 NA 0.0000 9999 1800 0 0 0
2019/06/21 23:43:00 BASE 3.99 121 5.25 138 -4.5 90 -5.9 0 0 989.1 NA 0.0000 9999 1900 0 0 0
2019/06/21 23:44:00 BASE 3.83 123 5.25 138 -4.5 90 -5.8 0 0 989.1 NA 0.0000 9999 1870 0 0 0
2019/06/21 23:45:00 BASE 3.75 133 5.25 138 -4.5 90 -5.8 0 0 989.1 NA 0.0000 9999 1710 0 0 0
2019/06/21 23:46:00 BASE 3.81 146 5.25 138 -4.5 91 -5.8 0 0 989.1 NA 0.0000 9999 1610 0 0 0
2019/06/21 23:47:00 BASE 4.14 154 5.25 138 -4.5 91 -5.8 0 0 989.1 NA 0.0000 9999 1610 0 0 0
2019/06/21 23:48:00 BASE 4.49 159 5.25 138 -4.6 91 -5.7 0 0 989.1 NA 0.0000 9999 1440 0 0 0
2019/06/21 23:49:00 BASE 5.18 169 7.00 178 -4.6 92 -5.7 0 0 989.1 NA 0.0000 9999 1540 0 0 0
2019/06/21 23:50:00 BASE 6.35 174 7.41 173 -4.6 92 -5.7 0 0 989.1 NA 0.0000 9999 1380 0 0 0
2019/06/21 23:51:00 BASE 6.86 175 7.41 173 -4.6 93 -5.6 0 0 989.1 NA 0.0000 9999 1380 2030 0 0
2019/06/21 23:52:00 BASE 6.60 173 7.41 173 -4.6 93 -5.6 0 0 989.1 NA 0.0000 9999 1410 2030 0 0
2019/06/21 23:53:00 BASE 6.79 171 7.61 176 -4.6 93 -5.5 0 0 989.1 NA 0.0000 9999 1710 0 0 0
2019/06/21 23:54:00 BASE 6.63 168 7.61 176 -4.6 94 -5.5 0 0 989.1 NA 0.0000 9999 1870 0 0 0
2019/06/21 23:55:00 BASE 6.31 167 7.61 176 -4.7 94 -5.5 0 0 989.1 NA 0.0000 9999 1770 0 0 0
2019/06/21 23:56:00 BASE 5.97 175 7.61 176 -4.7 94 -5.5 0 0 989.1 NA 0.0000 9999 1670 0 0 0
2019/06/21 23:57:00 BASE 5.19 182 7.61 176 -4.7 94 -5.5 0 0 989.1 NA 0.0000 9999 1710 0 0 0
2019/06/21 23:58:00 BASE 4.74 182 7.61 176 -4.7 94 -5.5 0 0 989.1 NA 0.0000 9999 1670 0 0 0
2019/06/21 23:59:00 BASE 4.19 178 7.61 176 -4.7 95 -5.4 0 0 989.1 NA 0.0000 9999 1900 0 0 0